<?xml version="1.0" encoding="UTF-8" standalone="no" ?>
<gpx xmlns="http://www.topografix.com/GPX/1/1" xmlns:xsi="http://www.w3.org/2001/XMLSchema-instance" xsi:schemaLocation="http://www.topografix.com/GPX/1/1 http://www.topografix.com/GPX/1/1/gpx.xsd" version="1.1" creator="VisuGPX - https://www.visugpx.com">
  <metadata>
    <name>Latresne-ledragon-5/08/15</name>
    <desc><![CDATA[IL faisait beau]]></desc>
  </metadata>
  <trk>
    <name><![CDATA[Sequence 1]]></name>
    <trkseg>
      <trkpt lat="44.80069" lon="-0.50738">
        <ele>10</ele>
        <time>2015-08-05T07:29:59Z</time>
      </trkpt>
      <trkpt lat="44.80069" lon="-0.50739">
        <ele>10</ele>
        <time>2015-08-05T07:30:04Z</time>
      </trkpt>
      <trkpt lat="44.8007" lon="-0.50738">
        <ele>10</ele>
        <time>2015-08-05T07:30:09Z</time>
      </trkpt>
      <trkpt lat="44.8007" lon="-0.50738">
        <ele>10</ele>
        <time>2015-08-05T07:30:14Z</time>
      </trkpt>
      <trkpt lat="44.8007" lon="-0.50738">
        <ele>10</ele>
        <time>2015-08-05T07:30:19Z</time>
      </trkpt>
      <trkpt lat="44.80069" lon="-0.50737">
        <ele>9</ele>
        <time>2015-08-05T07:30:24Z</time>
      </trkpt>
      <trkpt lat="44.8007" lon="-0.50737">
        <ele>9</ele>
        <time>2015-08-05T07:30:29Z</time>
      </trkpt>
      <trkpt lat="44.80069" lon="-0.5073">
        <ele>9</ele>
        <time>2015-08-05T07:30:34Z</time>
      </trkpt>
      <trkpt lat="44.80073" lon="-0.50716">
        <ele>9</ele>
        <time>2015-08-05T07:30:39Z</time>
      </trkpt>
      <trkpt lat="44.80077" lon="-0.50695">
        <ele>8</ele>
        <time>2015-08-05T07:30:44Z</time>
      </trkpt>
      <trkpt lat="44.80082" lon="-0.50674">
        <ele>10</ele>
        <time>2015-08-05T07:30:49Z</time>
      </trkpt>
      <trkpt lat="44.80088" lon="-0.50651">
        <ele>11</ele>
        <time>2015-08-05T07:30:54Z</time>
      </trkpt>
      <trkpt lat="44.80094" lon="-0.50627">
        <ele>12</ele>
        <time>2015-08-05T07:30:59Z</time>
      </trkpt>
      <trkpt lat="44.801" lon="-0.50604">
        <ele>12</ele>
        <time>2015-08-05T07:31:04Z</time>
      </trkpt>
      <trkpt lat="44.80106" lon="-0.50579">
        <ele>12</ele>
        <time>2015-08-05T07:31:09Z</time>
      </trkpt>
      <trkpt lat="44.80111" lon="-0.50554">
        <ele>12</ele>
        <time>2015-08-05T07:31:14Z</time>
      </trkpt>
      <trkpt lat="44.80117" lon="-0.50523">
        <ele>12</ele>
        <time>2015-08-05T07:31:20Z</time>
      </trkpt>
      <trkpt lat="44.80121" lon="-0.505">
        <ele>11</ele>
        <time>2015-08-05T07:31:24Z</time>
      </trkpt>
      <trkpt lat="44.80124" lon="-0.50474">
        <ele>9</ele>
        <time>2015-08-05T07:31:29Z</time>
      </trkpt>
      <trkpt lat="44.80128" lon="-0.50444">
        <ele>9</ele>
        <time>2015-08-05T07:31:34Z</time>
      </trkpt>
      <trkpt lat="44.80132" lon="-0.50417">
        <ele>9</ele>
        <time>2015-08-05T07:31:39Z</time>
      </trkpt>
      <trkpt lat="44.80136" lon="-0.50389">
        <ele>9</ele>
        <time>2015-08-05T07:31:44Z</time>
      </trkpt>
      <trkpt lat="44.80141" lon="-0.50364">
        <ele>9</ele>
        <time>2015-08-05T07:31:49Z</time>
      </trkpt>
      <trkpt lat="44.80144" lon="-0.50339">
        <ele>9</ele>
        <time>2015-08-05T07:31:54Z</time>
      </trkpt>
      <trkpt lat="44.80146" lon="-0.50325">
        <ele>10</ele>
        <time>2015-08-05T07:31:59Z</time>
      </trkpt>
      <trkpt lat="44.80146" lon="-0.50321">
        <ele>9</ele>
        <time>2015-08-05T07:32:04Z</time>
      </trkpt>
      <trkpt lat="44.80146" lon="-0.50322">
        <ele>9</ele>
        <time>2015-08-05T07:32:09Z</time>
      </trkpt>
      <trkpt lat="44.80146" lon="-0.50321">
        <ele>9</ele>
        <time>2015-08-05T07:32:14Z</time>
      </trkpt>
      <trkpt lat="44.8015" lon="-0.50316">
        <ele>8</ele>
        <time>2015-08-05T07:32:19Z</time>
      </trkpt>
      <trkpt lat="44.8016" lon="-0.50293">
        <ele>9</ele>
        <time>2015-08-05T07:32:24Z</time>
      </trkpt>
      <trkpt lat="44.8016" lon="-0.50266">
        <ele>10</ele>
        <time>2015-08-05T07:32:29Z</time>
      </trkpt>
      <trkpt lat="44.8016" lon="-0.50247">
        <ele>12</ele>
        <time>2015-08-05T07:32:34Z</time>
      </trkpt>
      <trkpt lat="44.80149" lon="-0.50232">
        <ele>15</ele>
        <time>2015-08-05T07:32:42Z</time>
      </trkpt>
      <trkpt lat="44.80143" lon="-0.5023">
        <ele>16</ele>
        <time>2015-08-05T07:32:46Z</time>
      </trkpt>
      <trkpt lat="44.80139" lon="-0.50227">
        <ele>16</ele>
        <time>2015-08-05T07:32:49Z</time>
      </trkpt>
      <trkpt lat="44.80132" lon="-0.50222">
        <ele>16</ele>
        <time>2015-08-05T07:32:54Z</time>
      </trkpt>
      <trkpt lat="44.80121" lon="-0.50216">
        <ele>16</ele>
        <time>2015-08-05T07:33:03Z</time>
      </trkpt>
      <trkpt lat="44.8012" lon="-0.50216">
        <ele>16</ele>
        <time>2015-08-05T07:33:04Z</time>
      </trkpt>
      <trkpt lat="44.80115" lon="-0.50214">
        <ele>17</ele>
        <time>2015-08-05T07:33:09Z</time>
      </trkpt>
      <trkpt lat="44.80107" lon="-0.50207">
        <ele>23</ele>
        <time>2015-08-05T07:33:18Z</time>
      </trkpt>
      <trkpt lat="44.80106" lon="-0.50207">
        <ele>24</ele>
        <time>2015-08-05T07:33:19Z</time>
      </trkpt>
      <trkpt lat="44.80096" lon="-0.502">
        <ele>29</ele>
        <time>2015-08-05T07:33:28Z</time>
      </trkpt>
      <trkpt lat="44.80094" lon="-0.50199">
        <ele>30</ele>
        <time>2015-08-05T07:33:30Z</time>
      </trkpt>
      <trkpt lat="44.80088" lon="-0.50192">
        <ele>29</ele>
        <time>2015-08-05T07:33:34Z</time>
      </trkpt>
      <trkpt lat="44.80085" lon="-0.50181">
        <ele>30</ele>
        <time>2015-08-05T07:33:39Z</time>
      </trkpt>
      <trkpt lat="44.80087" lon="-0.50172">
        <ele>32</ele>
        <time>2015-08-05T07:33:47Z</time>
      </trkpt>
      <trkpt lat="44.80088" lon="-0.50171">
        <ele>32</ele>
        <time>2015-08-05T07:33:49Z</time>
      </trkpt>
      <trkpt lat="44.8009" lon="-0.50167">
        <ele>33</ele>
        <time>2015-08-05T07:33:54Z</time>
      </trkpt>
      <trkpt lat="44.8009" lon="-0.50162">
        <ele>32</ele>
        <time>2015-08-05T07:33:59Z</time>
      </trkpt>
      <trkpt lat="44.80092" lon="-0.50152">
        <ele>32</ele>
        <time>2015-08-05T07:34:07Z</time>
      </trkpt>
      <trkpt lat="44.80093" lon="-0.50146">
        <ele>31</ele>
        <time>2015-08-05T07:34:10Z</time>
      </trkpt>
      <trkpt lat="44.80095" lon="-0.50137">
        <ele>29</ele>
        <time>2015-08-05T07:34:14Z</time>
      </trkpt>
      <trkpt lat="44.80101" lon="-0.50124">
        <ele>32</ele>
        <time>2015-08-05T07:34:19Z</time>
      </trkpt>
      <trkpt lat="44.80106" lon="-0.5011">
        <ele>33</ele>
        <time>2015-08-05T07:34:24Z</time>
      </trkpt>
      <trkpt lat="44.80113" lon="-0.50092">
        <ele>33</ele>
        <time>2015-08-05T07:34:29Z</time>
      </trkpt>
      <trkpt lat="44.80115" lon="-0.50072">
        <ele>35</ele>
        <time>2015-08-05T07:34:34Z</time>
      </trkpt>
      <trkpt lat="44.80117" lon="-0.50054">
        <ele>35</ele>
        <time>2015-08-05T07:34:39Z</time>
      </trkpt>
      <trkpt lat="44.80119" lon="-0.50036">
        <ele>37</ele>
        <time>2015-08-05T07:34:44Z</time>
      </trkpt>
      <trkpt lat="44.8012" lon="-0.5002">
        <ele>37</ele>
        <time>2015-08-05T07:34:49Z</time>
      </trkpt>
      <trkpt lat="44.80121" lon="-0.50002">
        <ele>36</ele>
        <time>2015-08-05T07:34:54Z</time>
      </trkpt>
      <trkpt lat="44.80122" lon="-0.49984">
        <ele>37</ele>
        <time>2015-08-05T07:34:59Z</time>
      </trkpt>
      <trkpt lat="44.80123" lon="-0.49966">
        <ele>37</ele>
        <time>2015-08-05T07:35:04Z</time>
      </trkpt>
      <trkpt lat="44.80122" lon="-0.49948">
        <ele>37</ele>
        <time>2015-08-05T07:35:09Z</time>
      </trkpt>
      <trkpt lat="44.8012" lon="-0.49931">
        <ele>37</ele>
        <time>2015-08-05T07:35:14Z</time>
      </trkpt>
      <trkpt lat="44.80118" lon="-0.49915">
        <ele>38</ele>
        <time>2015-08-05T07:35:19Z</time>
      </trkpt>
      <trkpt lat="44.80114" lon="-0.499">
        <ele>38</ele>
        <time>2015-08-05T07:35:24Z</time>
      </trkpt>
      <trkpt lat="44.80112" lon="-0.49885">
        <ele>38</ele>
        <time>2015-08-05T07:35:29Z</time>
      </trkpt>
      <trkpt lat="44.80112" lon="-0.49872">
        <ele>39</ele>
        <time>2015-08-05T07:35:34Z</time>
      </trkpt>
      <trkpt lat="44.80116" lon="-0.49862">
        <ele>39</ele>
        <time>2015-08-05T07:35:39Z</time>
      </trkpt>
      <trkpt lat="44.80121" lon="-0.4984">
        <ele>38</ele>
        <time>2015-08-05T07:35:44Z</time>
      </trkpt>
      <trkpt lat="44.80129" lon="-0.49813">
        <ele>37</ele>
        <time>2015-08-05T07:35:49Z</time>
      </trkpt>
      <trkpt lat="44.80136" lon="-0.49784">
        <ele>36</ele>
        <time>2015-08-05T07:35:54Z</time>
      </trkpt>
      <trkpt lat="44.80142" lon="-0.49759">
        <ele>36</ele>
        <time>2015-08-05T07:35:59Z</time>
      </trkpt>
      <trkpt lat="44.80148" lon="-0.49734">
        <ele>35</ele>
        <time>2015-08-05T07:36:04Z</time>
      </trkpt>
      <trkpt lat="44.80155" lon="-0.4971">
        <ele>36</ele>
        <time>2015-08-05T07:36:09Z</time>
      </trkpt>
      <trkpt lat="44.80158" lon="-0.49698">
        <ele>36</ele>
        <time>2015-08-05T07:36:14Z</time>
      </trkpt>
      <trkpt lat="44.80163" lon="-0.49689">
        <ele>36</ele>
        <time>2015-08-05T07:36:19Z</time>
      </trkpt>
      <trkpt lat="44.80181" lon="-0.49697">
        <ele>36</ele>
        <time>2015-08-05T07:36:27Z</time>
      </trkpt>
      <trkpt lat="44.80199" lon="-0.4971">
        <ele>36</ele>
        <time>2015-08-05T07:36:31Z</time>
      </trkpt>
      <trkpt lat="44.80216" lon="-0.49719">
        <ele>36</ele>
        <time>2015-08-05T07:36:34Z</time>
      </trkpt>
      <trkpt lat="44.80237" lon="-0.4971">
        <ele>34</ele>
        <time>2015-08-05T07:36:39Z</time>
      </trkpt>
      <trkpt lat="44.80241" lon="-0.49684">
        <ele>33</ele>
        <time>2015-08-05T07:36:44Z</time>
      </trkpt>
      <trkpt lat="44.80241" lon="-0.49626">
        <ele>32</ele>
        <time>2015-08-05T07:36:53Z</time>
      </trkpt>
      <trkpt lat="44.8024" lon="-0.49617">
        <ele>32</ele>
        <time>2015-08-05T07:36:54Z</time>
      </trkpt>
      <trkpt lat="44.8024" lon="-0.4957">
        <ele>29</ele>
        <time>2015-08-05T07:37:01Z</time>
      </trkpt>
      <trkpt lat="44.80246" lon="-0.49556">
        <ele>30</ele>
        <time>2015-08-05T07:37:04Z</time>
      </trkpt>
      <trkpt lat="44.8027" lon="-0.49544">
        <ele>30</ele>
        <time>2015-08-05T07:37:09Z</time>
      </trkpt>
      <trkpt lat="44.80299" lon="-0.49522">
        <ele>29</ele>
        <time>2015-08-05T07:37:14Z</time>
      </trkpt>
      <trkpt lat="44.80334" lon="-0.49503">
        <ele>24</ele>
        <time>2015-08-05T07:37:22Z</time>
      </trkpt>
      <trkpt lat="44.80338" lon="-0.49501">
        <ele>24</ele>
        <time>2015-08-05T07:37:25Z</time>
      </trkpt>
      <trkpt lat="44.80342" lon="-0.49498">
        <ele>23</ele>
        <time>2015-08-05T07:37:30Z</time>
      </trkpt>
      <trkpt lat="44.80343" lon="-0.49498">
        <ele>21</ele>
        <time>2015-08-05T07:37:34Z</time>
      </trkpt>
      <trkpt lat="44.80346" lon="-0.49492">
        <ele>25</ele>
        <time>2015-08-05T07:37:39Z</time>
      </trkpt>
      <trkpt lat="44.80354" lon="-0.49476">
        <ele>24</ele>
        <time>2015-08-05T07:37:47Z</time>
      </trkpt>
      <trkpt lat="44.8035" lon="-0.4946">
        <ele>24</ele>
        <time>2015-08-05T07:37:52Z</time>
      </trkpt>
      <trkpt lat="44.80348" lon="-0.4945">
        <ele>25</ele>
        <time>2015-08-05T07:37:54Z</time>
      </trkpt>
      <trkpt lat="44.80347" lon="-0.49427">
        <ele>24</ele>
        <time>2015-08-05T07:37:59Z</time>
      </trkpt>
      <trkpt lat="44.80345" lon="-0.49406">
        <ele>26</ele>
        <time>2015-08-05T07:38:06Z</time>
      </trkpt>
      <trkpt lat="44.80339" lon="-0.49387">
        <ele>23</ele>
        <time>2015-08-05T07:38:13Z</time>
      </trkpt>
      <trkpt lat="44.80338" lon="-0.49384">
        <ele>23</ele>
        <time>2015-08-05T07:38:14Z</time>
      </trkpt>
      <trkpt lat="44.80329" lon="-0.49364">
        <ele>20</ele>
        <time>2015-08-05T07:38:22Z</time>
      </trkpt>
      <trkpt lat="44.80329" lon="-0.49359">
        <ele>21</ele>
        <time>2015-08-05T07:38:24Z</time>
      </trkpt>
      <trkpt lat="44.8033" lon="-0.49346">
        <ele>21</ele>
        <time>2015-08-05T07:38:30Z</time>
      </trkpt>
      <trkpt lat="44.80329" lon="-0.49338">
        <ele>26</ele>
        <time>2015-08-05T07:38:34Z</time>
      </trkpt>
      <trkpt lat="44.80331" lon="-0.49331">
        <ele>26</ele>
        <time>2015-08-05T07:38:42Z</time>
      </trkpt>
      <trkpt lat="44.8033" lon="-0.49331">
        <ele>26</ele>
        <time>2015-08-05T07:38:44Z</time>
      </trkpt>
      <trkpt lat="44.80325" lon="-0.49318">
        <ele>28</ele>
        <time>2015-08-05T07:38:53Z</time>
      </trkpt>
      <trkpt lat="44.80324" lon="-0.49318">
        <ele>28</ele>
        <time>2015-08-05T07:38:54Z</time>
      </trkpt>
      <trkpt lat="44.80323" lon="-0.49312">
        <ele>29</ele>
        <time>2015-08-05T07:38:59Z</time>
      </trkpt>
      <trkpt lat="44.80318" lon="-0.49292">
        <ele>27</ele>
        <time>2015-08-05T07:39:08Z</time>
      </trkpt>
      <trkpt lat="44.80317" lon="-0.4929">
        <ele>28</ele>
        <time>2015-08-05T07:39:09Z</time>
      </trkpt>
      <trkpt lat="44.80316" lon="-0.49276">
        <ele>29</ele>
        <time>2015-08-05T07:39:15Z</time>
      </trkpt>
      <trkpt lat="44.80317" lon="-0.49268">
        <ele>28</ele>
        <time>2015-08-05T07:39:19Z</time>
      </trkpt>
      <trkpt lat="44.80316" lon="-0.49259">
        <ele>31</ele>
        <time>2015-08-05T07:39:26Z</time>
      </trkpt>
      <trkpt lat="44.80316" lon="-0.49257">
        <ele>32</ele>
        <time>2015-08-05T07:39:29Z</time>
      </trkpt>
      <trkpt lat="44.80315" lon="-0.49256">
        <ele>33</ele>
        <time>2015-08-05T07:39:34Z</time>
      </trkpt>
      <trkpt lat="44.80315" lon="-0.49257">
        <ele>33</ele>
        <time>2015-08-05T07:39:39Z</time>
      </trkpt>
      <trkpt lat="44.80315" lon="-0.49257">
        <ele>33</ele>
        <time>2015-08-05T07:39:44Z</time>
      </trkpt>
      <trkpt lat="44.80314" lon="-0.49256">
        <ele>33</ele>
        <time>2015-08-05T07:39:49Z</time>
      </trkpt>
      <trkpt lat="44.80314" lon="-0.49256">
        <ele>34</ele>
        <time>2015-08-05T07:39:54Z</time>
      </trkpt>
      <trkpt lat="44.80315" lon="-0.49256">
        <ele>35</ele>
        <time>2015-08-05T07:39:59Z</time>
      </trkpt>
      <trkpt lat="44.8032" lon="-0.49252">
        <ele>36</ele>
        <time>2015-08-05T07:40:04Z</time>
      </trkpt>
      <trkpt lat="44.80324" lon="-0.49247">
        <ele>37</ele>
        <time>2015-08-05T07:40:09Z</time>
      </trkpt>
      <trkpt lat="44.80328" lon="-0.49244">
        <ele>38</ele>
        <time>2015-08-05T07:40:14Z</time>
      </trkpt>
      <trkpt lat="44.80332" lon="-0.49242">
        <ele>40</ele>
        <time>2015-08-05T07:40:20Z</time>
      </trkpt>
      <trkpt lat="44.80334" lon="-0.49239">
        <ele>40</ele>
        <time>2015-08-05T07:40:24Z</time>
      </trkpt>
      <trkpt lat="44.80336" lon="-0.49238">
        <ele>41</ele>
        <time>2015-08-05T07:40:29Z</time>
      </trkpt>
      <trkpt lat="44.80339" lon="-0.49234">
        <ele>42</ele>
        <time>2015-08-05T07:40:35Z</time>
      </trkpt>
      <trkpt lat="44.80342" lon="-0.49231">
        <ele>43</ele>
        <time>2015-08-05T07:40:39Z</time>
      </trkpt>
      <trkpt lat="44.8035" lon="-0.49225">
        <ele>45</ele>
        <time>2015-08-05T07:40:45Z</time>
      </trkpt>
      <trkpt lat="44.80355" lon="-0.49219">
        <ele>46</ele>
        <time>2015-08-05T07:40:49Z</time>
      </trkpt>
      <trkpt lat="44.80369" lon="-0.49207">
        <ele>48</ele>
        <time>2015-08-05T07:40:57Z</time>
      </trkpt>
      <trkpt lat="44.80372" lon="-0.49205">
        <ele>51</ele>
        <time>2015-08-05T07:40:59Z</time>
      </trkpt>
      <trkpt lat="44.8038" lon="-0.49196">
        <ele>53</ele>
        <time>2015-08-05T07:41:04Z</time>
      </trkpt>
      <trkpt lat="44.80389" lon="-0.49186">
        <ele>53</ele>
        <time>2015-08-05T07:41:09Z</time>
      </trkpt>
      <trkpt lat="44.80394" lon="-0.4918">
        <ele>54</ele>
        <time>2015-08-05T07:41:14Z</time>
      </trkpt>
      <trkpt lat="44.804" lon="-0.49173">
        <ele>56</ele>
        <time>2015-08-05T07:41:19Z</time>
      </trkpt>
      <trkpt lat="44.80401" lon="-0.4917">
        <ele>56</ele>
        <time>2015-08-05T07:41:24Z</time>
      </trkpt>
      <trkpt lat="44.80402" lon="-0.49169">
        <ele>55</ele>
        <time>2015-08-05T07:41:30Z</time>
      </trkpt>
      <trkpt lat="44.80406" lon="-0.49158">
        <ele>57</ele>
        <time>2015-08-05T07:41:35Z</time>
      </trkpt>
      <trkpt lat="44.80406" lon="-0.49145">
        <ele>58</ele>
        <time>2015-08-05T07:41:39Z</time>
      </trkpt>
      <trkpt lat="44.80402" lon="-0.49127">
        <ele>57</ele>
        <time>2015-08-05T07:41:44Z</time>
      </trkpt>
      <trkpt lat="44.80401" lon="-0.49108">
        <ele>60</ele>
        <time>2015-08-05T07:41:51Z</time>
      </trkpt>
      <trkpt lat="44.80398" lon="-0.49091">
        <ele>59</ele>
        <time>2015-08-05T07:41:56Z</time>
      </trkpt>
      <trkpt lat="44.80397" lon="-0.4908">
        <ele>60</ele>
        <time>2015-08-05T07:41:59Z</time>
      </trkpt>
      <trkpt lat="44.804" lon="-0.49049">
        <ele>60</ele>
        <time>2015-08-05T07:42:08Z</time>
      </trkpt>
      <trkpt lat="44.80401" lon="-0.49046">
        <ele>60</ele>
        <time>2015-08-05T07:42:09Z</time>
      </trkpt>
      <trkpt lat="44.80406" lon="-0.49032">
        <ele>62</ele>
        <time>2015-08-05T07:42:14Z</time>
      </trkpt>
      <trkpt lat="44.80412" lon="-0.49021">
        <ele>63</ele>
        <time>2015-08-05T07:42:19Z</time>
      </trkpt>
      <trkpt lat="44.8042" lon="-0.49011">
        <ele>63</ele>
        <time>2015-08-05T07:42:24Z</time>
      </trkpt>
      <trkpt lat="44.80428" lon="-0.49002">
        <ele>64</ele>
        <time>2015-08-05T07:42:29Z</time>
      </trkpt>
      <trkpt lat="44.80435" lon="-0.4899">
        <ele>64</ele>
        <time>2015-08-05T07:42:34Z</time>
      </trkpt>
      <trkpt lat="44.80442" lon="-0.48977">
        <ele>64</ele>
        <time>2015-08-05T07:42:39Z</time>
      </trkpt>
      <trkpt lat="44.80452" lon="-0.48968">
        <ele>65</ele>
        <time>2015-08-05T07:42:44Z</time>
      </trkpt>
      <trkpt lat="44.80462" lon="-0.48962">
        <ele>64</ele>
        <time>2015-08-05T07:42:49Z</time>
      </trkpt>
      <trkpt lat="44.80476" lon="-0.48956">
        <ele>63</ele>
        <time>2015-08-05T07:42:54Z</time>
      </trkpt>
      <trkpt lat="44.80488" lon="-0.48943">
        <ele>63</ele>
        <time>2015-08-05T07:42:59Z</time>
      </trkpt>
      <trkpt lat="44.80486" lon="-0.48919">
        <ele>63</ele>
        <time>2015-08-05T07:43:04Z</time>
      </trkpt>
      <trkpt lat="44.80492" lon="-0.48892">
        <ele>64</ele>
        <time>2015-08-05T07:43:10Z</time>
      </trkpt>
      <trkpt lat="44.805" lon="-0.48873">
        <ele>63</ele>
        <time>2015-08-05T07:43:14Z</time>
      </trkpt>
      <trkpt lat="44.80511" lon="-0.48848">
        <ele>62</ele>
        <time>2015-08-05T07:43:19Z</time>
      </trkpt>
      <trkpt lat="44.80521" lon="-0.48804">
        <ele>65</ele>
        <time>2015-08-05T07:43:27Z</time>
      </trkpt>
      <trkpt lat="44.80521" lon="-0.48792">
        <ele>65</ele>
        <time>2015-08-05T07:43:29Z</time>
      </trkpt>
      <trkpt lat="44.8052" lon="-0.48765">
        <ele>65</ele>
        <time>2015-08-05T07:43:34Z</time>
      </trkpt>
      <trkpt lat="44.80519" lon="-0.48746">
        <ele>65</ele>
        <time>2015-08-05T07:43:39Z</time>
      </trkpt>
      <trkpt lat="44.80522" lon="-0.48732">
        <ele>64</ele>
        <time>2015-08-05T07:43:44Z</time>
      </trkpt>
      <trkpt lat="44.8054" lon="-0.48722">
        <ele>62</ele>
        <time>2015-08-05T07:43:49Z</time>
      </trkpt>
      <trkpt lat="44.80564" lon="-0.48713">
        <ele>60</ele>
        <time>2015-08-05T07:43:54Z</time>
      </trkpt>
      <trkpt lat="44.80599" lon="-0.48699">
        <ele>58</ele>
        <time>2015-08-05T07:44:01Z</time>
      </trkpt>
      <trkpt lat="44.80612" lon="-0.4869">
        <ele>55</ele>
        <time>2015-08-05T07:44:05Z</time>
      </trkpt>
      <trkpt lat="44.80626" lon="-0.48685">
        <ele>55</ele>
        <time>2015-08-05T07:44:09Z</time>
      </trkpt>
      <trkpt lat="44.80644" lon="-0.48672">
        <ele>53</ele>
        <time>2015-08-05T07:44:14Z</time>
      </trkpt>
      <trkpt lat="44.80656" lon="-0.48666">
        <ele>53</ele>
        <time>2015-08-05T07:44:19Z</time>
      </trkpt>
      <trkpt lat="44.80684" lon="-0.48645">
        <ele>52</ele>
        <time>2015-08-05T07:44:24Z</time>
      </trkpt>
      <trkpt lat="44.80726" lon="-0.48625">
        <ele>53</ele>
        <time>2015-08-05T07:44:33Z</time>
      </trkpt>
      <trkpt lat="44.80732" lon="-0.4862">
        <ele>54</ele>
        <time>2015-08-05T07:44:35Z</time>
      </trkpt>
      <trkpt lat="44.80747" lon="-0.4861">
        <ele>53</ele>
        <time>2015-08-05T07:44:39Z</time>
      </trkpt>
      <trkpt lat="44.80758" lon="-0.48603">
        <ele>55</ele>
        <time>2015-08-05T07:44:44Z</time>
      </trkpt>
      <trkpt lat="44.80768" lon="-0.48584">
        <ele>53</ele>
        <time>2015-08-05T07:44:49Z</time>
      </trkpt>
      <trkpt lat="44.80778" lon="-0.48565">
        <ele>51</ele>
        <time>2015-08-05T07:44:54Z</time>
      </trkpt>
      <trkpt lat="44.80787" lon="-0.48549">
        <ele>51</ele>
        <time>2015-08-05T07:44:59Z</time>
      </trkpt>
      <trkpt lat="44.80798" lon="-0.4853">
        <ele>50</ele>
        <time>2015-08-05T07:45:05Z</time>
      </trkpt>
      <trkpt lat="44.80807" lon="-0.48521">
        <ele>52</ele>
        <time>2015-08-05T07:45:09Z</time>
      </trkpt>
      <trkpt lat="44.80819" lon="-0.48513">
        <ele>53</ele>
        <time>2015-08-05T07:45:14Z</time>
      </trkpt>
      <trkpt lat="44.80832" lon="-0.48511">
        <ele>54</ele>
        <time>2015-08-05T07:45:19Z</time>
      </trkpt>
      <trkpt lat="44.80852" lon="-0.48513">
        <ele>57</ele>
        <time>2015-08-05T07:45:27Z</time>
      </trkpt>
      <trkpt lat="44.80856" lon="-0.48513">
        <ele>59</ele>
        <time>2015-08-05T07:45:29Z</time>
      </trkpt>
      <trkpt lat="44.80862" lon="-0.48512">
        <ele>60</ele>
        <time>2015-08-05T07:45:34Z</time>
      </trkpt>
      <trkpt lat="44.80873" lon="-0.48507">
        <ele>60</ele>
        <time>2015-08-05T07:45:39Z</time>
      </trkpt>
      <trkpt lat="44.80884" lon="-0.48504">
        <ele>63</ele>
        <time>2015-08-05T07:45:46Z</time>
      </trkpt>
      <trkpt lat="44.80888" lon="-0.48504">
        <ele>65</ele>
        <time>2015-08-05T07:45:49Z</time>
      </trkpt>
      <trkpt lat="44.80895" lon="-0.48499">
        <ele>65</ele>
        <time>2015-08-05T07:45:54Z</time>
      </trkpt>
      <trkpt lat="44.80907" lon="-0.48498">
        <ele>72</ele>
        <time>2015-08-05T07:46:03Z</time>
      </trkpt>
      <trkpt lat="44.8091" lon="-0.48499">
        <ele>72</ele>
        <time>2015-08-05T07:46:06Z</time>
      </trkpt>
      <trkpt lat="44.80916" lon="-0.48499">
        <ele>75</ele>
        <time>2015-08-05T07:46:11Z</time>
      </trkpt>
      <trkpt lat="44.80918" lon="-0.485">
        <ele>74</ele>
        <time>2015-08-05T07:46:14Z</time>
      </trkpt>
      <trkpt lat="44.80923" lon="-0.48504">
        <ele>76</ele>
        <time>2015-08-05T07:46:19Z</time>
      </trkpt>
      <trkpt lat="44.8093" lon="-0.48507">
        <ele>76</ele>
        <time>2015-08-05T07:46:24Z</time>
      </trkpt>
      <trkpt lat="44.80936" lon="-0.48508">
        <ele>76</ele>
        <time>2015-08-05T07:46:29Z</time>
      </trkpt>
      <trkpt lat="44.80941" lon="-0.48522">
        <ele>78</ele>
        <time>2015-08-05T07:46:35Z</time>
      </trkpt>
      <trkpt lat="44.80946" lon="-0.48543">
        <ele>81</ele>
        <time>2015-08-05T07:46:39Z</time>
      </trkpt>
      <trkpt lat="44.80951" lon="-0.48561">
        <ele>81</ele>
        <time>2015-08-05T07:46:44Z</time>
      </trkpt>
      <trkpt lat="44.80956" lon="-0.48577">
        <ele>81</ele>
        <time>2015-08-05T07:46:49Z</time>
      </trkpt>
      <trkpt lat="44.80959" lon="-0.48593">
        <ele>80</ele>
        <time>2015-08-05T07:46:54Z</time>
      </trkpt>
      <trkpt lat="44.80963" lon="-0.48609">
        <ele>81</ele>
        <time>2015-08-05T07:46:59Z</time>
      </trkpt>
      <trkpt lat="44.80965" lon="-0.48623">
        <ele>83</ele>
        <time>2015-08-05T07:47:04Z</time>
      </trkpt>
      <trkpt lat="44.80968" lon="-0.48637">
        <ele>83</ele>
        <time>2015-08-05T07:47:09Z</time>
      </trkpt>
      <trkpt lat="44.80971" lon="-0.48646">
        <ele>84</ele>
        <time>2015-08-05T07:47:14Z</time>
      </trkpt>
      <trkpt lat="44.80976" lon="-0.48654">
        <ele>79</ele>
        <time>2015-08-05T07:47:19Z</time>
      </trkpt>
      <trkpt lat="44.80983" lon="-0.48662">
        <ele>74</ele>
        <time>2015-08-05T07:47:24Z</time>
      </trkpt>
      <trkpt lat="44.80989" lon="-0.48672">
        <ele>73</ele>
        <time>2015-08-05T07:47:29Z</time>
      </trkpt>
      <trkpt lat="44.80991" lon="-0.48684">
        <ele>72</ele>
        <time>2015-08-05T07:47:34Z</time>
      </trkpt>
      <trkpt lat="44.80994" lon="-0.48702">
        <ele>74</ele>
        <time>2015-08-05T07:47:42Z</time>
      </trkpt>
      <trkpt lat="44.80994" lon="-0.48706">
        <ele>74</ele>
        <time>2015-08-05T07:47:44Z</time>
      </trkpt>
      <trkpt lat="44.80992" lon="-0.48716">
        <ele>75</ele>
        <time>2015-08-05T07:47:49Z</time>
      </trkpt>
      <trkpt lat="44.8098" lon="-0.48725">
        <ele>73</ele>
        <time>2015-08-05T07:47:55Z</time>
      </trkpt>
      <trkpt lat="44.80975" lon="-0.48746">
        <ele>70</ele>
        <time>2015-08-05T07:47:59Z</time>
      </trkpt>
      <trkpt lat="44.80974" lon="-0.48777">
        <ele>70</ele>
        <time>2015-08-05T07:48:04Z</time>
      </trkpt>
      <trkpt lat="44.80977" lon="-0.48826">
        <ele>68</ele>
        <time>2015-08-05T07:48:11Z</time>
      </trkpt>
      <trkpt lat="44.80974" lon="-0.48851">
        <ele>67</ele>
        <time>2015-08-05T07:48:14Z</time>
      </trkpt>
      <trkpt lat="44.80949" lon="-0.48923">
        <ele>64</ele>
        <time>2015-08-05T07:48:23Z</time>
      </trkpt>
      <trkpt lat="44.80949" lon="-0.48932">
        <ele>64</ele>
        <time>2015-08-05T07:48:24Z</time>
      </trkpt>
      <trkpt lat="44.8093" lon="-0.48983">
        <ele>64</ele>
        <time>2015-08-05T07:48:33Z</time>
      </trkpt>
      <trkpt lat="44.80927" lon="-0.48987">
        <ele>64</ele>
        <time>2015-08-05T07:48:34Z</time>
      </trkpt>
      <trkpt lat="44.80914" lon="-0.48995">
        <ele>63</ele>
        <time>2015-08-05T07:48:39Z</time>
      </trkpt>
      <trkpt lat="44.80893" lon="-0.49013">
        <ele>63</ele>
        <time>2015-08-05T07:48:44Z</time>
      </trkpt>
      <trkpt lat="44.80843" lon="-0.49097">
        <ele>56</ele>
        <time>2015-08-05T07:48:53Z</time>
      </trkpt>
      <trkpt lat="44.80837" lon="-0.49115">
        <ele>41</ele>
        <time>2015-08-05T07:48:57Z</time>
      </trkpt>
      <trkpt lat="44.80841" lon="-0.49121">
        <ele>33</ele>
        <time>2015-08-05T07:49:02Z</time>
      </trkpt>
      <trkpt lat="44.80842" lon="-0.4913">
        <ele>32</ele>
        <time>2015-08-05T07:49:04Z</time>
      </trkpt>
      <trkpt lat="44.80847" lon="-0.49163">
        <ele>29</ele>
        <time>2015-08-05T07:49:09Z</time>
      </trkpt>
      <trkpt lat="44.80851" lon="-0.49206">
        <ele>26</ele>
        <time>2015-08-05T07:49:14Z</time>
      </trkpt>
      <trkpt lat="44.80834" lon="-0.49283">
        <ele>19</ele>
        <time>2015-08-05T07:49:22Z</time>
      </trkpt>
      <trkpt lat="44.80827" lon="-0.49301">
        <ele>17</ele>
        <time>2015-08-05T07:49:24Z</time>
      </trkpt>
      <trkpt lat="44.80801" lon="-0.49351">
        <ele>16</ele>
        <time>2015-08-05T07:49:30Z</time>
      </trkpt>
      <trkpt lat="44.80781" lon="-0.4939">
        <ele>16</ele>
        <time>2015-08-05T07:49:35Z</time>
      </trkpt>
      <trkpt lat="44.80764" lon="-0.4942">
        <ele>15</ele>
        <time>2015-08-05T07:49:39Z</time>
      </trkpt>
      <trkpt lat="44.80742" lon="-0.49459">
        <ele>15</ele>
        <time>2015-08-05T07:49:44Z</time>
      </trkpt>
      <trkpt lat="44.80721" lon="-0.49496">
        <ele>13</ele>
        <time>2015-08-05T07:49:49Z</time>
      </trkpt>
      <trkpt lat="44.807" lon="-0.49532">
        <ele>14</ele>
        <time>2015-08-05T07:49:54Z</time>
      </trkpt>
      <trkpt lat="44.8068" lon="-0.49564">
        <ele>15</ele>
        <time>2015-08-05T07:49:59Z</time>
      </trkpt>
      <trkpt lat="44.80663" lon="-0.49592">
        <ele>15</ele>
        <time>2015-08-05T07:50:04Z</time>
      </trkpt>
      <trkpt lat="44.80642" lon="-0.49626">
        <ele>16</ele>
        <time>2015-08-05T07:50:10Z</time>
      </trkpt>
      <trkpt lat="44.80627" lon="-0.4965">
        <ele>16</ele>
        <time>2015-08-05T07:50:14Z</time>
      </trkpt>
      <trkpt lat="44.80608" lon="-0.49678">
        <ele>16</ele>
        <time>2015-08-05T07:50:19Z</time>
      </trkpt>
      <trkpt lat="44.8059" lon="-0.49709">
        <ele>14</ele>
        <time>2015-08-05T07:50:24Z</time>
      </trkpt>
      <trkpt lat="44.80554" lon="-0.49764">
        <ele>13</ele>
        <time>2015-08-05T07:50:33Z</time>
      </trkpt>
      <trkpt lat="44.80548" lon="-0.4977">
        <ele>12</ele>
        <time>2015-08-05T07:50:34Z</time>
      </trkpt>
      <trkpt lat="44.80522" lon="-0.49807">
        <ele>12</ele>
        <time>2015-08-05T07:50:40Z</time>
      </trkpt>
      <trkpt lat="44.80522" lon="-0.49825">
        <ele>8</ele>
        <time>2015-08-05T07:50:44Z</time>
      </trkpt>
      <trkpt lat="44.80555" lon="-0.49827">
        <ele>7</ele>
        <time>2015-08-05T07:50:51Z</time>
      </trkpt>
      <trkpt lat="44.80569" lon="-0.49829">
        <ele>8</ele>
        <time>2015-08-05T07:50:54Z</time>
      </trkpt>
      <trkpt lat="44.80588" lon="-0.49837">
        <ele>9</ele>
        <time>2015-08-05T07:50:59Z</time>
      </trkpt>
      <trkpt lat="44.80612" lon="-0.49842">
        <ele>10</ele>
        <time>2015-08-05T07:51:06Z</time>
      </trkpt>
      <trkpt lat="44.80623" lon="-0.49844">
        <ele>10</ele>
        <time>2015-08-05T07:51:10Z</time>
      </trkpt>
      <trkpt lat="44.80633" lon="-0.49848">
        <ele>11</ele>
        <time>2015-08-05T07:51:14Z</time>
      </trkpt>
      <trkpt lat="44.80644" lon="-0.49854">
        <ele>10</ele>
        <time>2015-08-05T07:51:19Z</time>
      </trkpt>
      <trkpt lat="44.80655" lon="-0.4986">
        <ele>11</ele>
        <time>2015-08-05T07:51:24Z</time>
      </trkpt>
      <trkpt lat="44.80668" lon="-0.49864">
        <ele>13</ele>
        <time>2015-08-05T07:51:30Z</time>
      </trkpt>
      <trkpt lat="44.80676" lon="-0.49873">
        <ele>12</ele>
        <time>2015-08-05T07:51:34Z</time>
      </trkpt>
      <trkpt lat="44.80681" lon="-0.49881">
        <ele>12</ele>
        <time>2015-08-05T07:51:39Z</time>
      </trkpt>
      <trkpt lat="44.80694" lon="-0.49885">
        <ele>11</ele>
        <time>2015-08-05T07:51:44Z</time>
      </trkpt>
      <trkpt lat="44.80705" lon="-0.4989">
        <ele>12</ele>
        <time>2015-08-05T07:51:49Z</time>
      </trkpt>
      <trkpt lat="44.80714" lon="-0.49895">
        <ele>12</ele>
        <time>2015-08-05T07:51:54Z</time>
      </trkpt>
      <trkpt lat="44.80724" lon="-0.49901">
        <ele>11</ele>
        <time>2015-08-05T07:51:59Z</time>
      </trkpt>
      <trkpt lat="44.80735" lon="-0.49908">
        <ele>15</ele>
        <time>2015-08-05T07:52:08Z</time>
      </trkpt>
      <trkpt lat="44.80736" lon="-0.49909">
        <ele>16</ele>
        <time>2015-08-05T07:52:09Z</time>
      </trkpt>
      <trkpt lat="44.80743" lon="-0.49917">
        <ele>16</ele>
        <time>2015-08-05T07:52:15Z</time>
      </trkpt>
      <trkpt lat="44.8075" lon="-0.4992">
        <ele>16</ele>
        <time>2015-08-05T07:52:19Z</time>
      </trkpt>
      <trkpt lat="44.80761" lon="-0.49925">
        <ele>19</ele>
        <time>2015-08-05T07:52:24Z</time>
      </trkpt>
      <trkpt lat="44.80775" lon="-0.49929">
        <ele>24</ele>
        <time>2015-08-05T07:52:31Z</time>
      </trkpt>
      <trkpt lat="44.80768" lon="-0.49935">
        <ele>31</ele>
        <time>2015-08-05T07:52:36Z</time>
      </trkpt>
      <trkpt lat="44.80767" lon="-0.49938">
        <ele>33</ele>
        <time>2015-08-05T07:52:39Z</time>
      </trkpt>
      <trkpt lat="44.80779" lon="-0.49941">
        <ele>33</ele>
        <time>2015-08-05T07:52:44Z</time>
      </trkpt>
      <trkpt lat="44.80789" lon="-0.49948">
        <ele>34</ele>
        <time>2015-08-05T07:52:49Z</time>
      </trkpt>
      <trkpt lat="44.80795" lon="-0.49961">
        <ele>37</ele>
        <time>2015-08-05T07:52:56Z</time>
      </trkpt>
      <trkpt lat="44.80798" lon="-0.49965">
        <ele>36</ele>
        <time>2015-08-05T07:52:59Z</time>
      </trkpt>
      <trkpt lat="44.80804" lon="-0.49973">
        <ele>40</ele>
        <time>2015-08-05T07:53:05Z</time>
      </trkpt>
      <trkpt lat="44.80809" lon="-0.49978">
        <ele>43</ele>
        <time>2015-08-05T07:53:09Z</time>
      </trkpt>
      <trkpt lat="44.80815" lon="-0.49988">
        <ele>45</ele>
        <time>2015-08-05T07:53:14Z</time>
      </trkpt>
      <trkpt lat="44.80821" lon="-0.49995">
        <ele>48</ele>
        <time>2015-08-05T07:53:19Z</time>
      </trkpt>
      <trkpt lat="44.80824" lon="-0.50007">
        <ele>48</ele>
        <time>2015-08-05T07:53:24Z</time>
      </trkpt>
      <trkpt lat="44.80834" lon="-0.50016">
        <ele>48</ele>
        <time>2015-08-05T07:53:29Z</time>
      </trkpt>
      <trkpt lat="44.80843" lon="-0.50027">
        <ele>49</ele>
        <time>2015-08-05T07:53:37Z</time>
      </trkpt>
      <trkpt lat="44.80845" lon="-0.50032">
        <ele>50</ele>
        <time>2015-08-05T07:53:39Z</time>
      </trkpt>
      <trkpt lat="44.80851" lon="-0.50042">
        <ele>52</ele>
        <time>2015-08-05T07:53:44Z</time>
      </trkpt>
      <trkpt lat="44.80864" lon="-0.50059">
        <ele>53</ele>
        <time>2015-08-05T07:53:53Z</time>
      </trkpt>
      <trkpt lat="44.80865" lon="-0.50061">
        <ele>53</ele>
        <time>2015-08-05T07:53:54Z</time>
      </trkpt>
      <trkpt lat="44.80876" lon="-0.50068">
        <ele>55</ele>
        <time>2015-08-05T07:54:02Z</time>
      </trkpt>
      <trkpt lat="44.80879" lon="-0.50059">
        <ele>55</ele>
        <time>2015-08-05T07:54:07Z</time>
      </trkpt>
      <trkpt lat="44.80881" lon="-0.50054">
        <ele>56</ele>
        <time>2015-08-05T07:54:09Z</time>
      </trkpt>
      <trkpt lat="44.80887" lon="-0.50039">
        <ele>55</ele>
        <time>2015-08-05T07:54:14Z</time>
      </trkpt>
      <trkpt lat="44.80892" lon="-0.50023">
        <ele>58</ele>
        <time>2015-08-05T07:54:19Z</time>
      </trkpt>
      <trkpt lat="44.80899" lon="-0.50007">
        <ele>57</ele>
        <time>2015-08-05T07:54:24Z</time>
      </trkpt>
      <trkpt lat="44.80904" lon="-0.49996">
        <ele>58</ele>
        <time>2015-08-05T07:54:29Z</time>
      </trkpt>
      <trkpt lat="44.8091" lon="-0.49982">
        <ele>57</ele>
        <time>2015-08-05T07:54:35Z</time>
      </trkpt>
      <trkpt lat="44.80914" lon="-0.49972">
        <ele>57</ele>
        <time>2015-08-05T07:54:39Z</time>
      </trkpt>
      <trkpt lat="44.8092" lon="-0.4996">
        <ele>59</ele>
        <time>2015-08-05T07:54:44Z</time>
      </trkpt>
      <trkpt lat="44.80926" lon="-0.49948">
        <ele>58</ele>
        <time>2015-08-05T07:54:49Z</time>
      </trkpt>
      <trkpt lat="44.80932" lon="-0.49936">
        <ele>58</ele>
        <time>2015-08-05T07:54:54Z</time>
      </trkpt>
      <trkpt lat="44.8094" lon="-0.49926">
        <ele>58</ele>
        <time>2015-08-05T07:54:59Z</time>
      </trkpt>
      <trkpt lat="44.80948" lon="-0.49915">
        <ele>59</ele>
        <time>2015-08-05T07:55:04Z</time>
      </trkpt>
      <trkpt lat="44.80958" lon="-0.49908">
        <ele>58</ele>
        <time>2015-08-05T07:55:09Z</time>
      </trkpt>
      <trkpt lat="44.80968" lon="-0.499">
        <ele>58</ele>
        <time>2015-08-05T07:55:14Z</time>
      </trkpt>
      <trkpt lat="44.80979" lon="-0.49891">
        <ele>59</ele>
        <time>2015-08-05T07:55:19Z</time>
      </trkpt>
      <trkpt lat="44.80994" lon="-0.49877">
        <ele>58</ele>
        <time>2015-08-05T07:55:25Z</time>
      </trkpt>
      <trkpt lat="44.81007" lon="-0.49864">
        <ele>55</ele>
        <time>2015-08-05T07:55:30Z</time>
      </trkpt>
      <trkpt lat="44.81019" lon="-0.49857">
        <ele>56</ele>
        <time>2015-08-05T07:55:34Z</time>
      </trkpt>
      <trkpt lat="44.81039" lon="-0.49854">
        <ele>56</ele>
        <time>2015-08-05T07:55:39Z</time>
      </trkpt>
      <trkpt lat="44.8106" lon="-0.49856">
        <ele>57</ele>
        <time>2015-08-05T07:55:44Z</time>
      </trkpt>
      <trkpt lat="44.81089" lon="-0.49868">
        <ele>54</ele>
        <time>2015-08-05T07:55:50Z</time>
      </trkpt>
      <trkpt lat="44.81097" lon="-0.4988">
        <ele>57</ele>
        <time>2015-08-05T07:55:54Z</time>
      </trkpt>
      <trkpt lat="44.81104" lon="-0.49899">
        <ele>56</ele>
        <time>2015-08-05T07:55:59Z</time>
      </trkpt>
      <trkpt lat="44.81109" lon="-0.49915">
        <ele>57</ele>
        <time>2015-08-05T07:56:04Z</time>
      </trkpt>
      <trkpt lat="44.81115" lon="-0.49938">
        <ele>57</ele>
        <time>2015-08-05T07:56:09Z</time>
      </trkpt>
      <trkpt lat="44.81126" lon="-0.49964">
        <ele>58</ele>
        <time>2015-08-05T07:56:14Z</time>
      </trkpt>
      <trkpt lat="44.81141" lon="-0.49986">
        <ele>58</ele>
        <time>2015-08-05T07:56:19Z</time>
      </trkpt>
      <trkpt lat="44.81156" lon="-0.50001">
        <ele>59</ele>
        <time>2015-08-05T07:56:24Z</time>
      </trkpt>
      <trkpt lat="44.81171" lon="-0.50012">
        <ele>59</ele>
        <time>2015-08-05T07:56:29Z</time>
      </trkpt>
      <trkpt lat="44.81183" lon="-0.50023">
        <ele>57</ele>
        <time>2015-08-05T07:56:34Z</time>
      </trkpt>
      <trkpt lat="44.81191" lon="-0.50009">
        <ele>55</ele>
        <time>2015-08-05T07:56:39Z</time>
      </trkpt>
      <trkpt lat="44.81186" lon="-0.49958">
        <ele>54</ele>
        <time>2015-08-05T07:56:44Z</time>
      </trkpt>
      <trkpt lat="44.81192" lon="-0.49877">
        <ele>50</ele>
        <time>2015-08-05T07:56:51Z</time>
      </trkpt>
      <trkpt lat="44.81199" lon="-0.49838">
        <ele>43</ele>
        <time>2015-08-05T07:56:54Z</time>
      </trkpt>
      <trkpt lat="44.81224" lon="-0.49789">
        <ele>39</ele>
        <time>2015-08-05T07:56:59Z</time>
      </trkpt>
      <trkpt lat="44.81268" lon="-0.49696">
        <ele>38</ele>
        <time>2015-08-05T07:57:07Z</time>
      </trkpt>
      <trkpt lat="44.81274" lon="-0.49676">
        <ele>36</ele>
        <time>2015-08-05T07:57:09Z</time>
      </trkpt>
      <trkpt lat="44.81259" lon="-0.49612">
        <ele>30</ele>
        <time>2015-08-05T07:57:16Z</time>
      </trkpt>
      <trkpt lat="44.81255" lon="-0.49599">
        <ele>30</ele>
        <time>2015-08-05T07:57:19Z</time>
      </trkpt>
      <trkpt lat="44.81265" lon="-0.49571">
        <ele>27</ele>
        <time>2015-08-05T07:57:24Z</time>
      </trkpt>
      <trkpt lat="44.81279" lon="-0.49532">
        <ele>25</ele>
        <time>2015-08-05T07:57:29Z</time>
      </trkpt>
      <trkpt lat="44.81296" lon="-0.49497">
        <ele>25</ele>
        <time>2015-08-05T07:57:35Z</time>
      </trkpt>
      <trkpt lat="44.81319" lon="-0.49505">
        <ele>22</ele>
        <time>2015-08-05T07:57:40Z</time>
      </trkpt>
      <trkpt lat="44.81332" lon="-0.49514">
        <ele>25</ele>
        <time>2015-08-05T07:57:46Z</time>
      </trkpt>
      <trkpt lat="44.81338" lon="-0.4952">
        <ele>25</ele>
        <time>2015-08-05T07:57:49Z</time>
      </trkpt>
      <trkpt lat="44.81349" lon="-0.4953">
        <ele>24</ele>
        <time>2015-08-05T07:57:54Z</time>
      </trkpt>
      <trkpt lat="44.81358" lon="-0.49544">
        <ele>23</ele>
        <time>2015-08-05T07:57:59Z</time>
      </trkpt>
      <trkpt lat="44.81368" lon="-0.49559">
        <ele>24</ele>
        <time>2015-08-05T07:58:04Z</time>
      </trkpt>
      <trkpt lat="44.81378" lon="-0.49574">
        <ele>24</ele>
        <time>2015-08-05T07:58:09Z</time>
      </trkpt>
      <trkpt lat="44.8139" lon="-0.49593">
        <ele>24</ele>
        <time>2015-08-05T07:58:15Z</time>
      </trkpt>
      <trkpt lat="44.81399" lon="-0.49606">
        <ele>24</ele>
        <time>2015-08-05T07:58:19Z</time>
      </trkpt>
      <trkpt lat="44.81413" lon="-0.49624">
        <ele>24</ele>
        <time>2015-08-05T07:58:25Z</time>
      </trkpt>
      <trkpt lat="44.81422" lon="-0.49634">
        <ele>24</ele>
        <time>2015-08-05T07:58:29Z</time>
      </trkpt>
      <trkpt lat="44.81434" lon="-0.49646">
        <ele>24</ele>
        <time>2015-08-05T07:58:34Z</time>
      </trkpt>
      <trkpt lat="44.81444" lon="-0.4966">
        <ele>25</ele>
        <time>2015-08-05T07:58:39Z</time>
      </trkpt>
      <trkpt lat="44.81455" lon="-0.49672">
        <ele>26</ele>
        <time>2015-08-05T07:58:44Z</time>
      </trkpt>
      <trkpt lat="44.81469" lon="-0.49681">
        <ele>27</ele>
        <time>2015-08-05T07:58:49Z</time>
      </trkpt>
      <trkpt lat="44.81482" lon="-0.49689">
        <ele>28</ele>
        <time>2015-08-05T07:58:54Z</time>
      </trkpt>
      <trkpt lat="44.81495" lon="-0.49697">
        <ele>29</ele>
        <time>2015-08-05T07:58:59Z</time>
      </trkpt>
      <trkpt lat="44.81509" lon="-0.49706">
        <ele>31</ele>
        <time>2015-08-05T07:59:05Z</time>
      </trkpt>
      <trkpt lat="44.81521" lon="-0.49713">
        <ele>31</ele>
        <time>2015-08-05T07:59:10Z</time>
      </trkpt>
      <trkpt lat="44.81528" lon="-0.49726">
        <ele>30</ele>
        <time>2015-08-05T07:59:14Z</time>
      </trkpt>
      <trkpt lat="44.81539" lon="-0.49738">
        <ele>31</ele>
        <time>2015-08-05T07:59:19Z</time>
      </trkpt>
      <trkpt lat="44.81548" lon="-0.49755">
        <ele>33</ele>
        <time>2015-08-05T07:59:25Z</time>
      </trkpt>
      <trkpt lat="44.81548" lon="-0.49775">
        <ele>33</ele>
        <time>2015-08-05T07:59:29Z</time>
      </trkpt>
      <trkpt lat="44.81543" lon="-0.498">
        <ele>31</ele>
        <time>2015-08-05T07:59:34Z</time>
      </trkpt>
      <trkpt lat="44.8154" lon="-0.49821">
        <ele>28</ele>
        <time>2015-08-05T07:59:39Z</time>
      </trkpt>
      <trkpt lat="44.81536" lon="-0.49835">
        <ele>28</ele>
        <time>2015-08-05T07:59:44Z</time>
      </trkpt>
      <trkpt lat="44.81533" lon="-0.49847">
        <ele>28</ele>
        <time>2015-08-05T07:59:49Z</time>
      </trkpt>
      <trkpt lat="44.81542" lon="-0.49873">
        <ele>33</ele>
        <time>2015-08-05T07:59:58Z</time>
      </trkpt>
      <trkpt lat="44.81544" lon="-0.49876">
        <ele>33</ele>
        <time>2015-08-05T07:59:59Z</time>
      </trkpt>
      <trkpt lat="44.81553" lon="-0.4989">
        <ele>34</ele>
        <time>2015-08-05T08:00:04Z</time>
      </trkpt>
      <trkpt lat="44.81563" lon="-0.49903">
        <ele>34</ele>
        <time>2015-08-05T08:00:09Z</time>
      </trkpt>
      <trkpt lat="44.81573" lon="-0.49916">
        <ele>34</ele>
        <time>2015-08-05T08:00:14Z</time>
      </trkpt>
      <trkpt lat="44.81583" lon="-0.49926">
        <ele>34</ele>
        <time>2015-08-05T08:00:19Z</time>
      </trkpt>
      <trkpt lat="44.81596" lon="-0.49933">
        <ele>34</ele>
        <time>2015-08-05T08:00:24Z</time>
      </trkpt>
      <trkpt lat="44.81607" lon="-0.49939">
        <ele>34</ele>
        <time>2015-08-05T08:00:29Z</time>
      </trkpt>
      <trkpt lat="44.81615" lon="-0.49944">
        <ele>34</ele>
        <time>2015-08-05T08:00:34Z</time>
      </trkpt>
      <trkpt lat="44.81617" lon="-0.49959">
        <ele>37</ele>
        <time>2015-08-05T08:00:43Z</time>
      </trkpt>
      <trkpt lat="44.81617" lon="-0.49964">
        <ele>39</ele>
        <time>2015-08-05T08:00:45Z</time>
      </trkpt>
      <trkpt lat="44.81616" lon="-0.49975">
        <ele>42</ele>
        <time>2015-08-05T08:00:51Z</time>
      </trkpt>
      <trkpt lat="44.81616" lon="-0.4998">
        <ele>43</ele>
        <time>2015-08-05T08:00:54Z</time>
      </trkpt>
      <trkpt lat="44.81617" lon="-0.49989">
        <ele>43</ele>
        <time>2015-08-05T08:00:59Z</time>
      </trkpt>
      <trkpt lat="44.81619" lon="-0.49998">
        <ele>43</ele>
        <time>2015-08-05T08:01:04Z</time>
      </trkpt>
      <trkpt lat="44.81623" lon="-0.50006">
        <ele>45</ele>
        <time>2015-08-05T08:01:09Z</time>
      </trkpt>
      <trkpt lat="44.81629" lon="-0.50017">
        <ele>46</ele>
        <time>2015-08-05T08:01:15Z</time>
      </trkpt>
      <trkpt lat="44.81633" lon="-0.50024">
        <ele>46</ele>
        <time>2015-08-05T08:01:19Z</time>
      </trkpt>
      <trkpt lat="44.81639" lon="-0.50034">
        <ele>49</ele>
        <time>2015-08-05T08:01:25Z</time>
      </trkpt>
      <trkpt lat="44.81645" lon="-0.50043">
        <ele>50</ele>
        <time>2015-08-05T08:01:32Z</time>
      </trkpt>
      <trkpt lat="44.81648" lon="-0.50048">
        <ele>51</ele>
        <time>2015-08-05T08:01:35Z</time>
      </trkpt>
      <trkpt lat="44.81651" lon="-0.50054">
        <ele>54</ele>
        <time>2015-08-05T08:01:39Z</time>
      </trkpt>
      <trkpt lat="44.81656" lon="-0.5006">
        <ele>54</ele>
        <time>2015-08-05T08:01:44Z</time>
      </trkpt>
      <trkpt lat="44.8166" lon="-0.50067">
        <ele>56</ele>
        <time>2015-08-05T08:01:49Z</time>
      </trkpt>
      <trkpt lat="44.81664" lon="-0.50074">
        <ele>57</ele>
        <time>2015-08-05T08:01:54Z</time>
      </trkpt>
      <trkpt lat="44.81669" lon="-0.50082">
        <ele>58</ele>
        <time>2015-08-05T08:01:59Z</time>
      </trkpt>
      <trkpt lat="44.81676" lon="-0.50089">
        <ele>57</ele>
        <time>2015-08-05T08:02:04Z</time>
      </trkpt>
      <trkpt lat="44.8168" lon="-0.50098">
        <ele>58</ele>
        <time>2015-08-05T08:02:09Z</time>
      </trkpt>
      <trkpt lat="44.81686" lon="-0.5011">
        <ele>58</ele>
        <time>2015-08-05T08:02:15Z</time>
      </trkpt>
      <trkpt lat="44.8169" lon="-0.50116">
        <ele>59</ele>
        <time>2015-08-05T08:02:19Z</time>
      </trkpt>
      <trkpt lat="44.81695" lon="-0.50128">
        <ele>58</ele>
        <time>2015-08-05T08:02:25Z</time>
      </trkpt>
      <trkpt lat="44.81699" lon="-0.50139">
        <ele>59</ele>
        <time>2015-08-05T08:02:30Z</time>
      </trkpt>
      <trkpt lat="44.81703" lon="-0.5015">
        <ele>59</ele>
        <time>2015-08-05T08:02:35Z</time>
      </trkpt>
      <trkpt lat="44.81705" lon="-0.50159">
        <ele>59</ele>
        <time>2015-08-05T08:02:39Z</time>
      </trkpt>
      <trkpt lat="44.81708" lon="-0.50169">
        <ele>59</ele>
        <time>2015-08-05T08:02:44Z</time>
      </trkpt>
      <trkpt lat="44.81711" lon="-0.50186">
        <ele>61</ele>
        <time>2015-08-05T08:02:51Z</time>
      </trkpt>
      <trkpt lat="44.81712" lon="-0.50193">
        <ele>62</ele>
        <time>2015-08-05T08:02:54Z</time>
      </trkpt>
      <trkpt lat="44.81716" lon="-0.50204">
        <ele>63</ele>
        <time>2015-08-05T08:02:59Z</time>
      </trkpt>
      <trkpt lat="44.81719" lon="-0.50215">
        <ele>66</ele>
        <time>2015-08-05T08:03:04Z</time>
      </trkpt>
      <trkpt lat="44.81723" lon="-0.50225">
        <ele>65</ele>
        <time>2015-08-05T08:03:09Z</time>
      </trkpt>
      <trkpt lat="44.81735" lon="-0.50224">
        <ele>65</ele>
        <time>2015-08-05T08:03:14Z</time>
      </trkpt>
      <trkpt lat="44.81747" lon="-0.50206">
        <ele>64</ele>
        <time>2015-08-05T08:03:19Z</time>
      </trkpt>
      <trkpt lat="44.81761" lon="-0.50188">
        <ele>63</ele>
        <time>2015-08-05T08:03:25Z</time>
      </trkpt>
      <trkpt lat="44.8177" lon="-0.50174">
        <ele>65</ele>
        <time>2015-08-05T08:03:29Z</time>
      </trkpt>
      <trkpt lat="44.81782" lon="-0.50155">
        <ele>64</ele>
        <time>2015-08-05T08:03:34Z</time>
      </trkpt>
      <trkpt lat="44.81793" lon="-0.50137">
        <ele>64</ele>
        <time>2015-08-05T08:03:39Z</time>
      </trkpt>
      <trkpt lat="44.81804" lon="-0.50116">
        <ele>63</ele>
        <time>2015-08-05T08:03:44Z</time>
      </trkpt>
      <trkpt lat="44.81816" lon="-0.50094">
        <ele>64</ele>
        <time>2015-08-05T08:03:49Z</time>
      </trkpt>
      <trkpt lat="44.81832" lon="-0.50075">
        <ele>64</ele>
        <time>2015-08-05T08:03:54Z</time>
      </trkpt>
      <trkpt lat="44.81848" lon="-0.5006">
        <ele>63</ele>
        <time>2015-08-05T08:03:59Z</time>
      </trkpt>
      <trkpt lat="44.81866" lon="-0.5005">
        <ele>64</ele>
        <time>2015-08-05T08:04:04Z</time>
      </trkpt>
      <trkpt lat="44.8189" lon="-0.50042">
        <ele>65</ele>
        <time>2015-08-05T08:04:11Z</time>
      </trkpt>
      <trkpt lat="44.819" lon="-0.5004">
        <ele>65</ele>
        <time>2015-08-05T08:04:14Z</time>
      </trkpt>
      <trkpt lat="44.81917" lon="-0.50035">
        <ele>66</ele>
        <time>2015-08-05T08:04:19Z</time>
      </trkpt>
      <trkpt lat="44.81935" lon="-0.5003">
        <ele>66</ele>
        <time>2015-08-05T08:04:24Z</time>
      </trkpt>
      <trkpt lat="44.81953" lon="-0.50026">
        <ele>66</ele>
        <time>2015-08-05T08:04:29Z</time>
      </trkpt>
      <trkpt lat="44.81972" lon="-0.50022">
        <ele>65</ele>
        <time>2015-08-05T08:04:34Z</time>
      </trkpt>
      <trkpt lat="44.8199" lon="-0.50018">
        <ele>66</ele>
        <time>2015-08-05T08:04:39Z</time>
      </trkpt>
      <trkpt lat="44.82008" lon="-0.50011">
        <ele>67</ele>
        <time>2015-08-05T08:04:44Z</time>
      </trkpt>
      <trkpt lat="44.82025" lon="-0.50001">
        <ele>67</ele>
        <time>2015-08-05T08:04:49Z</time>
      </trkpt>
      <trkpt lat="44.82043" lon="-0.49983">
        <ele>69</ele>
        <time>2015-08-05T08:04:56Z</time>
      </trkpt>
      <trkpt lat="44.82043" lon="-0.49965">
        <ele>70</ele>
        <time>2015-08-05T08:05:00Z</time>
      </trkpt>
      <trkpt lat="44.82039" lon="-0.49942">
        <ele>71</ele>
        <time>2015-08-05T08:05:05Z</time>
      </trkpt>
      <trkpt lat="44.82036" lon="-0.49928">
        <ele>72</ele>
        <time>2015-08-05T08:05:09Z</time>
      </trkpt>
      <trkpt lat="44.82031" lon="-0.49904">
        <ele>72</ele>
        <time>2015-08-05T08:05:14Z</time>
      </trkpt>
      <trkpt lat="44.82024" lon="-0.49874">
        <ele>70</ele>
        <time>2015-08-05T08:05:19Z</time>
      </trkpt>
      <trkpt lat="44.82018" lon="-0.49845">
        <ele>70</ele>
        <time>2015-08-05T08:05:24Z</time>
      </trkpt>
      <trkpt lat="44.82024" lon="-0.49806">
        <ele>69</ele>
        <time>2015-08-05T08:05:30Z</time>
      </trkpt>
      <trkpt lat="44.82028" lon="-0.49792">
        <ele>70</ele>
        <time>2015-08-05T08:05:34Z</time>
      </trkpt>
      <trkpt lat="44.82013" lon="-0.49771">
        <ele>69</ele>
        <time>2015-08-05T08:05:39Z</time>
      </trkpt>
      <trkpt lat="44.81995" lon="-0.49735">
        <ele>68</ele>
        <time>2015-08-05T08:05:44Z</time>
      </trkpt>
      <trkpt lat="44.81982" lon="-0.49685">
        <ele>65</ele>
        <time>2015-08-05T08:05:51Z</time>
      </trkpt>
      <trkpt lat="44.81975" lon="-0.49666">
        <ele>63</ele>
        <time>2015-08-05T08:05:54Z</time>
      </trkpt>
      <trkpt lat="44.81962" lon="-0.49613">
        <ele>58</ele>
        <time>2015-08-05T08:06:03Z</time>
      </trkpt>
      <trkpt lat="44.81949" lon="-0.49575">
        <ele>56</ele>
        <time>2015-08-05T08:06:08Z</time>
      </trkpt>
      <trkpt lat="44.81943" lon="-0.49567">
        <ele>55</ele>
        <time>2015-08-05T08:06:09Z</time>
      </trkpt>
      <trkpt lat="44.8192" lon="-0.49541">
        <ele>51</ele>
        <time>2015-08-05T08:06:14Z</time>
      </trkpt>
      <trkpt lat="44.81881" lon="-0.4951">
        <ele>48</ele>
        <time>2015-08-05T08:06:21Z</time>
      </trkpt>
      <trkpt lat="44.81884" lon="-0.49502">
        <ele>45</ele>
        <time>2015-08-05T08:06:24Z</time>
      </trkpt>
      <trkpt lat="44.81906" lon="-0.49475">
        <ele>45</ele>
        <time>2015-08-05T08:06:33Z</time>
      </trkpt>
      <trkpt lat="44.81907" lon="-0.49474">
        <ele>45</ele>
        <time>2015-08-05T08:06:34Z</time>
      </trkpt>
      <trkpt lat="44.81912" lon="-0.49462">
        <ele>45</ele>
        <time>2015-08-05T08:06:41Z</time>
      </trkpt>
      <trkpt lat="44.81912" lon="-0.4946">
        <ele>46</ele>
        <time>2015-08-05T08:06:45Z</time>
      </trkpt>
      <trkpt lat="44.81912" lon="-0.49459">
        <ele>46</ele>
        <time>2015-08-05T08:06:49Z</time>
      </trkpt>
      <trkpt lat="44.81912" lon="-0.49459">
        <ele>46</ele>
        <time>2015-08-05T08:06:54Z</time>
      </trkpt>
      <trkpt lat="44.81914" lon="-0.49456">
        <ele>46</ele>
        <time>2015-08-05T08:06:59Z</time>
      </trkpt>
      <trkpt lat="44.81915" lon="-0.49453">
        <ele>46</ele>
        <time>2015-08-05T08:07:04Z</time>
      </trkpt>
      <trkpt lat="44.81924" lon="-0.49444">
        <ele>44</ele>
        <time>2015-08-05T08:07:09Z</time>
      </trkpt>
      <trkpt lat="44.81939" lon="-0.49429">
        <ele>47</ele>
        <time>2015-08-05T08:07:14Z</time>
      </trkpt>
      <trkpt lat="44.81956" lon="-0.49412">
        <ele>47</ele>
        <time>2015-08-05T08:07:21Z</time>
      </trkpt>
      <trkpt lat="44.81964" lon="-0.49406">
        <ele>50</ele>
        <time>2015-08-05T08:07:25Z</time>
      </trkpt>
      <trkpt lat="44.81977" lon="-0.49398">
        <ele>53</ele>
        <time>2015-08-05T08:07:32Z</time>
      </trkpt>
      <trkpt lat="44.81983" lon="-0.49395">
        <ele>56</ele>
        <time>2015-08-05T08:07:36Z</time>
      </trkpt>
      <trkpt lat="44.81989" lon="-0.49391">
        <ele>56</ele>
        <time>2015-08-05T08:07:40Z</time>
      </trkpt>
      <trkpt lat="44.81995" lon="-0.49389">
        <ele>56</ele>
        <time>2015-08-05T08:07:44Z</time>
      </trkpt>
      <trkpt lat="44.82004" lon="-0.49384">
        <ele>56</ele>
        <time>2015-08-05T08:07:49Z</time>
      </trkpt>
      <trkpt lat="44.82015" lon="-0.49375">
        <ele>52</ele>
        <time>2015-08-05T08:07:56Z</time>
      </trkpt>
      <trkpt lat="44.82023" lon="-0.49372">
        <ele>49</ele>
        <time>2015-08-05T08:08:00Z</time>
      </trkpt>
      <trkpt lat="44.82037" lon="-0.49371">
        <ele>48</ele>
        <time>2015-08-05T08:08:07Z</time>
      </trkpt>
      <trkpt lat="44.82041" lon="-0.49372">
        <ele>47</ele>
        <time>2015-08-05T08:08:09Z</time>
      </trkpt>
      <trkpt lat="44.82049" lon="-0.49376">
        <ele>49</ele>
        <time>2015-08-05T08:08:15Z</time>
      </trkpt>
      <trkpt lat="44.82055" lon="-0.49379">
        <ele>50</ele>
        <time>2015-08-05T08:08:19Z</time>
      </trkpt>
      <trkpt lat="44.8206" lon="-0.49382">
        <ele>51</ele>
        <time>2015-08-05T08:08:24Z</time>
      </trkpt>
      <trkpt lat="44.82064" lon="-0.49384">
        <ele>54</ele>
        <time>2015-08-05T08:08:29Z</time>
      </trkpt>
      <trkpt lat="44.8207" lon="-0.49388">
        <ele>57</ele>
        <time>2015-08-05T08:08:35Z</time>
      </trkpt>
      <trkpt lat="44.82075" lon="-0.49387">
        <ele>59</ele>
        <time>2015-08-05T08:08:39Z</time>
      </trkpt>
      <trkpt lat="44.82081" lon="-0.49385">
        <ele>60</ele>
        <time>2015-08-05T08:08:44Z</time>
      </trkpt>
      <trkpt lat="44.82087" lon="-0.49381">
        <ele>59</ele>
        <time>2015-08-05T08:08:49Z</time>
      </trkpt>
      <trkpt lat="44.82094" lon="-0.49376">
        <ele>58</ele>
        <time>2015-08-05T08:08:54Z</time>
      </trkpt>
      <trkpt lat="44.82102" lon="-0.4937">
        <ele>56</ele>
        <time>2015-08-05T08:08:59Z</time>
      </trkpt>
      <trkpt lat="44.82111" lon="-0.49366">
        <ele>58</ele>
        <time>2015-08-05T08:09:04Z</time>
      </trkpt>
      <trkpt lat="44.82121" lon="-0.49362">
        <ele>66</ele>
        <time>2015-08-05T08:09:10Z</time>
      </trkpt>
      <trkpt lat="44.82127" lon="-0.49363">
        <ele>67</ele>
        <time>2015-08-05T08:09:14Z</time>
      </trkpt>
      <trkpt lat="44.82134" lon="-0.49369">
        <ele>68</ele>
        <time>2015-08-05T08:09:20Z</time>
      </trkpt>
      <trkpt lat="44.82139" lon="-0.49372">
        <ele>69</ele>
        <time>2015-08-05T08:09:24Z</time>
      </trkpt>
      <trkpt lat="44.82145" lon="-0.49366">
        <ele>69</ele>
        <time>2015-08-05T08:09:29Z</time>
      </trkpt>
      <trkpt lat="44.8215" lon="-0.49356">
        <ele>67</ele>
        <time>2015-08-05T08:09:34Z</time>
      </trkpt>
      <trkpt lat="44.82155" lon="-0.49342">
        <ele>67</ele>
        <time>2015-08-05T08:09:39Z</time>
      </trkpt>
      <trkpt lat="44.82161" lon="-0.4933">
        <ele>68</ele>
        <time>2015-08-05T08:09:44Z</time>
      </trkpt>
      <trkpt lat="44.82166" lon="-0.49317">
        <ele>69</ele>
        <time>2015-08-05T08:09:49Z</time>
      </trkpt>
      <trkpt lat="44.82173" lon="-0.49306">
        <ele>70</ele>
        <time>2015-08-05T08:09:54Z</time>
      </trkpt>
      <trkpt lat="44.82178" lon="-0.49293">
        <ele>70</ele>
        <time>2015-08-05T08:09:59Z</time>
      </trkpt>
      <trkpt lat="44.82184" lon="-0.4928">
        <ele>71</ele>
        <time>2015-08-05T08:10:04Z</time>
      </trkpt>
      <trkpt lat="44.8219" lon="-0.49268">
        <ele>71</ele>
        <time>2015-08-05T08:10:09Z</time>
      </trkpt>
      <trkpt lat="44.82195" lon="-0.49256">
        <ele>72</ele>
        <time>2015-08-05T08:10:14Z</time>
      </trkpt>
      <trkpt lat="44.82197" lon="-0.49243">
        <ele>73</ele>
        <time>2015-08-05T08:10:19Z</time>
      </trkpt>
      <trkpt lat="44.82197" lon="-0.49227">
        <ele>73</ele>
        <time>2015-08-05T08:10:24Z</time>
      </trkpt>
      <trkpt lat="44.82196" lon="-0.49201">
        <ele>73</ele>
        <time>2015-08-05T08:10:29Z</time>
      </trkpt>
      <trkpt lat="44.82195" lon="-0.49168">
        <ele>73</ele>
        <time>2015-08-05T08:10:34Z</time>
      </trkpt>
      <trkpt lat="44.82194" lon="-0.49131">
        <ele>72</ele>
        <time>2015-08-05T08:10:39Z</time>
      </trkpt>
      <trkpt lat="44.82194" lon="-0.4909">
        <ele>71</ele>
        <time>2015-08-05T08:10:44Z</time>
      </trkpt>
      <trkpt lat="44.82198" lon="-0.49046">
        <ele>70</ele>
        <time>2015-08-05T08:10:49Z</time>
      </trkpt>
      <trkpt lat="44.82213" lon="-0.48982">
        <ele>70</ele>
        <time>2015-08-05T08:10:57Z</time>
      </trkpt>
      <trkpt lat="44.82213" lon="-0.48968">
        <ele>70</ele>
        <time>2015-08-05T08:10:59Z</time>
      </trkpt>
      <trkpt lat="44.82213" lon="-0.48933">
        <ele>71</ele>
        <time>2015-08-05T08:11:04Z</time>
      </trkpt>
      <trkpt lat="44.82216" lon="-0.48902">
        <ele>71</ele>
        <time>2015-08-05T08:11:09Z</time>
      </trkpt>
      <trkpt lat="44.82218" lon="-0.48872">
        <ele>71</ele>
        <time>2015-08-05T08:11:14Z</time>
      </trkpt>
      <trkpt lat="44.82223" lon="-0.48846">
        <ele>72</ele>
        <time>2015-08-05T08:11:19Z</time>
      </trkpt>
      <trkpt lat="44.82228" lon="-0.4882">
        <ele>73</ele>
        <time>2015-08-05T08:11:24Z</time>
      </trkpt>
      <trkpt lat="44.82231" lon="-0.48793">
        <ele>73</ele>
        <time>2015-08-05T08:11:29Z</time>
      </trkpt>
      <trkpt lat="44.82234" lon="-0.48768">
        <ele>74</ele>
        <time>2015-08-05T08:11:34Z</time>
      </trkpt>
      <trkpt lat="44.82238" lon="-0.48744">
        <ele>74</ele>
        <time>2015-08-05T08:11:39Z</time>
      </trkpt>
      <trkpt lat="44.82239" lon="-0.48729">
        <ele>75</ele>
        <time>2015-08-05T08:11:44Z</time>
      </trkpt>
      <trkpt lat="44.82237" lon="-0.48729">
        <ele>75</ele>
        <time>2015-08-05T08:11:50Z</time>
      </trkpt>
      <trkpt lat="44.82236" lon="-0.48728">
        <ele>73</ele>
        <time>2015-08-05T08:11:54Z</time>
      </trkpt>
      <trkpt lat="44.82237" lon="-0.48727">
        <ele>72</ele>
        <time>2015-08-05T08:11:59Z</time>
      </trkpt>
      <trkpt lat="44.82237" lon="-0.48727">
        <ele>72</ele>
        <time>2015-08-05T08:12:04Z</time>
      </trkpt>
      <trkpt lat="44.82237" lon="-0.48727">
        <ele>72</ele>
        <time>2015-08-05T08:12:09Z</time>
      </trkpt>
      <trkpt lat="44.82237" lon="-0.48727">
        <ele>72</ele>
        <time>2015-08-05T08:12:14Z</time>
      </trkpt>
      <trkpt lat="44.82237" lon="-0.48726">
        <ele>72</ele>
        <time>2015-08-05T08:12:19Z</time>
      </trkpt>
      <trkpt lat="44.82236" lon="-0.48725">
        <ele>72</ele>
        <time>2015-08-05T08:12:24Z</time>
      </trkpt>
      <trkpt lat="44.82236" lon="-0.48725">
        <ele>73</ele>
        <time>2015-08-05T08:12:29Z</time>
      </trkpt>
      <trkpt lat="44.82236" lon="-0.48725">
        <ele>72</ele>
        <time>2015-08-05T08:12:34Z</time>
      </trkpt>
      <trkpt lat="44.82236" lon="-0.48725">
        <ele>72</ele>
        <time>2015-08-05T08:12:39Z</time>
      </trkpt>
      <trkpt lat="44.82236" lon="-0.48725">
        <ele>72</ele>
        <time>2015-08-05T08:12:44Z</time>
      </trkpt>
      <trkpt lat="44.82236" lon="-0.48725">
        <ele>72</ele>
        <time>2015-08-05T08:12:49Z</time>
      </trkpt>
      <trkpt lat="44.82236" lon="-0.48725">
        <ele>72</ele>
        <time>2015-08-05T08:12:54Z</time>
      </trkpt>
      <trkpt lat="44.82236" lon="-0.48725">
        <ele>72</ele>
        <time>2015-08-05T08:12:59Z</time>
      </trkpt>
      <trkpt lat="44.82236" lon="-0.48725">
        <ele>72</ele>
        <time>2015-08-05T08:13:04Z</time>
      </trkpt>
      <trkpt lat="44.82236" lon="-0.48725">
        <ele>72</ele>
        <time>2015-08-05T08:13:09Z</time>
      </trkpt>
      <trkpt lat="44.82236" lon="-0.48725">
        <ele>72</ele>
        <time>2015-08-05T08:13:14Z</time>
      </trkpt>
      <trkpt lat="44.82236" lon="-0.48725">
        <ele>72</ele>
        <time>2015-08-05T08:13:19Z</time>
      </trkpt>
      <trkpt lat="44.82235" lon="-0.48725">
        <ele>73</ele>
        <time>2015-08-05T08:13:24Z</time>
      </trkpt>
      <trkpt lat="44.8223" lon="-0.48726">
        <ele>75</ele>
        <time>2015-08-05T08:13:29Z</time>
      </trkpt>
      <trkpt lat="44.82218" lon="-0.48725">
        <ele>76</ele>
        <time>2015-08-05T08:13:34Z</time>
      </trkpt>
      <trkpt lat="44.82204" lon="-0.48723">
        <ele>77</ele>
        <time>2015-08-05T08:13:39Z</time>
      </trkpt>
      <trkpt lat="44.82176" lon="-0.48715">
        <ele>72</ele>
        <time>2015-08-05T08:13:46Z</time>
      </trkpt>
      <trkpt lat="44.8213" lon="-0.48712">
        <ele>68</ele>
        <time>2015-08-05T08:13:52Z</time>
      </trkpt>
      <trkpt lat="44.82102" lon="-0.48724">
        <ele>66</ele>
        <time>2015-08-05T08:13:57Z</time>
      </trkpt>
      <trkpt lat="44.82093" lon="-0.48727">
        <ele>67</ele>
        <time>2015-08-05T08:13:59Z</time>
      </trkpt>
      <trkpt lat="44.8206" lon="-0.48715">
        <ele>66</ele>
        <time>2015-08-05T08:14:08Z</time>
      </trkpt>
      <trkpt lat="44.82043" lon="-0.48704">
        <ele>68</ele>
        <time>2015-08-05T08:14:13Z</time>
      </trkpt>
      <trkpt lat="44.82041" lon="-0.487">
        <ele>68</ele>
        <time>2015-08-05T08:14:14Z</time>
      </trkpt>
      <trkpt lat="44.82031" lon="-0.48673">
        <ele>70</ele>
        <time>2015-08-05T08:14:20Z</time>
      </trkpt>
      <trkpt lat="44.82025" lon="-0.48658">
        <ele>71</ele>
        <time>2015-08-05T08:14:24Z</time>
      </trkpt>
      <trkpt lat="44.8202" lon="-0.48636">
        <ele>70</ele>
        <time>2015-08-05T08:14:29Z</time>
      </trkpt>
      <trkpt lat="44.82007" lon="-0.48622">
        <ele>70</ele>
        <time>2015-08-05T08:14:34Z</time>
      </trkpt>
      <trkpt lat="44.81997" lon="-0.48615">
        <ele>70</ele>
        <time>2015-08-05T08:14:39Z</time>
      </trkpt>
      <trkpt lat="44.81979" lon="-0.48599">
        <ele>70</ele>
        <time>2015-08-05T08:14:45Z</time>
      </trkpt>
      <trkpt lat="44.81965" lon="-0.48572">
        <ele>69</ele>
        <time>2015-08-05T08:14:49Z</time>
      </trkpt>
      <trkpt lat="44.81963" lon="-0.48539">
        <ele>70</ele>
        <time>2015-08-05T08:14:54Z</time>
      </trkpt>
      <trkpt lat="44.81937" lon="-0.48522">
        <ele>69</ele>
        <time>2015-08-05T08:14:59Z</time>
      </trkpt>
      <trkpt lat="44.81902" lon="-0.48505">
        <ele>68</ele>
        <time>2015-08-05T08:15:04Z</time>
      </trkpt>
      <trkpt lat="44.81859" lon="-0.48479">
        <ele>63</ele>
        <time>2015-08-05T08:15:13Z</time>
      </trkpt>
      <trkpt lat="44.81831" lon="-0.4846">
        <ele>62</ele>
        <time>2015-08-05T08:15:17Z</time>
      </trkpt>
      <trkpt lat="44.81811" lon="-0.48438">
        <ele>61</ele>
        <time>2015-08-05T08:15:19Z</time>
      </trkpt>
      <trkpt lat="44.81758" lon="-0.48392">
        <ele>60</ele>
        <time>2015-08-05T08:15:24Z</time>
      </trkpt>
      <trkpt lat="44.81726" lon="-0.48367">
        <ele>59</ele>
        <time>2015-08-05T08:15:30Z</time>
      </trkpt>
      <trkpt lat="44.81722" lon="-0.48351">
        <ele>55</ele>
        <time>2015-08-05T08:15:34Z</time>
      </trkpt>
      <trkpt lat="44.8172" lon="-0.48329">
        <ele>54</ele>
        <time>2015-08-05T08:15:39Z</time>
      </trkpt>
      <trkpt lat="44.81725" lon="-0.48307">
        <ele>51</ele>
        <time>2015-08-05T08:15:44Z</time>
      </trkpt>
      <trkpt lat="44.81727" lon="-0.48284">
        <ele>53</ele>
        <time>2015-08-05T08:15:49Z</time>
      </trkpt>
      <trkpt lat="44.81732" lon="-0.4825">
        <ele>54</ele>
        <time>2015-08-05T08:15:57Z</time>
      </trkpt>
      <trkpt lat="44.81737" lon="-0.48227">
        <ele>57</ele>
        <time>2015-08-05T08:16:02Z</time>
      </trkpt>
      <trkpt lat="44.81741" lon="-0.48216">
        <ele>58</ele>
        <time>2015-08-05T08:16:05Z</time>
      </trkpt>
      <trkpt lat="44.81748" lon="-0.48202">
        <ele>56</ele>
        <time>2015-08-05T08:16:09Z</time>
      </trkpt>
      <trkpt lat="44.8176" lon="-0.48175">
        <ele>56</ele>
        <time>2015-08-05T08:16:18Z</time>
      </trkpt>
      <trkpt lat="44.81775" lon="-0.48172">
        <ele>57</ele>
        <time>2015-08-05T08:16:23Z</time>
      </trkpt>
      <trkpt lat="44.81789" lon="-0.48156">
        <ele>59</ele>
        <time>2015-08-05T08:16:28Z</time>
      </trkpt>
      <trkpt lat="44.81791" lon="-0.48153">
        <ele>59</ele>
        <time>2015-08-05T08:16:29Z</time>
      </trkpt>
      <trkpt lat="44.818" lon="-0.48137">
        <ele>55</ele>
        <time>2015-08-05T08:16:34Z</time>
      </trkpt>
      <trkpt lat="44.81823" lon="-0.48116">
        <ele>52</ele>
        <time>2015-08-05T08:16:43Z</time>
      </trkpt>
      <trkpt lat="44.81825" lon="-0.48113">
        <ele>53</ele>
        <time>2015-08-05T08:16:44Z</time>
      </trkpt>
      <trkpt lat="44.81837" lon="-0.48096">
        <ele>54</ele>
        <time>2015-08-05T08:16:50Z</time>
      </trkpt>
      <trkpt lat="44.81847" lon="-0.48086">
        <ele>56</ele>
        <time>2015-08-05T08:16:54Z</time>
      </trkpt>
      <trkpt lat="44.81864" lon="-0.48073">
        <ele>52</ele>
        <time>2015-08-05T08:17:00Z</time>
      </trkpt>
      <trkpt lat="44.81877" lon="-0.48066">
        <ele>52</ele>
        <time>2015-08-05T08:17:05Z</time>
      </trkpt>
      <trkpt lat="44.81896" lon="-0.48052">
        <ele>51</ele>
        <time>2015-08-05T08:17:13Z</time>
      </trkpt>
      <trkpt lat="44.81907" lon="-0.48043">
        <ele>53</ele>
        <time>2015-08-05T08:17:18Z</time>
      </trkpt>
      <trkpt lat="44.81912" lon="-0.48041">
        <ele>52</ele>
        <time>2015-08-05T08:17:20Z</time>
      </trkpt>
      <trkpt lat="44.81922" lon="-0.48039">
        <ele>52</ele>
        <time>2015-08-05T08:17:24Z</time>
      </trkpt>
      <trkpt lat="44.81945" lon="-0.48032">
        <ele>47</ele>
        <time>2015-08-05T08:17:33Z</time>
      </trkpt>
      <trkpt lat="44.81949" lon="-0.48029">
        <ele>47</ele>
        <time>2015-08-05T08:17:35Z</time>
      </trkpt>
      <trkpt lat="44.81956" lon="-0.48021">
        <ele>50</ele>
        <time>2015-08-05T08:17:39Z</time>
      </trkpt>
      <trkpt lat="44.81965" lon="-0.48013">
        <ele>49</ele>
        <time>2015-08-05T08:17:44Z</time>
      </trkpt>
      <trkpt lat="44.81968" lon="-0.48007">
        <ele>52</ele>
        <time>2015-08-05T08:17:49Z</time>
      </trkpt>
      <trkpt lat="44.81968" lon="-0.48007">
        <ele>57</ele>
        <time>2015-08-05T08:17:56Z</time>
      </trkpt>
      <trkpt lat="44.81968" lon="-0.48005">
        <ele>57</ele>
        <time>2015-08-05T08:17:59Z</time>
      </trkpt>
      <trkpt lat="44.81973" lon="-0.47996">
        <ele>57</ele>
        <time>2015-08-05T08:18:05Z</time>
      </trkpt>
      <trkpt lat="44.81979" lon="-0.47995">
        <ele>58</ele>
        <time>2015-08-05T08:18:09Z</time>
      </trkpt>
      <trkpt lat="44.81987" lon="-0.47985">
        <ele>59</ele>
        <time>2015-08-05T08:18:14Z</time>
      </trkpt>
      <trkpt lat="44.8201" lon="-0.47976">
        <ele>64</ele>
        <time>2015-08-05T08:18:23Z</time>
      </trkpt>
      <trkpt lat="44.82012" lon="-0.47974">
        <ele>64</ele>
        <time>2015-08-05T08:18:24Z</time>
      </trkpt>
      <trkpt lat="44.82018" lon="-0.47963">
        <ele>63</ele>
        <time>2015-08-05T08:18:29Z</time>
      </trkpt>
      <trkpt lat="44.82019" lon="-0.47954">
        <ele>64</ele>
        <time>2015-08-05T08:18:34Z</time>
      </trkpt>
      <trkpt lat="44.82027" lon="-0.47947">
        <ele>63</ele>
        <time>2015-08-05T08:18:39Z</time>
      </trkpt>
      <trkpt lat="44.82038" lon="-0.47936">
        <ele>61</ele>
        <time>2015-08-05T08:18:44Z</time>
      </trkpt>
      <trkpt lat="44.82059" lon="-0.47919">
        <ele>63</ele>
        <time>2015-08-05T08:18:53Z</time>
      </trkpt>
      <trkpt lat="44.82061" lon="-0.47917">
        <ele>64</ele>
        <time>2015-08-05T08:18:54Z</time>
      </trkpt>
      <trkpt lat="44.82075" lon="-0.47902">
        <ele>64</ele>
        <time>2015-08-05T08:19:02Z</time>
      </trkpt>
      <trkpt lat="44.82078" lon="-0.47899">
        <ele>65</ele>
        <time>2015-08-05T08:19:04Z</time>
      </trkpt>
      <trkpt lat="44.82087" lon="-0.47893">
        <ele>68</ele>
        <time>2015-08-05T08:19:10Z</time>
      </trkpt>
      <trkpt lat="44.82091" lon="-0.47887">
        <ele>66</ele>
        <time>2015-08-05T08:19:14Z</time>
      </trkpt>
      <trkpt lat="44.82093" lon="-0.47885">
        <ele>63</ele>
        <time>2015-08-05T08:19:19Z</time>
      </trkpt>
      <trkpt lat="44.82097" lon="-0.47882">
        <ele>65</ele>
        <time>2015-08-05T08:19:25Z</time>
      </trkpt>
      <trkpt lat="44.82104" lon="-0.47875">
        <ele>65</ele>
        <time>2015-08-05T08:19:33Z</time>
      </trkpt>
      <trkpt lat="44.82106" lon="-0.47874">
        <ele>65</ele>
        <time>2015-08-05T08:19:34Z</time>
      </trkpt>
      <trkpt lat="44.82116" lon="-0.47863">
        <ele>67</ele>
        <time>2015-08-05T08:19:40Z</time>
      </trkpt>
      <trkpt lat="44.8213" lon="-0.47852">
        <ele>69</ele>
        <time>2015-08-05T08:19:44Z</time>
      </trkpt>
      <trkpt lat="44.82137" lon="-0.47841">
        <ele>70</ele>
        <time>2015-08-05T08:19:49Z</time>
      </trkpt>
      <trkpt lat="44.82139" lon="-0.47838">
        <ele>71</ele>
        <time>2015-08-05T08:19:54Z</time>
      </trkpt>
      <trkpt lat="44.8215" lon="-0.47817">
        <ele>74</ele>
        <time>2015-08-05T08:20:03Z</time>
      </trkpt>
      <trkpt lat="44.82151" lon="-0.47815">
        <ele>74</ele>
        <time>2015-08-05T08:20:04Z</time>
      </trkpt>
      <trkpt lat="44.82158" lon="-0.47801">
        <ele>75</ele>
        <time>2015-08-05T08:20:10Z</time>
      </trkpt>
      <trkpt lat="44.82161" lon="-0.47792">
        <ele>77</ele>
        <time>2015-08-05T08:20:14Z</time>
      </trkpt>
      <trkpt lat="44.82165" lon="-0.47777">
        <ele>74</ele>
        <time>2015-08-05T08:20:20Z</time>
      </trkpt>
      <trkpt lat="44.82168" lon="-0.47766">
        <ele>75</ele>
        <time>2015-08-05T08:20:24Z</time>
      </trkpt>
      <trkpt lat="44.82176" lon="-0.47749">
        <ele>77</ele>
        <time>2015-08-05T08:20:29Z</time>
      </trkpt>
      <trkpt lat="44.82179" lon="-0.47729">
        <ele>77</ele>
        <time>2015-08-05T08:20:35Z</time>
      </trkpt>
      <trkpt lat="44.8218" lon="-0.47717">
        <ele>73</ele>
        <time>2015-08-05T08:20:39Z</time>
      </trkpt>
      <trkpt lat="44.82179" lon="-0.47706">
        <ele>74</ele>
        <time>2015-08-05T08:20:44Z</time>
      </trkpt>
      <trkpt lat="44.82174" lon="-0.47695">
        <ele>77</ele>
        <time>2015-08-05T08:20:49Z</time>
      </trkpt>
      <trkpt lat="44.82173" lon="-0.47683">
        <ele>82</ele>
        <time>2015-08-05T08:20:54Z</time>
      </trkpt>
      <trkpt lat="44.82176" lon="-0.47674">
        <ele>81</ele>
        <time>2015-08-05T08:20:59Z</time>
      </trkpt>
      <trkpt lat="44.82182" lon="-0.47667">
        <ele>83</ele>
        <time>2015-08-05T08:21:06Z</time>
      </trkpt>
      <trkpt lat="44.82183" lon="-0.47666">
        <ele>83</ele>
        <time>2015-08-05T08:21:09Z</time>
      </trkpt>
      <trkpt lat="44.82185" lon="-0.47658">
        <ele>86</ele>
        <time>2015-08-05T08:21:14Z</time>
      </trkpt>
      <trkpt lat="44.82192" lon="-0.47638">
        <ele>88</ele>
        <time>2015-08-05T08:21:21Z</time>
      </trkpt>
      <trkpt lat="44.82194" lon="-0.47626">
        <ele>91</ele>
        <time>2015-08-05T08:21:26Z</time>
      </trkpt>
      <trkpt lat="44.82192" lon="-0.47608">
        <ele>88</ele>
        <time>2015-08-05T08:21:33Z</time>
      </trkpt>
      <trkpt lat="44.82192" lon="-0.47606">
        <ele>88</ele>
        <time>2015-08-05T08:21:34Z</time>
      </trkpt>
      <trkpt lat="44.82193" lon="-0.47585">
        <ele>91</ele>
        <time>2015-08-05T08:21:42Z</time>
      </trkpt>
      <trkpt lat="44.82193" lon="-0.47583">
        <ele>91</ele>
        <time>2015-08-05T08:21:44Z</time>
      </trkpt>
      <trkpt lat="44.82199" lon="-0.47566">
        <ele>86</ele>
        <time>2015-08-05T08:21:53Z</time>
      </trkpt>
      <trkpt lat="44.82213" lon="-0.47551">
        <ele>86</ele>
        <time>2015-08-05T08:21:58Z</time>
      </trkpt>
      <trkpt lat="44.82216" lon="-0.47546">
        <ele>87</ele>
        <time>2015-08-05T08:21:59Z</time>
      </trkpt>
      <trkpt lat="44.82224" lon="-0.47522">
        <ele>88</ele>
        <time>2015-08-05T08:22:07Z</time>
      </trkpt>
      <trkpt lat="44.82225" lon="-0.47519">
        <ele>88</ele>
        <time>2015-08-05T08:22:09Z</time>
      </trkpt>
      <trkpt lat="44.8223" lon="-0.47505">
        <ele>88</ele>
        <time>2015-08-05T08:22:16Z</time>
      </trkpt>
      <trkpt lat="44.82233" lon="-0.47499">
        <ele>90</ele>
        <time>2015-08-05T08:22:20Z</time>
      </trkpt>
      <trkpt lat="44.82235" lon="-0.4749">
        <ele>90</ele>
        <time>2015-08-05T08:22:25Z</time>
      </trkpt>
      <trkpt lat="44.82237" lon="-0.4748">
        <ele>90</ele>
        <time>2015-08-05T08:22:30Z</time>
      </trkpt>
      <trkpt lat="44.82241" lon="-0.47464">
        <ele>89</ele>
        <time>2015-08-05T08:22:38Z</time>
      </trkpt>
      <trkpt lat="44.82238" lon="-0.4745">
        <ele>89</ele>
        <time>2015-08-05T08:22:43Z</time>
      </trkpt>
      <trkpt lat="44.82238" lon="-0.47448">
        <ele>88</ele>
        <time>2015-08-05T08:22:44Z</time>
      </trkpt>
      <trkpt lat="44.82238" lon="-0.47438">
        <ele>84</ele>
        <time>2015-08-05T08:22:49Z</time>
      </trkpt>
      <trkpt lat="44.82239" lon="-0.47428">
        <ele>84</ele>
        <time>2015-08-05T08:22:54Z</time>
      </trkpt>
      <trkpt lat="44.82245" lon="-0.47413">
        <ele>83</ele>
        <time>2015-08-05T08:23:00Z</time>
      </trkpt>
      <trkpt lat="44.82248" lon="-0.47401">
        <ele>83</ele>
        <time>2015-08-05T08:23:05Z</time>
      </trkpt>
      <trkpt lat="44.82249" lon="-0.47391">
        <ele>77</ele>
        <time>2015-08-05T08:23:09Z</time>
      </trkpt>
      <trkpt lat="44.82229" lon="-0.47369">
        <ele>76</ele>
        <time>2015-08-05T08:23:18Z</time>
      </trkpt>
      <trkpt lat="44.82226" lon="-0.47367">
        <ele>77</ele>
        <time>2015-08-05T08:23:19Z</time>
      </trkpt>
      <trkpt lat="44.82216" lon="-0.47348">
        <ele>78</ele>
        <time>2015-08-05T08:23:24Z</time>
      </trkpt>
      <trkpt lat="44.82214" lon="-0.47328">
        <ele>80</ele>
        <time>2015-08-05T08:23:29Z</time>
      </trkpt>
      <trkpt lat="44.82217" lon="-0.4731">
        <ele>80</ele>
        <time>2015-08-05T08:23:34Z</time>
      </trkpt>
      <trkpt lat="44.82216" lon="-0.47293">
        <ele>82</ele>
        <time>2015-08-05T08:23:39Z</time>
      </trkpt>
      <trkpt lat="44.82216" lon="-0.47275">
        <ele>82</ele>
        <time>2015-08-05T08:23:44Z</time>
      </trkpt>
      <trkpt lat="44.82216" lon="-0.47258">
        <ele>82</ele>
        <time>2015-08-05T08:23:49Z</time>
      </trkpt>
      <trkpt lat="44.8222" lon="-0.47247">
        <ele>82</ele>
        <time>2015-08-05T08:23:54Z</time>
      </trkpt>
      <trkpt lat="44.82232" lon="-0.47239">
        <ele>80</ele>
        <time>2015-08-05T08:23:59Z</time>
      </trkpt>
      <trkpt lat="44.82248" lon="-0.47231">
        <ele>82</ele>
        <time>2015-08-05T08:24:04Z</time>
      </trkpt>
      <trkpt lat="44.82266" lon="-0.47223">
        <ele>83</ele>
        <time>2015-08-05T08:24:10Z</time>
      </trkpt>
      <trkpt lat="44.82279" lon="-0.47215">
        <ele>83</ele>
        <time>2015-08-05T08:24:14Z</time>
      </trkpt>
      <trkpt lat="44.82298" lon="-0.47203">
        <ele>85</ele>
        <time>2015-08-05T08:24:19Z</time>
      </trkpt>
      <trkpt lat="44.82315" lon="-0.47196">
        <ele>86</ele>
        <time>2015-08-05T08:24:24Z</time>
      </trkpt>
      <trkpt lat="44.8233" lon="-0.4719">
        <ele>86</ele>
        <time>2015-08-05T08:24:29Z</time>
      </trkpt>
      <trkpt lat="44.8233" lon="-0.47171">
        <ele>82</ele>
        <time>2015-08-05T08:24:34Z</time>
      </trkpt>
      <trkpt lat="44.82316" lon="-0.47156">
        <ele>81</ele>
        <time>2015-08-05T08:24:39Z</time>
      </trkpt>
      <trkpt lat="44.82301" lon="-0.47136">
        <ele>81</ele>
        <time>2015-08-05T08:24:44Z</time>
      </trkpt>
      <trkpt lat="44.82287" lon="-0.47114">
        <ele>80</ele>
        <time>2015-08-05T08:24:49Z</time>
      </trkpt>
      <trkpt lat="44.82272" lon="-0.47092">
        <ele>80</ele>
        <time>2015-08-05T08:24:54Z</time>
      </trkpt>
      <trkpt lat="44.82257" lon="-0.47072">
        <ele>80</ele>
        <time>2015-08-05T08:24:59Z</time>
      </trkpt>
      <trkpt lat="44.82242" lon="-0.47057">
        <ele>81</ele>
        <time>2015-08-05T08:25:04Z</time>
      </trkpt>
      <trkpt lat="44.82227" lon="-0.47042">
        <ele>83</ele>
        <time>2015-08-05T08:25:09Z</time>
      </trkpt>
      <trkpt lat="44.82212" lon="-0.47028">
        <ele>84</ele>
        <time>2015-08-05T08:25:14Z</time>
      </trkpt>
      <trkpt lat="44.82197" lon="-0.47013">
        <ele>84</ele>
        <time>2015-08-05T08:25:19Z</time>
      </trkpt>
      <trkpt lat="44.82183" lon="-0.47">
        <ele>85</ele>
        <time>2015-08-05T08:25:24Z</time>
      </trkpt>
      <trkpt lat="44.82169" lon="-0.46985">
        <ele>85</ele>
        <time>2015-08-05T08:25:29Z</time>
      </trkpt>
      <trkpt lat="44.8215" lon="-0.46965">
        <ele>84</ele>
        <time>2015-08-05T08:25:34Z</time>
      </trkpt>
      <trkpt lat="44.8213" lon="-0.46945">
        <ele>83</ele>
        <time>2015-08-05T08:25:39Z</time>
      </trkpt>
      <trkpt lat="44.82108" lon="-0.46921">
        <ele>81</ele>
        <time>2015-08-05T08:25:44Z</time>
      </trkpt>
      <trkpt lat="44.8209" lon="-0.46894">
        <ele>81</ele>
        <time>2015-08-05T08:25:49Z</time>
      </trkpt>
      <trkpt lat="44.82075" lon="-0.46865">
        <ele>80</ele>
        <time>2015-08-05T08:25:54Z</time>
      </trkpt>
      <trkpt lat="44.82058" lon="-0.46839">
        <ele>81</ele>
        <time>2015-08-05T08:25:59Z</time>
      </trkpt>
      <trkpt lat="44.82044" lon="-0.46809">
        <ele>80</ele>
        <time>2015-08-05T08:26:04Z</time>
      </trkpt>
      <trkpt lat="44.82045" lon="-0.46766">
        <ele>80</ele>
        <time>2015-08-05T08:26:09Z</time>
      </trkpt>
      <trkpt lat="44.82046" lon="-0.46716">
        <ele>81</ele>
        <time>2015-08-05T08:26:14Z</time>
      </trkpt>
      <trkpt lat="44.82047" lon="-0.4668">
        <ele>81</ele>
        <time>2015-08-05T08:26:19Z</time>
      </trkpt>
      <trkpt lat="44.8205" lon="-0.46652">
        <ele>81</ele>
        <time>2015-08-05T08:26:24Z</time>
      </trkpt>
      <trkpt lat="44.82054" lon="-0.46625">
        <ele>82</ele>
        <time>2015-08-05T08:26:29Z</time>
      </trkpt>
      <trkpt lat="44.82063" lon="-0.46593">
        <ele>81</ele>
        <time>2015-08-05T08:26:34Z</time>
      </trkpt>
      <trkpt lat="44.82074" lon="-0.46562">
        <ele>81</ele>
        <time>2015-08-05T08:26:39Z</time>
      </trkpt>
      <trkpt lat="44.82079" lon="-0.46534">
        <ele>81</ele>
        <time>2015-08-05T08:26:44Z</time>
      </trkpt>
      <trkpt lat="44.8209" lon="-0.46508">
        <ele>81</ele>
        <time>2015-08-05T08:26:49Z</time>
      </trkpt>
      <trkpt lat="44.82106" lon="-0.46473">
        <ele>81</ele>
        <time>2015-08-05T08:26:56Z</time>
      </trkpt>
      <trkpt lat="44.82113" lon="-0.46458">
        <ele>81</ele>
        <time>2015-08-05T08:26:59Z</time>
      </trkpt>
      <trkpt lat="44.82127" lon="-0.46426">
        <ele>83</ele>
        <time>2015-08-05T08:27:06Z</time>
      </trkpt>
      <trkpt lat="44.82132" lon="-0.46411">
        <ele>81</ele>
        <time>2015-08-05T08:27:09Z</time>
      </trkpt>
      <trkpt lat="44.82142" lon="-0.4638">
        <ele>81</ele>
        <time>2015-08-05T08:27:14Z</time>
      </trkpt>
      <trkpt lat="44.82155" lon="-0.46338">
        <ele>81</ele>
        <time>2015-08-05T08:27:20Z</time>
      </trkpt>
      <trkpt lat="44.82163" lon="-0.46313">
        <ele>81</ele>
        <time>2015-08-05T08:27:24Z</time>
      </trkpt>
      <trkpt lat="44.8216" lon="-0.46284">
        <ele>79</ele>
        <time>2015-08-05T08:27:29Z</time>
      </trkpt>
      <trkpt lat="44.82123" lon="-0.46227">
        <ele>75</ele>
        <time>2015-08-05T08:27:37Z</time>
      </trkpt>
      <trkpt lat="44.82103" lon="-0.462">
        <ele>75</ele>
        <time>2015-08-05T08:27:41Z</time>
      </trkpt>
      <trkpt lat="44.82091" lon="-0.46176">
        <ele>74</ele>
        <time>2015-08-05T08:27:44Z</time>
      </trkpt>
      <trkpt lat="44.82075" lon="-0.46122">
        <ele>74</ele>
        <time>2015-08-05T08:27:50Z</time>
      </trkpt>
      <trkpt lat="44.82062" lon="-0.46091">
        <ele>74</ele>
        <time>2015-08-05T08:27:54Z</time>
      </trkpt>
      <trkpt lat="44.82043" lon="-0.46046">
        <ele>74</ele>
        <time>2015-08-05T08:27:59Z</time>
      </trkpt>
      <trkpt lat="44.82023" lon="-0.45996">
        <ele>73</ele>
        <time>2015-08-05T08:28:06Z</time>
      </trkpt>
      <trkpt lat="44.81995" lon="-0.45947">
        <ele>72</ele>
        <time>2015-08-05T08:28:12Z</time>
      </trkpt>
      <trkpt lat="44.81975" lon="-0.45899">
        <ele>72</ele>
        <time>2015-08-05T08:28:17Z</time>
      </trkpt>
      <trkpt lat="44.81971" lon="-0.45878">
        <ele>72</ele>
        <time>2015-08-05T08:28:19Z</time>
      </trkpt>
      <trkpt lat="44.81969" lon="-0.45781">
        <ele>68</ele>
        <time>2015-08-05T08:28:28Z</time>
      </trkpt>
      <trkpt lat="44.81967" lon="-0.45749">
        <ele>66</ele>
        <time>2015-08-05T08:28:31Z</time>
      </trkpt>
      <trkpt lat="44.8197" lon="-0.45731">
        <ele>63</ele>
        <time>2015-08-05T08:28:34Z</time>
      </trkpt>
      <trkpt lat="44.81989" lon="-0.45718">
        <ele>64</ele>
        <time>2015-08-05T08:28:39Z</time>
      </trkpt>
      <trkpt lat="44.82011" lon="-0.45703">
        <ele>64</ele>
        <time>2015-08-05T08:28:44Z</time>
      </trkpt>
      <trkpt lat="44.82031" lon="-0.45689">
        <ele>64</ele>
        <time>2015-08-05T08:28:49Z</time>
      </trkpt>
      <trkpt lat="44.82047" lon="-0.45676">
        <ele>66</ele>
        <time>2015-08-05T08:28:54Z</time>
      </trkpt>
      <trkpt lat="44.82063" lon="-0.45661">
        <ele>66</ele>
        <time>2015-08-05T08:28:59Z</time>
      </trkpt>
      <trkpt lat="44.82077" lon="-0.45647">
        <ele>67</ele>
        <time>2015-08-05T08:29:04Z</time>
      </trkpt>
      <trkpt lat="44.82091" lon="-0.45634">
        <ele>66</ele>
        <time>2015-08-05T08:29:09Z</time>
      </trkpt>
      <trkpt lat="44.82111" lon="-0.45612">
        <ele>60</ele>
        <time>2015-08-05T08:29:16Z</time>
      </trkpt>
      <trkpt lat="44.82119" lon="-0.45603">
        <ele>63</ele>
        <time>2015-08-05T08:29:19Z</time>
      </trkpt>
      <trkpt lat="44.82132" lon="-0.45592">
        <ele>66</ele>
        <time>2015-08-05T08:29:24Z</time>
      </trkpt>
      <trkpt lat="44.82156" lon="-0.4557">
        <ele>67</ele>
        <time>2015-08-05T08:29:33Z</time>
      </trkpt>
      <trkpt lat="44.82159" lon="-0.45568">
        <ele>69</ele>
        <time>2015-08-05T08:29:34Z</time>
      </trkpt>
      <trkpt lat="44.8217" lon="-0.45559">
        <ele>70</ele>
        <time>2015-08-05T08:29:40Z</time>
      </trkpt>
      <trkpt lat="44.8219" lon="-0.45541">
        <ele>71</ele>
        <time>2015-08-05T08:29:47Z</time>
      </trkpt>
      <trkpt lat="44.82202" lon="-0.45535">
        <ele>71</ele>
        <time>2015-08-05T08:29:51Z</time>
      </trkpt>
      <trkpt lat="44.82219" lon="-0.45523">
        <ele>77</ele>
        <time>2015-08-05T08:29:58Z</time>
      </trkpt>
      <trkpt lat="44.82221" lon="-0.45522">
        <ele>78</ele>
        <time>2015-08-05T08:29:59Z</time>
      </trkpt>
      <trkpt lat="44.82233" lon="-0.45516">
        <ele>81</ele>
        <time>2015-08-05T08:30:04Z</time>
      </trkpt>
      <trkpt lat="44.82245" lon="-0.45507">
        <ele>85</ele>
        <time>2015-08-05T08:30:09Z</time>
      </trkpt>
      <trkpt lat="44.82265" lon="-0.45492">
        <ele>85</ele>
        <time>2015-08-05T08:30:16Z</time>
      </trkpt>
      <trkpt lat="44.82272" lon="-0.4549">
        <ele>89</ele>
        <time>2015-08-05T08:30:19Z</time>
      </trkpt>
      <trkpt lat="44.82296" lon="-0.45478">
        <ele>93</ele>
        <time>2015-08-05T08:30:28Z</time>
      </trkpt>
      <trkpt lat="44.82298" lon="-0.45476">
        <ele>94</ele>
        <time>2015-08-05T08:30:29Z</time>
      </trkpt>
      <trkpt lat="44.82312" lon="-0.45466">
        <ele>92</ele>
        <time>2015-08-05T08:30:35Z</time>
      </trkpt>
      <trkpt lat="44.82322" lon="-0.45459">
        <ele>90</ele>
        <time>2015-08-05T08:30:39Z</time>
      </trkpt>
      <trkpt lat="44.82335" lon="-0.45453">
        <ele>90</ele>
        <time>2015-08-05T08:30:44Z</time>
      </trkpt>
      <trkpt lat="44.82348" lon="-0.4545">
        <ele>92</ele>
        <time>2015-08-05T08:30:49Z</time>
      </trkpt>
      <trkpt lat="44.82371" lon="-0.45437">
        <ele>91</ele>
        <time>2015-08-05T08:30:58Z</time>
      </trkpt>
      <trkpt lat="44.82378" lon="-0.4543">
        <ele>80</ele>
        <time>2015-08-05T08:31:01Z</time>
      </trkpt>
      <trkpt lat="44.82382" lon="-0.45421">
        <ele>79</ele>
        <time>2015-08-05T08:31:04Z</time>
      </trkpt>
      <trkpt lat="44.82391" lon="-0.45402">
        <ele>79</ele>
        <time>2015-08-05T08:31:11Z</time>
      </trkpt>
      <trkpt lat="44.82397" lon="-0.45394">
        <ele>79</ele>
        <time>2015-08-05T08:31:14Z</time>
      </trkpt>
      <trkpt lat="44.8241" lon="-0.45366">
        <ele>80</ele>
        <time>2015-08-05T08:31:23Z</time>
      </trkpt>
      <trkpt lat="44.82411" lon="-0.45365">
        <ele>80</ele>
        <time>2015-08-05T08:31:24Z</time>
      </trkpt>
      <trkpt lat="44.82416" lon="-0.45356">
        <ele>86</ele>
        <time>2015-08-05T08:31:29Z</time>
      </trkpt>
      <trkpt lat="44.82425" lon="-0.45338">
        <ele>85</ele>
        <time>2015-08-05T08:31:36Z</time>
      </trkpt>
      <trkpt lat="44.8243" lon="-0.45322">
        <ele>83</ele>
        <time>2015-08-05T08:31:40Z</time>
      </trkpt>
      <trkpt lat="44.82435" lon="-0.45304">
        <ele>83</ele>
        <time>2015-08-05T08:31:45Z</time>
      </trkpt>
      <trkpt lat="44.82438" lon="-0.45291">
        <ele>82</ele>
        <time>2015-08-05T08:31:49Z</time>
      </trkpt>
      <trkpt lat="44.82444" lon="-0.45265">
        <ele>85</ele>
        <time>2015-08-05T08:31:57Z</time>
      </trkpt>
      <trkpt lat="44.82446" lon="-0.45254">
        <ele>85</ele>
        <time>2015-08-05T08:32:00Z</time>
      </trkpt>
      <trkpt lat="44.82448" lon="-0.4524">
        <ele>85</ele>
        <time>2015-08-05T08:32:04Z</time>
      </trkpt>
      <trkpt lat="44.82445" lon="-0.45229">
        <ele>81</ele>
        <time>2015-08-05T08:32:09Z</time>
      </trkpt>
      <trkpt lat="44.82432" lon="-0.45216">
        <ele>79</ele>
        <time>2015-08-05T08:32:14Z</time>
      </trkpt>
      <trkpt lat="44.82417" lon="-0.45202">
        <ele>80</ele>
        <time>2015-08-05T08:32:19Z</time>
      </trkpt>
      <trkpt lat="44.82402" lon="-0.4519">
        <ele>80</ele>
        <time>2015-08-05T08:32:24Z</time>
      </trkpt>
      <trkpt lat="44.82387" lon="-0.45179">
        <ele>81</ele>
        <time>2015-08-05T08:32:29Z</time>
      </trkpt>
      <trkpt lat="44.82372" lon="-0.4517">
        <ele>81</ele>
        <time>2015-08-05T08:32:34Z</time>
      </trkpt>
      <trkpt lat="44.82359" lon="-0.45158">
        <ele>81</ele>
        <time>2015-08-05T08:32:39Z</time>
      </trkpt>
      <trkpt lat="44.82346" lon="-0.45145">
        <ele>82</ele>
        <time>2015-08-05T08:32:44Z</time>
      </trkpt>
      <trkpt lat="44.82335" lon="-0.45129">
        <ele>82</ele>
        <time>2015-08-05T08:32:49Z</time>
      </trkpt>
      <trkpt lat="44.82325" lon="-0.45112">
        <ele>82</ele>
        <time>2015-08-05T08:32:54Z</time>
      </trkpt>
      <trkpt lat="44.82312" lon="-0.45091">
        <ele>81</ele>
        <time>2015-08-05T08:32:59Z</time>
      </trkpt>
      <trkpt lat="44.82296" lon="-0.45066">
        <ele>80</ele>
        <time>2015-08-05T08:33:04Z</time>
      </trkpt>
      <trkpt lat="44.82265" lon="-0.45019">
        <ele>78</ele>
        <time>2015-08-05T08:33:13Z</time>
      </trkpt>
      <trkpt lat="44.82261" lon="-0.45014">
        <ele>77</ele>
        <time>2015-08-05T08:33:14Z</time>
      </trkpt>
      <trkpt lat="44.82236" lon="-0.44982">
        <ele>77</ele>
        <time>2015-08-05T08:33:20Z</time>
      </trkpt>
      <trkpt lat="44.82218" lon="-0.44936">
        <ele>74</ele>
        <time>2015-08-05T08:33:27Z</time>
      </trkpt>
      <trkpt lat="44.82211" lon="-0.4491">
        <ele>75</ele>
        <time>2015-08-05T08:33:31Z</time>
      </trkpt>
      <trkpt lat="44.82204" lon="-0.44882">
        <ele>77</ele>
        <time>2015-08-05T08:33:36Z</time>
      </trkpt>
      <trkpt lat="44.82202" lon="-0.44865">
        <ele>77</ele>
        <time>2015-08-05T08:33:39Z</time>
      </trkpt>
      <trkpt lat="44.82211" lon="-0.44827">
        <ele>80</ele>
        <time>2015-08-05T08:33:46Z</time>
      </trkpt>
      <trkpt lat="44.82216" lon="-0.44801">
        <ele>80</ele>
        <time>2015-08-05T08:33:50Z</time>
      </trkpt>
      <trkpt lat="44.82203" lon="-0.44764">
        <ele>81</ele>
        <time>2015-08-05T08:33:57Z</time>
      </trkpt>
      <trkpt lat="44.82192" lon="-0.44738">
        <ele>82</ele>
        <time>2015-08-05T08:34:02Z</time>
      </trkpt>
      <trkpt lat="44.8219" lon="-0.44724">
        <ele>82</ele>
        <time>2015-08-05T08:34:04Z</time>
      </trkpt>
      <trkpt lat="44.8218" lon="-0.44695">
        <ele>81</ele>
        <time>2015-08-05T08:34:09Z</time>
      </trkpt>
      <trkpt lat="44.82177" lon="-0.44659">
        <ele>81</ele>
        <time>2015-08-05T08:34:14Z</time>
      </trkpt>
      <trkpt lat="44.82169" lon="-0.44608">
        <ele>81</ele>
        <time>2015-08-05T08:34:20Z</time>
      </trkpt>
      <trkpt lat="44.82157" lon="-0.44572">
        <ele>81</ele>
        <time>2015-08-05T08:34:26Z</time>
      </trkpt>
      <trkpt lat="44.82141" lon="-0.4455">
        <ele>81</ele>
        <time>2015-08-05T08:34:31Z</time>
      </trkpt>
      <trkpt lat="44.82131" lon="-0.4454">
        <ele>82</ele>
        <time>2015-08-05T08:34:34Z</time>
      </trkpt>
      <trkpt lat="44.82107" lon="-0.44527">
        <ele>82</ele>
        <time>2015-08-05T08:34:41Z</time>
      </trkpt>
      <trkpt lat="44.82099" lon="-0.44519">
        <ele>82</ele>
        <time>2015-08-05T08:34:44Z</time>
      </trkpt>
      <trkpt lat="44.82087" lon="-0.44509">
        <ele>84</ele>
        <time>2015-08-05T08:34:49Z</time>
      </trkpt>
      <trkpt lat="44.82063" lon="-0.44492">
        <ele>85</ele>
        <time>2015-08-05T08:34:58Z</time>
      </trkpt>
      <trkpt lat="44.82056" lon="-0.44486">
        <ele>85</ele>
        <time>2015-08-05T08:35:01Z</time>
      </trkpt>
      <trkpt lat="44.82048" lon="-0.44468">
        <ele>87</ele>
        <time>2015-08-05T08:35:07Z</time>
      </trkpt>
      <trkpt lat="44.82046" lon="-0.44455">
        <ele>88</ele>
        <time>2015-08-05T08:35:10Z</time>
      </trkpt>
      <trkpt lat="44.82042" lon="-0.44444">
        <ele>87</ele>
        <time>2015-08-05T08:35:14Z</time>
      </trkpt>
      <trkpt lat="44.82039" lon="-0.44421">
        <ele>88</ele>
        <time>2015-08-05T08:35:19Z</time>
      </trkpt>
      <trkpt lat="44.82034" lon="-0.44396">
        <ele>88</ele>
        <time>2015-08-05T08:35:24Z</time>
      </trkpt>
      <trkpt lat="44.82026" lon="-0.44374">
        <ele>88</ele>
        <time>2015-08-05T08:35:29Z</time>
      </trkpt>
      <trkpt lat="44.82017" lon="-0.4435">
        <ele>87</ele>
        <time>2015-08-05T08:35:34Z</time>
      </trkpt>
      <trkpt lat="44.8201" lon="-0.44326">
        <ele>87</ele>
        <time>2015-08-05T08:35:39Z</time>
      </trkpt>
      <trkpt lat="44.81998" lon="-0.44306">
        <ele>86</ele>
        <time>2015-08-05T08:35:44Z</time>
      </trkpt>
      <trkpt lat="44.81985" lon="-0.44282">
        <ele>86</ele>
        <time>2015-08-05T08:35:49Z</time>
      </trkpt>
      <trkpt lat="44.81972" lon="-0.44255">
        <ele>85</ele>
        <time>2015-08-05T08:35:54Z</time>
      </trkpt>
      <trkpt lat="44.81956" lon="-0.44219">
        <ele>86</ele>
        <time>2015-08-05T08:35:59Z</time>
      </trkpt>
      <trkpt lat="44.81941" lon="-0.44179">
        <ele>84</ele>
        <time>2015-08-05T08:36:04Z</time>
      </trkpt>
      <trkpt lat="44.81927" lon="-0.44141">
        <ele>82</ele>
        <time>2015-08-05T08:36:09Z</time>
      </trkpt>
      <trkpt lat="44.819" lon="-0.44078">
        <ele>80</ele>
        <time>2015-08-05T08:36:17Z</time>
      </trkpt>
      <trkpt lat="44.81896" lon="-0.44057">
        <ele>79</ele>
        <time>2015-08-05T08:36:19Z</time>
      </trkpt>
      <trkpt lat="44.81887" lon="-0.43999">
        <ele>78</ele>
        <time>2015-08-05T08:36:24Z</time>
      </trkpt>
      <trkpt lat="44.8187" lon="-0.43943">
        <ele>77</ele>
        <time>2015-08-05T08:36:29Z</time>
      </trkpt>
      <trkpt lat="44.81866" lon="-0.43902">
        <ele>74</ele>
        <time>2015-08-05T08:36:34Z</time>
      </trkpt>
      <trkpt lat="44.81897" lon="-0.43866">
        <ele>76</ele>
        <time>2015-08-05T08:36:39Z</time>
      </trkpt>
      <trkpt lat="44.81924" lon="-0.43816">
        <ele>75</ele>
        <time>2015-08-05T08:36:44Z</time>
      </trkpt>
      <trkpt lat="44.81937" lon="-0.43751">
        <ele>76</ele>
        <time>2015-08-05T08:36:50Z</time>
      </trkpt>
      <trkpt lat="44.81941" lon="-0.43713">
        <ele>77</ele>
        <time>2015-08-05T08:36:54Z</time>
      </trkpt>
      <trkpt lat="44.81955" lon="-0.43656">
        <ele>79</ele>
        <time>2015-08-05T08:37:03Z</time>
      </trkpt>
      <trkpt lat="44.81957" lon="-0.43651">
        <ele>79</ele>
        <time>2015-08-05T08:37:04Z</time>
      </trkpt>
      <trkpt lat="44.8196" lon="-0.43616">
        <ele>79</ele>
        <time>2015-08-05T08:37:09Z</time>
      </trkpt>
      <trkpt lat="44.8196" lon="-0.43579">
        <ele>82</ele>
        <time>2015-08-05T08:37:14Z</time>
      </trkpt>
      <trkpt lat="44.81968" lon="-0.43551">
        <ele>82</ele>
        <time>2015-08-05T08:37:19Z</time>
      </trkpt>
      <trkpt lat="44.81981" lon="-0.43539">
        <ele>83</ele>
        <time>2015-08-05T08:37:24Z</time>
      </trkpt>
      <trkpt lat="44.81998" lon="-0.43512">
        <ele>82</ele>
        <time>2015-08-05T08:37:33Z</time>
      </trkpt>
      <trkpt lat="44.81999" lon="-0.43509">
        <ele>81</ele>
        <time>2015-08-05T08:37:34Z</time>
      </trkpt>
      <trkpt lat="44.81996" lon="-0.43504">
        <ele>78</ele>
        <time>2015-08-05T08:37:39Z</time>
      </trkpt>
      <trkpt lat="44.81998" lon="-0.43502">
        <ele>78</ele>
        <time>2015-08-05T08:37:44Z</time>
      </trkpt>
      <trkpt lat="44.81992" lon="-0.43466">
        <ele>78</ele>
        <time>2015-08-05T08:37:52Z</time>
      </trkpt>
      <trkpt lat="44.81987" lon="-0.43422">
        <ele>77</ele>
        <time>2015-08-05T08:37:58Z</time>
      </trkpt>
      <trkpt lat="44.81988" lon="-0.43415">
        <ele>77</ele>
        <time>2015-08-05T08:37:59Z</time>
      </trkpt>
      <trkpt lat="44.82003" lon="-0.43375">
        <ele>75</ele>
        <time>2015-08-05T08:38:05Z</time>
      </trkpt>
      <trkpt lat="44.82015" lon="-0.43347">
        <ele>75</ele>
        <time>2015-08-05T08:38:09Z</time>
      </trkpt>
      <trkpt lat="44.8203" lon="-0.43317">
        <ele>76</ele>
        <time>2015-08-05T08:38:15Z</time>
      </trkpt>
      <trkpt lat="44.82033" lon="-0.43309">
        <ele>76</ele>
        <time>2015-08-05T08:38:19Z</time>
      </trkpt>
      <trkpt lat="44.82034" lon="-0.43309">
        <ele>77</ele>
        <time>2015-08-05T08:38:25Z</time>
      </trkpt>
      <trkpt lat="44.82035" lon="-0.43309">
        <ele>77</ele>
        <time>2015-08-05T08:38:29Z</time>
      </trkpt>
      <trkpt lat="44.82035" lon="-0.43308">
        <ele>77</ele>
        <time>2015-08-05T08:38:34Z</time>
      </trkpt>
      <trkpt lat="44.82035" lon="-0.43309">
        <ele>77</ele>
        <time>2015-08-05T08:38:39Z</time>
      </trkpt>
      <trkpt lat="44.82035" lon="-0.43309">
        <ele>78</ele>
        <time>2015-08-05T08:38:44Z</time>
      </trkpt>
      <trkpt lat="44.82035" lon="-0.43309">
        <ele>78</ele>
        <time>2015-08-05T08:38:49Z</time>
      </trkpt>
      <trkpt lat="44.82035" lon="-0.43309">
        <ele>78</ele>
        <time>2015-08-05T08:38:54Z</time>
      </trkpt>
      <trkpt lat="44.82035" lon="-0.43309">
        <ele>78</ele>
        <time>2015-08-05T08:38:59Z</time>
      </trkpt>
      <trkpt lat="44.82035" lon="-0.43309">
        <ele>78</ele>
        <time>2015-08-05T08:39:04Z</time>
      </trkpt>
      <trkpt lat="44.82035" lon="-0.43309">
        <ele>78</ele>
        <time>2015-08-05T08:39:09Z</time>
      </trkpt>
      <trkpt lat="44.82035" lon="-0.43309">
        <ele>78</ele>
        <time>2015-08-05T08:39:14Z</time>
      </trkpt>
      <trkpt lat="44.82035" lon="-0.43309">
        <ele>78</ele>
        <time>2015-08-05T08:39:19Z</time>
      </trkpt>
      <trkpt lat="44.82035" lon="-0.43309">
        <ele>78</ele>
        <time>2015-08-05T08:39:24Z</time>
      </trkpt>
      <trkpt lat="44.82035" lon="-0.43309">
        <ele>78</ele>
        <time>2015-08-05T08:39:29Z</time>
      </trkpt>
      <trkpt lat="44.82035" lon="-0.43309">
        <ele>78</ele>
        <time>2015-08-05T08:39:34Z</time>
      </trkpt>
      <trkpt lat="44.82035" lon="-0.43309">
        <ele>78</ele>
        <time>2015-08-05T08:39:39Z</time>
      </trkpt>
      <trkpt lat="44.82035" lon="-0.43309">
        <ele>78</ele>
        <time>2015-08-05T08:39:44Z</time>
      </trkpt>
      <trkpt lat="44.82035" lon="-0.43309">
        <ele>78</ele>
        <time>2015-08-05T08:39:49Z</time>
      </trkpt>
      <trkpt lat="44.82035" lon="-0.43309">
        <ele>78</ele>
        <time>2015-08-05T08:39:54Z</time>
      </trkpt>
      <trkpt lat="44.82035" lon="-0.43309">
        <ele>78</ele>
        <time>2015-08-05T08:39:59Z</time>
      </trkpt>
      <trkpt lat="44.82035" lon="-0.43309">
        <ele>78</ele>
        <time>2015-08-05T08:40:04Z</time>
      </trkpt>
      <trkpt lat="44.82035" lon="-0.43309">
        <ele>77</ele>
        <time>2015-08-05T08:40:09Z</time>
      </trkpt>
      <trkpt lat="44.82036" lon="-0.43309">
        <ele>77</ele>
        <time>2015-08-05T08:40:14Z</time>
      </trkpt>
      <trkpt lat="44.82036" lon="-0.43309">
        <ele>77</ele>
        <time>2015-08-05T08:40:19Z</time>
      </trkpt>
      <trkpt lat="44.82036" lon="-0.43309">
        <ele>77</ele>
        <time>2015-08-05T08:40:24Z</time>
      </trkpt>
      <trkpt lat="44.82036" lon="-0.43309">
        <ele>77</ele>
        <time>2015-08-05T08:40:29Z</time>
      </trkpt>
      <trkpt lat="44.82036" lon="-0.43309">
        <ele>77</ele>
        <time>2015-08-05T08:40:34Z</time>
      </trkpt>
      <trkpt lat="44.82036" lon="-0.43309">
        <ele>77</ele>
        <time>2015-08-05T08:40:39Z</time>
      </trkpt>
      <trkpt lat="44.82036" lon="-0.43309">
        <ele>78</ele>
        <time>2015-08-05T08:40:45Z</time>
      </trkpt>
      <trkpt lat="44.82033" lon="-0.43308">
        <ele>76</ele>
        <time>2015-08-05T08:40:49Z</time>
      </trkpt>
      <trkpt lat="44.82033" lon="-0.43308">
        <ele>77</ele>
        <time>2015-08-05T08:40:54Z</time>
      </trkpt>
      <trkpt lat="44.82034" lon="-0.43308">
        <ele>77</ele>
        <time>2015-08-05T08:40:59Z</time>
      </trkpt>
      <trkpt lat="44.82034" lon="-0.43308">
        <ele>77</ele>
        <time>2015-08-05T08:41:04Z</time>
      </trkpt>
      <trkpt lat="44.82034" lon="-0.43308">
        <ele>77</ele>
        <time>2015-08-05T08:41:09Z</time>
      </trkpt>
      <trkpt lat="44.82034" lon="-0.43308">
        <ele>77</ele>
        <time>2015-08-05T08:41:14Z</time>
      </trkpt>
      <trkpt lat="44.82034" lon="-0.43308">
        <ele>77</ele>
        <time>2015-08-05T08:41:19Z</time>
      </trkpt>
      <trkpt lat="44.82034" lon="-0.43308">
        <ele>77</ele>
        <time>2015-08-05T08:41:24Z</time>
      </trkpt>
      <trkpt lat="44.82034" lon="-0.43308">
        <ele>77</ele>
        <time>2015-08-05T08:41:29Z</time>
      </trkpt>
      <trkpt lat="44.82034" lon="-0.43308">
        <ele>77</ele>
        <time>2015-08-05T08:41:34Z</time>
      </trkpt>
      <trkpt lat="44.82034" lon="-0.43308">
        <ele>78</ele>
        <time>2015-08-05T08:41:40Z</time>
      </trkpt>
      <trkpt lat="44.82036" lon="-0.43309">
        <ele>78</ele>
        <time>2015-08-05T08:41:44Z</time>
      </trkpt>
      <trkpt lat="44.82033" lon="-0.4331">
        <ele>76</ele>
        <time>2015-08-05T08:41:50Z</time>
      </trkpt>
      <trkpt lat="44.82014" lon="-0.43302">
        <ele>73</ele>
        <time>2015-08-05T08:41:54Z</time>
      </trkpt>
      <trkpt lat="44.81987" lon="-0.4329">
        <ele>71</ele>
        <time>2015-08-05T08:41:59Z</time>
      </trkpt>
      <trkpt lat="44.81957" lon="-0.43246">
        <ele>69</ele>
        <time>2015-08-05T08:42:06Z</time>
      </trkpt>
      <trkpt lat="44.81944" lon="-0.43226">
        <ele>66</ele>
        <time>2015-08-05T08:42:09Z</time>
      </trkpt>
      <trkpt lat="44.81924" lon="-0.43201">
        <ele>62</ele>
        <time>2015-08-05T08:42:14Z</time>
      </trkpt>
      <trkpt lat="44.81867" lon="-0.43203">
        <ele>58</ele>
        <time>2015-08-05T08:42:23Z</time>
      </trkpt>
      <trkpt lat="44.81859" lon="-0.43203">
        <ele>57</ele>
        <time>2015-08-05T08:42:24Z</time>
      </trkpt>
      <trkpt lat="44.81819" lon="-0.43209">
        <ele>54</ele>
        <time>2015-08-05T08:42:29Z</time>
      </trkpt>
      <trkpt lat="44.8177" lon="-0.43245">
        <ele>59</ele>
        <time>2015-08-05T08:42:37Z</time>
      </trkpt>
      <trkpt lat="44.81758" lon="-0.43251">
        <ele>59</ele>
        <time>2015-08-05T08:42:39Z</time>
      </trkpt>
      <trkpt lat="44.81731" lon="-0.43258">
        <ele>61</ele>
        <time>2015-08-05T08:42:44Z</time>
      </trkpt>
      <trkpt lat="44.81656" lon="-0.43268">
        <ele>54</ele>
        <time>2015-08-05T08:42:53Z</time>
      </trkpt>
      <trkpt lat="44.81635" lon="-0.43284">
        <ele>53</ele>
        <time>2015-08-05T08:42:56Z</time>
      </trkpt>
      <trkpt lat="44.81612" lon="-0.43305">
        <ele>53</ele>
        <time>2015-08-05T08:42:59Z</time>
      </trkpt>
      <trkpt lat="44.81582" lon="-0.43349">
        <ele>47</ele>
        <time>2015-08-05T08:43:04Z</time>
      </trkpt>
      <trkpt lat="44.81528" lon="-0.43392">
        <ele>46</ele>
        <time>2015-08-05T08:43:11Z</time>
      </trkpt>
      <trkpt lat="44.81506" lon="-0.4341">
        <ele>43</ele>
        <time>2015-08-05T08:43:14Z</time>
      </trkpt>
      <trkpt lat="44.81474" lon="-0.43425">
        <ele>43</ele>
        <time>2015-08-05T08:43:19Z</time>
      </trkpt>
      <trkpt lat="44.81467" lon="-0.43452">
        <ele>42</ele>
        <time>2015-08-05T08:43:24Z</time>
      </trkpt>
      <trkpt lat="44.81465" lon="-0.43473">
        <ele>40</ele>
        <time>2015-08-05T08:43:29Z</time>
      </trkpt>
      <trkpt lat="44.81467" lon="-0.43497">
        <ele>36</ele>
        <time>2015-08-05T08:43:34Z</time>
      </trkpt>
      <trkpt lat="44.8147" lon="-0.43525">
        <ele>33</ele>
        <time>2015-08-05T08:43:40Z</time>
      </trkpt>
      <trkpt lat="44.81476" lon="-0.43548">
        <ele>34</ele>
        <time>2015-08-05T08:43:46Z</time>
      </trkpt>
      <trkpt lat="44.8148" lon="-0.43557">
        <ele>39</ele>
        <time>2015-08-05T08:43:49Z</time>
      </trkpt>
      <trkpt lat="44.81487" lon="-0.43574">
        <ele>39</ele>
        <time>2015-08-05T08:43:54Z</time>
      </trkpt>
      <trkpt lat="44.81492" lon="-0.43595">
        <ele>37</ele>
        <time>2015-08-05T08:43:59Z</time>
      </trkpt>
      <trkpt lat="44.81496" lon="-0.43629">
        <ele>39</ele>
        <time>2015-08-05T08:44:05Z</time>
      </trkpt>
      <trkpt lat="44.81497" lon="-0.43652">
        <ele>42</ele>
        <time>2015-08-05T08:44:09Z</time>
      </trkpt>
      <trkpt lat="44.81498" lon="-0.43681">
        <ele>41</ele>
        <time>2015-08-05T08:44:14Z</time>
      </trkpt>
      <trkpt lat="44.81502" lon="-0.43721">
        <ele>42</ele>
        <time>2015-08-05T08:44:21Z</time>
      </trkpt>
      <trkpt lat="44.81506" lon="-0.43751">
        <ele>42</ele>
        <time>2015-08-05T08:44:26Z</time>
      </trkpt>
      <trkpt lat="44.81509" lon="-0.43767">
        <ele>40</ele>
        <time>2015-08-05T08:44:29Z</time>
      </trkpt>
      <trkpt lat="44.81513" lon="-0.43801">
        <ele>42</ele>
        <time>2015-08-05T08:44:37Z</time>
      </trkpt>
      <trkpt lat="44.81509" lon="-0.43806">
        <ele>43</ele>
        <time>2015-08-05T08:44:39Z</time>
      </trkpt>
      <trkpt lat="44.81482" lon="-0.43807">
        <ele>41</ele>
        <time>2015-08-05T08:44:45Z</time>
      </trkpt>
      <trkpt lat="44.8143" lon="-0.43831">
        <ele>40</ele>
        <time>2015-08-05T08:44:52Z</time>
      </trkpt>
      <trkpt lat="44.81417" lon="-0.43838">
        <ele>39</ele>
        <time>2015-08-05T08:44:54Z</time>
      </trkpt>
      <trkpt lat="44.8137" lon="-0.43861">
        <ele>39</ele>
        <time>2015-08-05T08:45:03Z</time>
      </trkpt>
      <trkpt lat="44.81369" lon="-0.43865">
        <ele>39</ele>
        <time>2015-08-05T08:45:04Z</time>
      </trkpt>
      <trkpt lat="44.81359" lon="-0.43888">
        <ele>41</ele>
        <time>2015-08-05T08:45:13Z</time>
      </trkpt>
      <trkpt lat="44.81356" lon="-0.4389">
        <ele>42</ele>
        <time>2015-08-05T08:45:15Z</time>
      </trkpt>
      <trkpt lat="44.8135" lon="-0.43896">
        <ele>43</ele>
        <time>2015-08-05T08:45:19Z</time>
      </trkpt>
      <trkpt lat="44.81342" lon="-0.43897">
        <ele>42</ele>
        <time>2015-08-05T08:45:24Z</time>
      </trkpt>
      <trkpt lat="44.81336" lon="-0.43895">
        <ele>40</ele>
        <time>2015-08-05T08:45:30Z</time>
      </trkpt>
      <trkpt lat="44.81325" lon="-0.43898">
        <ele>41</ele>
        <time>2015-08-05T08:45:38Z</time>
      </trkpt>
      <trkpt lat="44.81321" lon="-0.43899">
        <ele>41</ele>
        <time>2015-08-05T08:45:40Z</time>
      </trkpt>
      <trkpt lat="44.81312" lon="-0.43906">
        <ele>44</ele>
        <time>2015-08-05T08:45:46Z</time>
      </trkpt>
      <trkpt lat="44.81306" lon="-0.43911">
        <ele>46</ele>
        <time>2015-08-05T08:45:49Z</time>
      </trkpt>
      <trkpt lat="44.81302" lon="-0.43924">
        <ele>51</ele>
        <time>2015-08-05T08:45:54Z</time>
      </trkpt>
      <trkpt lat="44.81297" lon="-0.43934">
        <ele>52</ele>
        <time>2015-08-05T08:45:59Z</time>
      </trkpt>
      <trkpt lat="44.81301" lon="-0.43933">
        <ele>52</ele>
        <time>2015-08-05T08:46:06Z</time>
      </trkpt>
      <trkpt lat="44.81299" lon="-0.4393">
        <ele>52</ele>
        <time>2015-08-05T08:46:09Z</time>
      </trkpt>
      <trkpt lat="44.81298" lon="-0.43931">
        <ele>53</ele>
        <time>2015-08-05T08:46:14Z</time>
      </trkpt>
      <trkpt lat="44.81298" lon="-0.43932">
        <ele>53</ele>
        <time>2015-08-05T08:46:19Z</time>
      </trkpt>
      <trkpt lat="44.81297" lon="-0.43932">
        <ele>53</ele>
        <time>2015-08-05T08:46:24Z</time>
      </trkpt>
      <trkpt lat="44.81298" lon="-0.43948">
        <ele>54</ele>
        <time>2015-08-05T08:46:30Z</time>
      </trkpt>
      <trkpt lat="44.813" lon="-0.4396">
        <ele>55</ele>
        <time>2015-08-05T08:46:34Z</time>
      </trkpt>
      <trkpt lat="44.81303" lon="-0.43975">
        <ele>53</ele>
        <time>2015-08-05T08:46:39Z</time>
      </trkpt>
      <trkpt lat="44.81304" lon="-0.43991">
        <ele>52</ele>
        <time>2015-08-05T08:46:44Z</time>
      </trkpt>
      <trkpt lat="44.81306" lon="-0.44006">
        <ele>52</ele>
        <time>2015-08-05T08:46:49Z</time>
      </trkpt>
      <trkpt lat="44.81311" lon="-0.44037">
        <ele>55</ele>
        <time>2015-08-05T08:46:58Z</time>
      </trkpt>
      <trkpt lat="44.81314" lon="-0.44056">
        <ele>54</ele>
        <time>2015-08-05T08:47:03Z</time>
      </trkpt>
      <trkpt lat="44.81315" lon="-0.44059">
        <ele>54</ele>
        <time>2015-08-05T08:47:04Z</time>
      </trkpt>
      <trkpt lat="44.81323" lon="-0.4409">
        <ele>56</ele>
        <time>2015-08-05T08:47:12Z</time>
      </trkpt>
      <trkpt lat="44.81326" lon="-0.44097">
        <ele>57</ele>
        <time>2015-08-05T08:47:14Z</time>
      </trkpt>
      <trkpt lat="44.81333" lon="-0.44115">
        <ele>56</ele>
        <time>2015-08-05T08:47:19Z</time>
      </trkpt>
      <trkpt lat="44.81341" lon="-0.44138">
        <ele>56</ele>
        <time>2015-08-05T08:47:25Z</time>
      </trkpt>
      <trkpt lat="44.81345" lon="-0.44152">
        <ele>57</ele>
        <time>2015-08-05T08:47:29Z</time>
      </trkpt>
      <trkpt lat="44.8135" lon="-0.44172">
        <ele>58</ele>
        <time>2015-08-05T08:47:34Z</time>
      </trkpt>
      <trkpt lat="44.81347" lon="-0.44196">
        <ele>59</ele>
        <time>2015-08-05T08:47:40Z</time>
      </trkpt>
      <trkpt lat="44.8134" lon="-0.4421">
        <ele>61</ele>
        <time>2015-08-05T08:47:44Z</time>
      </trkpt>
      <trkpt lat="44.81331" lon="-0.44227">
        <ele>62</ele>
        <time>2015-08-05T08:47:49Z</time>
      </trkpt>
      <trkpt lat="44.81324" lon="-0.44244">
        <ele>63</ele>
        <time>2015-08-05T08:47:54Z</time>
      </trkpt>
      <trkpt lat="44.81319" lon="-0.44263">
        <ele>64</ele>
        <time>2015-08-05T08:47:59Z</time>
      </trkpt>
      <trkpt lat="44.81319" lon="-0.44284">
        <ele>65</ele>
        <time>2015-08-05T08:48:04Z</time>
      </trkpt>
      <trkpt lat="44.81319" lon="-0.44305">
        <ele>65</ele>
        <time>2015-08-05T08:48:09Z</time>
      </trkpt>
      <trkpt lat="44.81311" lon="-0.4432">
        <ele>65</ele>
        <time>2015-08-05T08:48:14Z</time>
      </trkpt>
      <trkpt lat="44.81295" lon="-0.44325">
        <ele>65</ele>
        <time>2015-08-05T08:48:19Z</time>
      </trkpt>
      <trkpt lat="44.81285" lon="-0.44336">
        <ele>65</ele>
        <time>2015-08-05T08:48:24Z</time>
      </trkpt>
      <trkpt lat="44.81296" lon="-0.44358">
        <ele>63</ele>
        <time>2015-08-05T08:48:30Z</time>
      </trkpt>
      <trkpt lat="44.81303" lon="-0.44371">
        <ele>62</ele>
        <time>2015-08-05T08:48:34Z</time>
      </trkpt>
      <trkpt lat="44.81317" lon="-0.44396">
        <ele>60</ele>
        <time>2015-08-05T08:48:41Z</time>
      </trkpt>
      <trkpt lat="44.81317" lon="-0.4442">
        <ele>62</ele>
        <time>2015-08-05T08:48:48Z</time>
      </trkpt>
      <trkpt lat="44.81314" lon="-0.44421">
        <ele>64</ele>
        <time>2015-08-05T08:48:49Z</time>
      </trkpt>
      <trkpt lat="44.81294" lon="-0.4442">
        <ele>67</ele>
        <time>2015-08-05T08:48:55Z</time>
      </trkpt>
      <trkpt lat="44.81265" lon="-0.44422">
        <ele>68</ele>
        <time>2015-08-05T08:49:02Z</time>
      </trkpt>
      <trkpt lat="44.81258" lon="-0.44423">
        <ele>66</ele>
        <time>2015-08-05T08:49:04Z</time>
      </trkpt>
      <trkpt lat="44.81243" lon="-0.44425">
        <ele>66</ele>
        <time>2015-08-05T08:49:09Z</time>
      </trkpt>
      <trkpt lat="44.81225" lon="-0.44428">
        <ele>67</ele>
        <time>2015-08-05T08:49:15Z</time>
      </trkpt>
      <trkpt lat="44.81214" lon="-0.44428">
        <ele>65</ele>
        <time>2015-08-05T08:49:21Z</time>
      </trkpt>
      <trkpt lat="44.81206" lon="-0.44434">
        <ele>66</ele>
        <time>2015-08-05T08:49:25Z</time>
      </trkpt>
      <trkpt lat="44.81204" lon="-0.44454">
        <ele>68</ele>
        <time>2015-08-05T08:49:32Z</time>
      </trkpt>
      <trkpt lat="44.81204" lon="-0.44458">
        <ele>70</ele>
        <time>2015-08-05T08:49:34Z</time>
      </trkpt>
      <trkpt lat="44.81198" lon="-0.44482">
        <ele>74</ele>
        <time>2015-08-05T08:49:41Z</time>
      </trkpt>
      <trkpt lat="44.81193" lon="-0.44506">
        <ele>75</ele>
        <time>2015-08-05T08:49:47Z</time>
      </trkpt>
      <trkpt lat="44.81189" lon="-0.44523">
        <ele>74</ele>
        <time>2015-08-05T08:49:51Z</time>
      </trkpt>
      <trkpt lat="44.81186" lon="-0.44538">
        <ele>72</ele>
        <time>2015-08-05T08:49:54Z</time>
      </trkpt>
      <trkpt lat="44.8118" lon="-0.44558">
        <ele>73</ele>
        <time>2015-08-05T08:50:00Z</time>
      </trkpt>
      <trkpt lat="44.81179" lon="-0.44572">
        <ele>74</ele>
        <time>2015-08-05T08:50:04Z</time>
      </trkpt>
      <trkpt lat="44.8118" lon="-0.44594">
        <ele>74</ele>
        <time>2015-08-05T08:50:09Z</time>
      </trkpt>
      <trkpt lat="44.81179" lon="-0.4462">
        <ele>73</ele>
        <time>2015-08-05T08:50:14Z</time>
      </trkpt>
      <trkpt lat="44.8118" lon="-0.44653">
        <ele>70</ele>
        <time>2015-08-05T08:50:19Z</time>
      </trkpt>
      <trkpt lat="44.81181" lon="-0.44694">
        <ele>68</ele>
        <time>2015-08-05T08:50:24Z</time>
      </trkpt>
      <trkpt lat="44.81177" lon="-0.44739">
        <ele>66</ele>
        <time>2015-08-05T08:50:29Z</time>
      </trkpt>
      <trkpt lat="44.81178" lon="-0.44787">
        <ele>67</ele>
        <time>2015-08-05T08:50:34Z</time>
      </trkpt>
      <trkpt lat="44.81176" lon="-0.44874">
        <ele>71</ele>
        <time>2015-08-05T08:50:43Z</time>
      </trkpt>
      <trkpt lat="44.81174" lon="-0.44884">
        <ele>70</ele>
        <time>2015-08-05T08:50:44Z</time>
      </trkpt>
      <trkpt lat="44.81176" lon="-0.44972">
        <ele>64</ele>
        <time>2015-08-05T08:50:52Z</time>
      </trkpt>
      <trkpt lat="44.81179" lon="-0.44992">
        <ele>63</ele>
        <time>2015-08-05T08:50:54Z</time>
      </trkpt>
      <trkpt lat="44.8118" lon="-0.45028">
        <ele>63</ele>
        <time>2015-08-05T08:50:59Z</time>
      </trkpt>
      <trkpt lat="44.8118" lon="-0.45072">
        <ele>60</ele>
        <time>2015-08-05T08:51:07Z</time>
      </trkpt>
      <trkpt lat="44.8118" lon="-0.45078">
        <ele>60</ele>
        <time>2015-08-05T08:51:09Z</time>
      </trkpt>
      <trkpt lat="44.81176" lon="-0.45098">
        <ele>61</ele>
        <time>2015-08-05T08:51:14Z</time>
      </trkpt>
      <trkpt lat="44.81169" lon="-0.45116">
        <ele>63</ele>
        <time>2015-08-05T08:51:19Z</time>
      </trkpt>
      <trkpt lat="44.81161" lon="-0.4514">
        <ele>72</ele>
        <time>2015-08-05T08:51:26Z</time>
      </trkpt>
      <trkpt lat="44.81155" lon="-0.45159">
        <ele>71</ele>
        <time>2015-08-05T08:51:29Z</time>
      </trkpt>
      <trkpt lat="44.81148" lon="-0.45214">
        <ele>68</ele>
        <time>2015-08-05T08:51:34Z</time>
      </trkpt>
      <trkpt lat="44.81143" lon="-0.45312">
        <ele>55</ele>
        <time>2015-08-05T08:51:43Z</time>
      </trkpt>
      <trkpt lat="44.81144" lon="-0.45319">
        <ele>56</ele>
        <time>2015-08-05T08:51:45Z</time>
      </trkpt>
      <trkpt lat="44.81145" lon="-0.4534">
        <ele>57</ele>
        <time>2015-08-05T08:51:49Z</time>
      </trkpt>
      <trkpt lat="44.81148" lon="-0.45368">
        <ele>59</ele>
        <time>2015-08-05T08:51:54Z</time>
      </trkpt>
      <trkpt lat="44.81152" lon="-0.45413">
        <ele>60</ele>
        <time>2015-08-05T08:51:59Z</time>
      </trkpt>
      <trkpt lat="44.81167" lon="-0.4548">
        <ele>53</ele>
        <time>2015-08-05T08:52:05Z</time>
      </trkpt>
      <trkpt lat="44.81181" lon="-0.45514">
        <ele>50</ele>
        <time>2015-08-05T08:52:10Z</time>
      </trkpt>
      <trkpt lat="44.81186" lon="-0.45568">
        <ele>47</ele>
        <time>2015-08-05T08:52:17Z</time>
      </trkpt>
      <trkpt lat="44.81188" lon="-0.45578">
        <ele>46</ele>
        <time>2015-08-05T08:52:21Z</time>
      </trkpt>
      <trkpt lat="44.8119" lon="-0.45579">
        <ele>44</ele>
        <time>2015-08-05T08:52:24Z</time>
      </trkpt>
      <trkpt lat="44.81191" lon="-0.45582">
        <ele>43</ele>
        <time>2015-08-05T08:52:29Z</time>
      </trkpt>
      <trkpt lat="44.81194" lon="-0.45591">
        <ele>43</ele>
        <time>2015-08-05T08:52:35Z</time>
      </trkpt>
      <trkpt lat="44.81195" lon="-0.45597">
        <ele>41</ele>
        <time>2015-08-05T08:52:39Z</time>
      </trkpt>
      <trkpt lat="44.81193" lon="-0.45605">
        <ele>42</ele>
        <time>2015-08-05T08:52:44Z</time>
      </trkpt>
      <trkpt lat="44.81191" lon="-0.45633">
        <ele>36</ele>
        <time>2015-08-05T08:52:53Z</time>
      </trkpt>
      <trkpt lat="44.8119" lon="-0.45637">
        <ele>36</ele>
        <time>2015-08-05T08:52:54Z</time>
      </trkpt>
      <trkpt lat="44.8119" lon="-0.45654">
        <ele>34</ele>
        <time>2015-08-05T08:52:59Z</time>
      </trkpt>
      <trkpt lat="44.81197" lon="-0.45682">
        <ele>26</ele>
        <time>2015-08-05T08:53:07Z</time>
      </trkpt>
      <trkpt lat="44.81201" lon="-0.45688">
        <ele>28</ele>
        <time>2015-08-05T08:53:09Z</time>
      </trkpt>
      <trkpt lat="44.81208" lon="-0.45703">
        <ele>24</ele>
        <time>2015-08-05T08:53:14Z</time>
      </trkpt>
      <trkpt lat="44.8122" lon="-0.45724">
        <ele>27</ele>
        <time>2015-08-05T08:53:23Z</time>
      </trkpt>
      <trkpt lat="44.81222" lon="-0.45735">
        <ele>30</ele>
        <time>2015-08-05T08:53:28Z</time>
      </trkpt>
      <trkpt lat="44.81224" lon="-0.4574">
        <ele>29</ele>
        <time>2015-08-05T08:53:31Z</time>
      </trkpt>
      <trkpt lat="44.81229" lon="-0.45748">
        <ele>28</ele>
        <time>2015-08-05T08:53:34Z</time>
      </trkpt>
      <trkpt lat="44.81236" lon="-0.45759">
        <ele>29</ele>
        <time>2015-08-05T08:53:40Z</time>
      </trkpt>
      <trkpt lat="44.8124" lon="-0.45767">
        <ele>32</ele>
        <time>2015-08-05T08:53:44Z</time>
      </trkpt>
      <trkpt lat="44.81245" lon="-0.45776">
        <ele>37</ele>
        <time>2015-08-05T08:53:50Z</time>
      </trkpt>
      <trkpt lat="44.81249" lon="-0.45783">
        <ele>36</ele>
        <time>2015-08-05T08:53:54Z</time>
      </trkpt>
      <trkpt lat="44.81255" lon="-0.45794">
        <ele>34</ele>
        <time>2015-08-05T08:53:59Z</time>
      </trkpt>
      <trkpt lat="44.81259" lon="-0.45806">
        <ele>35</ele>
        <time>2015-08-05T08:54:04Z</time>
      </trkpt>
      <trkpt lat="44.81271" lon="-0.45823">
        <ele>38</ele>
        <time>2015-08-05T08:54:12Z</time>
      </trkpt>
      <trkpt lat="44.81274" lon="-0.4583">
        <ele>37</ele>
        <time>2015-08-05T08:54:15Z</time>
      </trkpt>
      <trkpt lat="44.8128" lon="-0.45841">
        <ele>43</ele>
        <time>2015-08-05T08:54:21Z</time>
      </trkpt>
      <trkpt lat="44.81284" lon="-0.45845">
        <ele>43</ele>
        <time>2015-08-05T08:54:24Z</time>
      </trkpt>
      <trkpt lat="44.81296" lon="-0.45859">
        <ele>42</ele>
        <time>2015-08-05T08:54:32Z</time>
      </trkpt>
      <trkpt lat="44.81299" lon="-0.45866">
        <ele>42</ele>
        <time>2015-08-05T08:54:35Z</time>
      </trkpt>
      <trkpt lat="44.81303" lon="-0.45874">
        <ele>42</ele>
        <time>2015-08-05T08:54:39Z</time>
      </trkpt>
      <trkpt lat="44.81306" lon="-0.45883">
        <ele>40</ele>
        <time>2015-08-05T08:54:44Z</time>
      </trkpt>
      <trkpt lat="44.81307" lon="-0.45891">
        <ele>40</ele>
        <time>2015-08-05T08:54:49Z</time>
      </trkpt>
      <trkpt lat="44.81308" lon="-0.45903">
        <ele>46</ele>
        <time>2015-08-05T08:54:58Z</time>
      </trkpt>
      <trkpt lat="44.81308" lon="-0.45905">
        <ele>46</ele>
        <time>2015-08-05T08:54:59Z</time>
      </trkpt>
      <trkpt lat="44.81305" lon="-0.45912">
        <ele>51</ele>
        <time>2015-08-05T08:55:04Z</time>
      </trkpt>
      <trkpt lat="44.81299" lon="-0.45915">
        <ele>54</ele>
        <time>2015-08-05T08:55:11Z</time>
      </trkpt>
      <trkpt lat="44.81297" lon="-0.4592">
        <ele>57</ele>
        <time>2015-08-05T08:55:14Z</time>
      </trkpt>
      <trkpt lat="44.81299" lon="-0.45934">
        <ele>58</ele>
        <time>2015-08-05T08:55:19Z</time>
      </trkpt>
      <trkpt lat="44.81297" lon="-0.45947">
        <ele>58</ele>
        <time>2015-08-05T08:55:24Z</time>
      </trkpt>
      <trkpt lat="44.81297" lon="-0.45961">
        <ele>57</ele>
        <time>2015-08-05T08:55:29Z</time>
      </trkpt>
      <trkpt lat="44.81301" lon="-0.45987">
        <ele>57</ele>
        <time>2015-08-05T08:55:38Z</time>
      </trkpt>
      <trkpt lat="44.81302" lon="-0.4599">
        <ele>56</ele>
        <time>2015-08-05T08:55:39Z</time>
      </trkpt>
      <trkpt lat="44.81304" lon="-0.46006">
        <ele>58</ele>
        <time>2015-08-05T08:55:45Z</time>
      </trkpt>
      <trkpt lat="44.81306" lon="-0.46019">
        <ele>60</ele>
        <time>2015-08-05T08:55:50Z</time>
      </trkpt>
      <trkpt lat="44.81308" lon="-0.46029">
        <ele>62</ele>
        <time>2015-08-05T08:55:54Z</time>
      </trkpt>
      <trkpt lat="44.81311" lon="-0.46049">
        <ele>60</ele>
        <time>2015-08-05T08:56:01Z</time>
      </trkpt>
      <trkpt lat="44.81312" lon="-0.46059">
        <ele>61</ele>
        <time>2015-08-05T08:56:05Z</time>
      </trkpt>
      <trkpt lat="44.81318" lon="-0.46082">
        <ele>60</ele>
        <time>2015-08-05T08:56:13Z</time>
      </trkpt>
      <trkpt lat="44.81321" lon="-0.46089">
        <ele>61</ele>
        <time>2015-08-05T08:56:15Z</time>
      </trkpt>
      <trkpt lat="44.81331" lon="-0.46118">
        <ele>59</ele>
        <time>2015-08-05T08:56:23Z</time>
      </trkpt>
      <trkpt lat="44.81332" lon="-0.46122">
        <ele>59</ele>
        <time>2015-08-05T08:56:24Z</time>
      </trkpt>
      <trkpt lat="44.81336" lon="-0.4614">
        <ele>59</ele>
        <time>2015-08-05T08:56:30Z</time>
      </trkpt>
      <trkpt lat="44.81339" lon="-0.46153">
        <ele>60</ele>
        <time>2015-08-05T08:56:37Z</time>
      </trkpt>
      <trkpt lat="44.8134" lon="-0.46161">
        <ele>61</ele>
        <time>2015-08-05T08:56:41Z</time>
      </trkpt>
      <trkpt lat="44.81341" lon="-0.46171">
        <ele>60</ele>
        <time>2015-08-05T08:56:45Z</time>
      </trkpt>
      <trkpt lat="44.81344" lon="-0.46181">
        <ele>58</ele>
        <time>2015-08-05T08:56:49Z</time>
      </trkpt>
      <trkpt lat="44.81346" lon="-0.46194">
        <ele>58</ele>
        <time>2015-08-05T08:56:54Z</time>
      </trkpt>
      <trkpt lat="44.81347" lon="-0.46221">
        <ele>59</ele>
        <time>2015-08-05T08:57:03Z</time>
      </trkpt>
      <trkpt lat="44.81347" lon="-0.46224">
        <ele>58</ele>
        <time>2015-08-05T08:57:04Z</time>
      </trkpt>
      <trkpt lat="44.81346" lon="-0.46239">
        <ele>57</ele>
        <time>2015-08-05T08:57:09Z</time>
      </trkpt>
      <trkpt lat="44.81348" lon="-0.46253">
        <ele>58</ele>
        <time>2015-08-05T08:57:14Z</time>
      </trkpt>
      <trkpt lat="44.81347" lon="-0.46268">
        <ele>59</ele>
        <time>2015-08-05T08:57:19Z</time>
      </trkpt>
      <trkpt lat="44.81346" lon="-0.46289">
        <ele>60</ele>
        <time>2015-08-05T08:57:24Z</time>
      </trkpt>
      <trkpt lat="44.81345" lon="-0.4631">
        <ele>62</ele>
        <time>2015-08-05T08:57:29Z</time>
      </trkpt>
      <trkpt lat="44.81344" lon="-0.4633">
        <ele>62</ele>
        <time>2015-08-05T08:57:34Z</time>
      </trkpt>
      <trkpt lat="44.81343" lon="-0.46351">
        <ele>65</ele>
        <time>2015-08-05T08:57:39Z</time>
      </trkpt>
      <trkpt lat="44.81342" lon="-0.46371">
        <ele>65</ele>
        <time>2015-08-05T08:57:44Z</time>
      </trkpt>
      <trkpt lat="44.81341" lon="-0.46397">
        <ele>66</ele>
        <time>2015-08-05T08:57:50Z</time>
      </trkpt>
      <trkpt lat="44.8134" lon="-0.46415">
        <ele>66</ele>
        <time>2015-08-05T08:57:54Z</time>
      </trkpt>
      <trkpt lat="44.81341" lon="-0.46434">
        <ele>67</ele>
        <time>2015-08-05T08:57:59Z</time>
      </trkpt>
      <trkpt lat="44.81357" lon="-0.46436">
        <ele>71</ele>
        <time>2015-08-05T08:58:05Z</time>
      </trkpt>
      <trkpt lat="44.81369" lon="-0.46436">
        <ele>71</ele>
        <time>2015-08-05T08:58:09Z</time>
      </trkpt>
      <trkpt lat="44.81384" lon="-0.46439">
        <ele>71</ele>
        <time>2015-08-05T08:58:14Z</time>
      </trkpt>
      <trkpt lat="44.81402" lon="-0.46443">
        <ele>70</ele>
        <time>2015-08-05T08:58:18Z</time>
      </trkpt>
      <trkpt lat="44.81418" lon="-0.46445">
        <ele>70</ele>
        <time>2015-08-05T08:58:24Z</time>
      </trkpt>
      <trkpt lat="44.81437" lon="-0.46445">
        <ele>70</ele>
        <time>2015-08-05T08:58:29Z</time>
      </trkpt>
      <trkpt lat="44.81458" lon="-0.46444">
        <ele>71</ele>
        <time>2015-08-05T08:58:34Z</time>
      </trkpt>
      <trkpt lat="44.81477" lon="-0.46441">
        <ele>71</ele>
        <time>2015-08-05T08:58:39Z</time>
      </trkpt>
      <trkpt lat="44.81498" lon="-0.46439">
        <ele>71</ele>
        <time>2015-08-05T08:58:44Z</time>
      </trkpt>
      <trkpt lat="44.8152" lon="-0.46435">
        <ele>71</ele>
        <time>2015-08-05T08:58:49Z</time>
      </trkpt>
      <trkpt lat="44.81543" lon="-0.46432">
        <ele>71</ele>
        <time>2015-08-05T08:58:54Z</time>
      </trkpt>
      <trkpt lat="44.8157" lon="-0.46429">
        <ele>70</ele>
        <time>2015-08-05T08:58:59Z</time>
      </trkpt>
      <trkpt lat="44.81603" lon="-0.46427">
        <ele>71</ele>
        <time>2015-08-05T08:59:04Z</time>
      </trkpt>
      <trkpt lat="44.81635" lon="-0.4643">
        <ele>70</ele>
        <time>2015-08-05T08:59:09Z</time>
      </trkpt>
      <trkpt lat="44.81662" lon="-0.46439">
        <ele>70</ele>
        <time>2015-08-05T08:59:14Z</time>
      </trkpt>
      <trkpt lat="44.81685" lon="-0.46458">
        <ele>71</ele>
        <time>2015-08-05T08:59:19Z</time>
      </trkpt>
      <trkpt lat="44.81707" lon="-0.46479">
        <ele>71</ele>
        <time>2015-08-05T08:59:23Z</time>
      </trkpt>
      <trkpt lat="44.81727" lon="-0.46501">
        <ele>71</ele>
        <time>2015-08-05T08:59:29Z</time>
      </trkpt>
      <trkpt lat="44.81742" lon="-0.46523">
        <ele>72</ele>
        <time>2015-08-05T08:59:33Z</time>
      </trkpt>
      <trkpt lat="44.81757" lon="-0.46544">
        <ele>72</ele>
        <time>2015-08-05T08:59:39Z</time>
      </trkpt>
      <trkpt lat="44.81771" lon="-0.46568">
        <ele>72</ele>
        <time>2015-08-05T08:59:44Z</time>
      </trkpt>
      <trkpt lat="44.81788" lon="-0.46595">
        <ele>73</ele>
        <time>2015-08-05T08:59:49Z</time>
      </trkpt>
      <trkpt lat="44.81796" lon="-0.46609">
        <ele>72</ele>
        <time>2015-08-05T08:59:54Z</time>
      </trkpt>
      <trkpt lat="44.81795" lon="-0.46627">
        <ele>72</ele>
        <time>2015-08-05T08:59:59Z</time>
      </trkpt>
      <trkpt lat="44.81786" lon="-0.46645">
        <ele>73</ele>
        <time>2015-08-05T09:00:03Z</time>
      </trkpt>
      <trkpt lat="44.81777" lon="-0.46664">
        <ele>73</ele>
        <time>2015-08-05T09:00:09Z</time>
      </trkpt>
      <trkpt lat="44.81769" lon="-0.46685">
        <ele>74</ele>
        <time>2015-08-05T09:00:14Z</time>
      </trkpt>
      <trkpt lat="44.81759" lon="-0.46705">
        <ele>73</ele>
        <time>2015-08-05T09:00:18Z</time>
      </trkpt>
      <trkpt lat="44.81745" lon="-0.46736">
        <ele>71</ele>
        <time>2015-08-05T09:00:26Z</time>
      </trkpt>
      <trkpt lat="44.81738" lon="-0.4675">
        <ele>70</ele>
        <time>2015-08-05T09:00:29Z</time>
      </trkpt>
      <trkpt lat="44.81718" lon="-0.46788">
        <ele>67</ele>
        <time>2015-08-05T09:00:36Z</time>
      </trkpt>
      <trkpt lat="44.81701" lon="-0.46822">
        <ele>65</ele>
        <time>2015-08-05T09:00:41Z</time>
      </trkpt>
      <trkpt lat="44.81689" lon="-0.46844">
        <ele>64</ele>
        <time>2015-08-05T09:00:44Z</time>
      </trkpt>
      <trkpt lat="44.81655" lon="-0.46891">
        <ele>63</ele>
        <time>2015-08-05T09:00:50Z</time>
      </trkpt>
      <trkpt lat="44.81634" lon="-0.46915">
        <ele>61</ele>
        <time>2015-08-05T09:00:55Z</time>
      </trkpt>
      <trkpt lat="44.81611" lon="-0.46938">
        <ele>62</ele>
        <time>2015-08-05T09:00:58Z</time>
      </trkpt>
      <trkpt lat="44.81585" lon="-0.46955">
        <ele>59</ele>
        <time>2015-08-05T09:01:04Z</time>
      </trkpt>
      <trkpt lat="44.81573" lon="-0.46971">
        <ele>56</ele>
        <time>2015-08-05T09:01:09Z</time>
      </trkpt>
      <trkpt lat="44.81544" lon="-0.46983">
        <ele>53</ele>
        <time>2015-08-05T09:01:16Z</time>
      </trkpt>
      <trkpt lat="44.81526" lon="-0.4698">
        <ele>53</ele>
        <time>2015-08-05T09:01:19Z</time>
      </trkpt>
      <trkpt lat="44.81506" lon="-0.46968">
        <ele>52</ele>
        <time>2015-08-05T09:01:24Z</time>
      </trkpt>
      <trkpt lat="44.81468" lon="-0.46984">
        <ele>56</ele>
        <time>2015-08-05T09:01:31Z</time>
      </trkpt>
      <trkpt lat="44.81466" lon="-0.46995">
        <ele>59</ele>
        <time>2015-08-05T09:01:33Z</time>
      </trkpt>
      <trkpt lat="44.81464" lon="-0.47039">
        <ele>60</ele>
        <time>2015-08-05T09:01:42Z</time>
      </trkpt>
      <trkpt lat="44.81464" lon="-0.47044">
        <ele>60</ele>
        <time>2015-08-05T09:01:43Z</time>
      </trkpt>
      <trkpt lat="44.81462" lon="-0.47076">
        <ele>61</ele>
        <time>2015-08-05T09:01:53Z</time>
      </trkpt>
      <trkpt lat="44.81461" lon="-0.47082">
        <ele>60</ele>
        <time>2015-08-05T09:01:55Z</time>
      </trkpt>
      <trkpt lat="44.81459" lon="-0.47097">
        <ele>60</ele>
        <time>2015-08-05T09:02:00Z</time>
      </trkpt>
      <trkpt lat="44.81451" lon="-0.47102">
        <ele>58</ele>
        <time>2015-08-05T09:02:04Z</time>
      </trkpt>
      <trkpt lat="44.81434" lon="-0.47097">
        <ele>59</ele>
        <time>2015-08-05T09:02:10Z</time>
      </trkpt>
      <trkpt lat="44.81426" lon="-0.47095">
        <ele>60</ele>
        <time>2015-08-05T09:02:14Z</time>
      </trkpt>
      <trkpt lat="44.81416" lon="-0.47093">
        <ele>61</ele>
        <time>2015-08-05T09:02:18Z</time>
      </trkpt>
      <trkpt lat="44.81405" lon="-0.47093">
        <ele>61</ele>
        <time>2015-08-05T09:02:23Z</time>
      </trkpt>
      <trkpt lat="44.81395" lon="-0.4709">
        <ele>62</ele>
        <time>2015-08-05T09:02:28Z</time>
      </trkpt>
      <trkpt lat="44.81384" lon="-0.47088">
        <ele>63</ele>
        <time>2015-08-05T09:02:33Z</time>
      </trkpt>
      <trkpt lat="44.81373" lon="-0.47086">
        <ele>64</ele>
        <time>2015-08-05T09:02:38Z</time>
      </trkpt>
      <trkpt lat="44.81362" lon="-0.47085">
        <ele>64</ele>
        <time>2015-08-05T09:02:43Z</time>
      </trkpt>
      <trkpt lat="44.8135" lon="-0.47085">
        <ele>65</ele>
        <time>2015-08-05T09:02:49Z</time>
      </trkpt>
      <trkpt lat="44.81337" lon="-0.47086">
        <ele>65</ele>
        <time>2015-08-05T09:02:54Z</time>
      </trkpt>
      <trkpt lat="44.81322" lon="-0.47088">
        <ele>65</ele>
        <time>2015-08-05T09:02:59Z</time>
      </trkpt>
      <trkpt lat="44.81309" lon="-0.47091">
        <ele>66</ele>
        <time>2015-08-05T09:03:03Z</time>
      </trkpt>
      <trkpt lat="44.81295" lon="-0.47093">
        <ele>66</ele>
        <time>2015-08-05T09:03:08Z</time>
      </trkpt>
      <trkpt lat="44.81281" lon="-0.47098">
        <ele>66</ele>
        <time>2015-08-05T09:03:13Z</time>
      </trkpt>
      <trkpt lat="44.8126" lon="-0.47101">
        <ele>68</ele>
        <time>2015-08-05T09:03:21Z</time>
      </trkpt>
      <trkpt lat="44.81247" lon="-0.47103">
        <ele>68</ele>
        <time>2015-08-05T09:03:27Z</time>
      </trkpt>
      <trkpt lat="44.81243" lon="-0.471">
        <ele>68</ele>
        <time>2015-08-05T09:03:29Z</time>
      </trkpt>
      <trkpt lat="44.81235" lon="-0.4708">
        <ele>69</ele>
        <time>2015-08-05T09:03:33Z</time>
      </trkpt>
      <trkpt lat="44.81225" lon="-0.47022">
        <ele>67</ele>
        <time>2015-08-05T09:03:43Z</time>
      </trkpt>
      <trkpt lat="44.81219" lon="-0.47002">
        <ele>65</ele>
        <time>2015-08-05T09:03:46Z</time>
      </trkpt>
      <trkpt lat="44.81217" lon="-0.46996">
        <ele>65</ele>
        <time>2015-08-05T09:03:48Z</time>
      </trkpt>
      <trkpt lat="44.81205" lon="-0.4699">
        <ele>64</ele>
        <time>2015-08-05T09:03:53Z</time>
      </trkpt>
      <trkpt lat="44.81171" lon="-0.46976">
        <ele>68</ele>
        <time>2015-08-05T09:04:02Z</time>
      </trkpt>
      <trkpt lat="44.81168" lon="-0.46975">
        <ele>69</ele>
        <time>2015-08-05T09:04:03Z</time>
      </trkpt>
      <trkpt lat="44.81153" lon="-0.46972">
        <ele>68</ele>
        <time>2015-08-05T09:04:09Z</time>
      </trkpt>
      <trkpt lat="44.81133" lon="-0.46978">
        <ele>66</ele>
        <time>2015-08-05T09:04:16Z</time>
      </trkpt>
      <trkpt lat="44.81124" lon="-0.46985">
        <ele>67</ele>
        <time>2015-08-05T09:04:19Z</time>
      </trkpt>
      <trkpt lat="44.81081" lon="-0.46999">
        <ele>59</ele>
        <time>2015-08-05T09:04:27Z</time>
      </trkpt>
      <trkpt lat="44.81065" lon="-0.47">
        <ele>60</ele>
        <time>2015-08-05T09:04:30Z</time>
      </trkpt>
      <trkpt lat="44.81048" lon="-0.47004">
        <ele>60</ele>
        <time>2015-08-05T09:04:33Z</time>
      </trkpt>
      <trkpt lat="44.81018" lon="-0.47006">
        <ele>59</ele>
        <time>2015-08-05T09:04:38Z</time>
      </trkpt>
      <trkpt lat="44.80972" lon="-0.47009">
        <ele>59</ele>
        <time>2015-08-05T09:04:47Z</time>
      </trkpt>
      <trkpt lat="44.80963" lon="-0.47013">
        <ele>60</ele>
        <time>2015-08-05T09:04:49Z</time>
      </trkpt>
      <trkpt lat="44.80913" lon="-0.47025">
        <ele>55</ele>
        <time>2015-08-05T09:04:58Z</time>
      </trkpt>
      <trkpt lat="44.80903" lon="-0.47027">
        <ele>56</ele>
        <time>2015-08-05T09:05:00Z</time>
      </trkpt>
      <trkpt lat="44.80894" lon="-0.47033">
        <ele>59</ele>
        <time>2015-08-05T09:05:05Z</time>
      </trkpt>
      <trkpt lat="44.80884" lon="-0.47038">
        <ele>61</ele>
        <time>2015-08-05T09:05:09Z</time>
      </trkpt>
      <trkpt lat="44.80853" lon="-0.47052">
        <ele>58</ele>
        <time>2015-08-05T09:05:15Z</time>
      </trkpt>
      <trkpt lat="44.80842" lon="-0.47052">
        <ele>54</ele>
        <time>2015-08-05T09:05:19Z</time>
      </trkpt>
      <trkpt lat="44.80834" lon="-0.47048">
        <ele>50</ele>
        <time>2015-08-05T09:05:24Z</time>
      </trkpt>
      <trkpt lat="44.80815" lon="-0.47047">
        <ele>46</ele>
        <time>2015-08-05T09:05:32Z</time>
      </trkpt>
      <trkpt lat="44.80812" lon="-0.47047">
        <ele>47</ele>
        <time>2015-08-05T09:05:35Z</time>
      </trkpt>
      <trkpt lat="44.80809" lon="-0.47046">
        <ele>46</ele>
        <time>2015-08-05T09:05:39Z</time>
      </trkpt>
      <trkpt lat="44.80808" lon="-0.47051">
        <ele>47</ele>
        <time>2015-08-05T09:05:43Z</time>
      </trkpt>
      <trkpt lat="44.80807" lon="-0.47051">
        <ele>47</ele>
        <time>2015-08-05T09:05:48Z</time>
      </trkpt>
      <trkpt lat="44.80806" lon="-0.4705">
        <ele>46</ele>
        <time>2015-08-05T09:05:54Z</time>
      </trkpt>
      <trkpt lat="44.80795" lon="-0.47041">
        <ele>43</ele>
        <time>2015-08-05T09:06:00Z</time>
      </trkpt>
      <trkpt lat="44.80789" lon="-0.47038">
        <ele>41</ele>
        <time>2015-08-05T09:06:03Z</time>
      </trkpt>
      <trkpt lat="44.80778" lon="-0.47016">
        <ele>44</ele>
        <time>2015-08-05T09:06:10Z</time>
      </trkpt>
      <trkpt lat="44.80761" lon="-0.46958">
        <ele>39</ele>
        <time>2015-08-05T09:06:18Z</time>
      </trkpt>
      <trkpt lat="44.8076" lon="-0.4695">
        <ele>39</ele>
        <time>2015-08-05T09:06:19Z</time>
      </trkpt>
      <trkpt lat="44.80752" lon="-0.46904">
        <ele>38</ele>
        <time>2015-08-05T09:06:24Z</time>
      </trkpt>
      <trkpt lat="44.80738" lon="-0.46857">
        <ele>36</ele>
        <time>2015-08-05T09:06:29Z</time>
      </trkpt>
      <trkpt lat="44.80711" lon="-0.46813">
        <ele>35</ele>
        <time>2015-08-05T09:06:35Z</time>
      </trkpt>
      <trkpt lat="44.80685" lon="-0.46775">
        <ele>32</ele>
        <time>2015-08-05T09:06:40Z</time>
      </trkpt>
      <trkpt lat="44.80672" lon="-0.46756">
        <ele>30</ele>
        <time>2015-08-05T09:06:43Z</time>
      </trkpt>
      <trkpt lat="44.80649" lon="-0.4672">
        <ele>29</ele>
        <time>2015-08-05T09:06:49Z</time>
      </trkpt>
      <trkpt lat="44.80633" lon="-0.46696">
        <ele>28</ele>
        <time>2015-08-05T09:06:53Z</time>
      </trkpt>
      <trkpt lat="44.80612" lon="-0.46668">
        <ele>26</ele>
        <time>2015-08-05T09:06:59Z</time>
      </trkpt>
      <trkpt lat="44.80581" lon="-0.46628">
        <ele>25</ele>
        <time>2015-08-05T09:07:06Z</time>
      </trkpt>
      <trkpt lat="44.80566" lon="-0.46609">
        <ele>23</ele>
        <time>2015-08-05T09:07:08Z</time>
      </trkpt>
      <trkpt lat="44.80541" lon="-0.46581">
        <ele>23</ele>
        <time>2015-08-05T09:07:14Z</time>
      </trkpt>
      <trkpt lat="44.80518" lon="-0.46559">
        <ele>22</ele>
        <time>2015-08-05T09:07:19Z</time>
      </trkpt>
      <trkpt lat="44.80476" lon="-0.4652">
        <ele>20</ele>
        <time>2015-08-05T09:07:26Z</time>
      </trkpt>
      <trkpt lat="44.80466" lon="-0.46509">
        <ele>20</ele>
        <time>2015-08-05T09:07:28Z</time>
      </trkpt>
      <trkpt lat="44.80439" lon="-0.46483">
        <ele>19</ele>
        <time>2015-08-05T09:07:33Z</time>
      </trkpt>
      <trkpt lat="44.80415" lon="-0.46454">
        <ele>18</ele>
        <time>2015-08-05T09:07:38Z</time>
      </trkpt>
      <trkpt lat="44.80388" lon="-0.46426">
        <ele>17</ele>
        <time>2015-08-05T09:07:44Z</time>
      </trkpt>
      <trkpt lat="44.80351" lon="-0.46394">
        <ele>20</ele>
        <time>2015-08-05T09:07:49Z</time>
      </trkpt>
      <trkpt lat="44.8033" lon="-0.4637">
        <ele>19</ele>
        <time>2015-08-05T09:07:53Z</time>
      </trkpt>
      <trkpt lat="44.80302" lon="-0.46339">
        <ele>17</ele>
        <time>2015-08-05T09:07:59Z</time>
      </trkpt>
      <trkpt lat="44.80261" lon="-0.46295">
        <ele>18</ele>
        <time>2015-08-05T09:08:06Z</time>
      </trkpt>
      <trkpt lat="44.80249" lon="-0.46282">
        <ele>18</ele>
        <time>2015-08-05T09:08:08Z</time>
      </trkpt>
      <trkpt lat="44.80207" lon="-0.46232">
        <ele>20</ele>
        <time>2015-08-05T09:08:16Z</time>
      </trkpt>
      <trkpt lat="44.80178" lon="-0.46188">
        <ele>23</ele>
        <time>2015-08-05T09:08:22Z</time>
      </trkpt>
      <trkpt lat="44.80168" lon="-0.46136">
        <ele>20</ele>
        <time>2015-08-05T09:08:27Z</time>
      </trkpt>
      <trkpt lat="44.80167" lon="-0.46126">
        <ele>19</ele>
        <time>2015-08-05T09:08:28Z</time>
      </trkpt>
      <trkpt lat="44.80165" lon="-0.4607">
        <ele>18</ele>
        <time>2015-08-05T09:08:33Z</time>
      </trkpt>
      <trkpt lat="44.80147" lon="-0.45984">
        <ele>19</ele>
        <time>2015-08-05T09:08:42Z</time>
      </trkpt>
      <trkpt lat="44.80133" lon="-0.45942">
        <ele>16</ele>
        <time>2015-08-05T09:08:47Z</time>
      </trkpt>
      <trkpt lat="44.80128" lon="-0.45926">
        <ele>16</ele>
        <time>2015-08-05T09:08:49Z</time>
      </trkpt>
      <trkpt lat="44.80115" lon="-0.45898">
        <ele>17</ele>
        <time>2015-08-05T09:08:53Z</time>
      </trkpt>
      <trkpt lat="44.80097" lon="-0.45864">
        <ele>16</ele>
        <time>2015-08-05T09:08:58Z</time>
      </trkpt>
      <trkpt lat="44.8008" lon="-0.45829">
        <ele>16</ele>
        <time>2015-08-05T09:09:03Z</time>
      </trkpt>
      <trkpt lat="44.80062" lon="-0.45788">
        <ele>17</ele>
        <time>2015-08-05T09:09:09Z</time>
      </trkpt>
      <trkpt lat="44.80054" lon="-0.4576">
        <ele>17</ele>
        <time>2015-08-05T09:09:14Z</time>
      </trkpt>
      <trkpt lat="44.80054" lon="-0.45722">
        <ele>17</ele>
        <time>2015-08-05T09:09:18Z</time>
      </trkpt>
      <trkpt lat="44.80061" lon="-0.45686">
        <ele>16</ele>
        <time>2015-08-05T09:09:23Z</time>
      </trkpt>
      <trkpt lat="44.80072" lon="-0.45653">
        <ele>17</ele>
        <time>2015-08-05T09:09:29Z</time>
      </trkpt>
      <trkpt lat="44.80084" lon="-0.4563">
        <ele>16</ele>
        <time>2015-08-05T09:09:34Z</time>
      </trkpt>
      <trkpt lat="44.80093" lon="-0.45597">
        <ele>19</ele>
        <time>2015-08-05T09:09:38Z</time>
      </trkpt>
      <trkpt lat="44.80097" lon="-0.45573">
        <ele>18</ele>
        <time>2015-08-05T09:09:43Z</time>
      </trkpt>
      <trkpt lat="44.80079" lon="-0.45559">
        <ele>14</ele>
        <time>2015-08-05T09:09:48Z</time>
      </trkpt>
      <trkpt lat="44.80062" lon="-0.45549">
        <ele>18</ele>
        <time>2015-08-05T09:09:56Z</time>
      </trkpt>
      <trkpt lat="44.80057" lon="-0.45547">
        <ele>20</ele>
        <time>2015-08-05T09:09:59Z</time>
      </trkpt>
      <trkpt lat="44.80045" lon="-0.45544">
        <ele>17</ele>
        <time>2015-08-05T09:10:04Z</time>
      </trkpt>
      <trkpt lat="44.8002" lon="-0.45531">
        <ele>14</ele>
        <time>2015-08-05T09:10:11Z</time>
      </trkpt>
      <trkpt lat="44.79992" lon="-0.45532">
        <ele>14</ele>
        <time>2015-08-05T09:10:17Z</time>
      </trkpt>
      <trkpt lat="44.79985" lon="-0.45532">
        <ele>13</ele>
        <time>2015-08-05T09:10:18Z</time>
      </trkpt>
      <trkpt lat="44.79964" lon="-0.45535">
        <ele>11</ele>
        <time>2015-08-05T09:10:23Z</time>
      </trkpt>
      <trkpt lat="44.7994" lon="-0.45539">
        <ele>14</ele>
        <time>2015-08-05T09:10:29Z</time>
      </trkpt>
      <trkpt lat="44.79928" lon="-0.45542">
        <ele>17</ele>
        <time>2015-08-05T09:10:34Z</time>
      </trkpt>
      <trkpt lat="44.79913" lon="-0.45546">
        <ele>14</ele>
        <time>2015-08-05T09:10:38Z</time>
      </trkpt>
      <trkpt lat="44.79899" lon="-0.45547">
        <ele>19</ele>
        <time>2015-08-05T09:10:43Z</time>
      </trkpt>
      <trkpt lat="44.79882" lon="-0.45554">
        <ele>19</ele>
        <time>2015-08-05T09:10:50Z</time>
      </trkpt>
      <trkpt lat="44.79868" lon="-0.45563">
        <ele>18</ele>
        <time>2015-08-05T09:10:54Z</time>
      </trkpt>
      <trkpt lat="44.7986" lon="-0.4557">
        <ele>19</ele>
        <time>2015-08-05T09:10:59Z</time>
      </trkpt>
      <trkpt lat="44.7984" lon="-0.45599">
        <ele>22</ele>
        <time>2015-08-05T09:11:06Z</time>
      </trkpt>
      <trkpt lat="44.79835" lon="-0.45619">
        <ele>23</ele>
        <time>2015-08-05T09:11:09Z</time>
      </trkpt>
      <trkpt lat="44.79816" lon="-0.45683">
        <ele>19</ele>
        <time>2015-08-05T09:11:14Z</time>
      </trkpt>
      <trkpt lat="44.79818" lon="-0.45705">
        <ele>20</ele>
        <time>2015-08-05T09:11:18Z</time>
      </trkpt>
      <trkpt lat="44.79829" lon="-0.45758">
        <ele>24</ele>
        <time>2015-08-05T09:11:26Z</time>
      </trkpt>
      <trkpt lat="44.79835" lon="-0.45789">
        <ele>23</ele>
        <time>2015-08-05T09:11:29Z</time>
      </trkpt>
      <trkpt lat="44.7984" lon="-0.45824">
        <ele>23</ele>
        <time>2015-08-05T09:11:35Z</time>
      </trkpt>
      <trkpt lat="44.79838" lon="-0.45849">
        <ele>23</ele>
        <time>2015-08-05T09:11:40Z</time>
      </trkpt>
      <trkpt lat="44.79839" lon="-0.45869">
        <ele>25</ele>
        <time>2015-08-05T09:11:44Z</time>
      </trkpt>
      <trkpt lat="44.79842" lon="-0.45893">
        <ele>15</ele>
        <time>2015-08-05T09:11:48Z</time>
      </trkpt>
      <trkpt lat="44.79845" lon="-0.45922">
        <ele>11</ele>
        <time>2015-08-05T09:11:54Z</time>
      </trkpt>
      <trkpt lat="44.79852" lon="-0.45942">
        <ele>14</ele>
        <time>2015-08-05T09:11:59Z</time>
      </trkpt>
      <trkpt lat="44.79858" lon="-0.45958">
        <ele>18</ele>
        <time>2015-08-05T09:12:03Z</time>
      </trkpt>
      <trkpt lat="44.79868" lon="-0.45997">
        <ele>24</ele>
        <time>2015-08-05T09:12:10Z</time>
      </trkpt>
      <trkpt lat="44.79867" lon="-0.46051">
        <ele>14</ele>
        <time>2015-08-05T09:12:17Z</time>
      </trkpt>
      <trkpt lat="44.79867" lon="-0.46059">
        <ele>13</ele>
        <time>2015-08-05T09:12:19Z</time>
      </trkpt>
      <trkpt lat="44.7986" lon="-0.46084">
        <ele>5</ele>
        <time>2015-08-05T09:12:24Z</time>
      </trkpt>
      <trkpt lat="44.79854" lon="-0.46105">
        <ele>6</ele>
        <time>2015-08-05T09:12:28Z</time>
      </trkpt>
      <trkpt lat="44.79833" lon="-0.46152">
        <ele>6</ele>
        <time>2015-08-05T09:12:34Z</time>
      </trkpt>
      <trkpt lat="44.79823" lon="-0.4618">
        <ele>7</ele>
        <time>2015-08-05T09:12:38Z</time>
      </trkpt>
      <trkpt lat="44.79814" lon="-0.46214">
        <ele>14</ele>
        <time>2015-08-05T09:12:43Z</time>
      </trkpt>
      <trkpt lat="44.79801" lon="-0.46257">
        <ele>13</ele>
        <time>2015-08-05T09:12:49Z</time>
      </trkpt>
      <trkpt lat="44.7979" lon="-0.46293">
        <ele>12</ele>
        <time>2015-08-05T09:12:53Z</time>
      </trkpt>
      <trkpt lat="44.79778" lon="-0.46312">
        <ele>10</ele>
        <time>2015-08-05T09:12:58Z</time>
      </trkpt>
      <trkpt lat="44.79745" lon="-0.46369">
        <ele>4</ele>
        <time>2015-08-05T09:13:07Z</time>
      </trkpt>
      <trkpt lat="44.79741" lon="-0.46385">
        <ele>5</ele>
        <time>2015-08-05T09:13:09Z</time>
      </trkpt>
      <trkpt lat="44.7971" lon="-0.46413">
        <ele>3</ele>
        <time>2015-08-05T09:13:14Z</time>
      </trkpt>
      <trkpt lat="44.79688" lon="-0.4642">
        <ele>4</ele>
        <time>2015-08-05T09:13:20Z</time>
      </trkpt>
      <trkpt lat="44.79669" lon="-0.46427">
        <ele>2</ele>
        <time>2015-08-05T09:13:24Z</time>
      </trkpt>
      <trkpt lat="44.79628" lon="-0.46452">
        <ele>-1</ele>
        <time>2015-08-05T09:13:30Z</time>
      </trkpt>
      <trkpt lat="44.79604" lon="-0.4646">
        <ele>-1</ele>
        <time>2015-08-05T09:13:34Z</time>
      </trkpt>
      <trkpt lat="44.79581" lon="-0.46485">
        <ele>5</ele>
        <time>2015-08-05T09:13:41Z</time>
      </trkpt>
      <trkpt lat="44.79562" lon="-0.46544">
        <ele>11</ele>
        <time>2015-08-05T09:13:46Z</time>
      </trkpt>
      <trkpt lat="44.79557" lon="-0.46562">
        <ele>11</ele>
        <time>2015-08-05T09:13:48Z</time>
      </trkpt>
      <trkpt lat="44.79541" lon="-0.46598">
        <ele>14</ele>
        <time>2015-08-05T09:13:56Z</time>
      </trkpt>
      <trkpt lat="44.79536" lon="-0.46604">
        <ele>13</ele>
        <time>2015-08-05T09:13:58Z</time>
      </trkpt>
      <trkpt lat="44.79517" lon="-0.46635">
        <ele>13</ele>
        <time>2015-08-05T09:14:03Z</time>
      </trkpt>
      <trkpt lat="44.79485" lon="-0.46696">
        <ele>8</ele>
        <time>2015-08-05T09:14:12Z</time>
      </trkpt>
      <trkpt lat="44.79471" lon="-0.46706">
        <ele>4</ele>
        <time>2015-08-05T09:14:15Z</time>
      </trkpt>
      <trkpt lat="44.79451" lon="-0.46731">
        <ele>6</ele>
        <time>2015-08-05T09:14:22Z</time>
      </trkpt>
      <trkpt lat="44.79459" lon="-0.46743">
        <ele>7</ele>
        <time>2015-08-05T09:14:27Z</time>
      </trkpt>
      <trkpt lat="44.79468" lon="-0.46738">
        <ele>6</ele>
        <time>2015-08-05T09:14:28Z</time>
      </trkpt>
      <trkpt lat="44.79499" lon="-0.46724">
        <ele>5</ele>
        <time>2015-08-05T09:14:35Z</time>
      </trkpt>
      <trkpt lat="44.79512" lon="-0.46717">
        <ele>5</ele>
        <time>2015-08-05T09:14:39Z</time>
      </trkpt>
      <trkpt lat="44.79544" lon="-0.46702">
        <ele>5</ele>
        <time>2015-08-05T09:14:46Z</time>
      </trkpt>
      <trkpt lat="44.7958" lon="-0.46677">
        <ele>5</ele>
        <time>2015-08-05T09:14:52Z</time>
      </trkpt>
      <trkpt lat="44.79602" lon="-0.4666">
        <ele>6</ele>
        <time>2015-08-05T09:14:57Z</time>
      </trkpt>
      <trkpt lat="44.79606" lon="-0.46658">
        <ele>6</ele>
        <time>2015-08-05T09:14:58Z</time>
      </trkpt>
      <trkpt lat="44.79637" lon="-0.46629">
        <ele>6</ele>
        <time>2015-08-05T09:15:05Z</time>
      </trkpt>
      <trkpt lat="44.79655" lon="-0.46621">
        <ele>6</ele>
        <time>2015-08-05T09:15:09Z</time>
      </trkpt>
      <trkpt lat="44.79672" lon="-0.46623">
        <ele>10</ele>
        <time>2015-08-05T09:15:13Z</time>
      </trkpt>
      <trkpt lat="44.79683" lon="-0.46626">
        <ele>4</ele>
        <time>2015-08-05T09:15:18Z</time>
      </trkpt>
      <trkpt lat="44.79709" lon="-0.46619">
        <ele>8</ele>
        <time>2015-08-05T09:15:23Z</time>
      </trkpt>
      <trkpt lat="44.79737" lon="-0.46614">
        <ele>10</ele>
        <time>2015-08-05T09:15:30Z</time>
      </trkpt>
      <trkpt lat="44.7975" lon="-0.46621">
        <ele>8</ele>
        <time>2015-08-05T09:15:33Z</time>
      </trkpt>
      <trkpt lat="44.79744" lon="-0.46637">
        <ele>12</ele>
        <time>2015-08-05T09:15:38Z</time>
      </trkpt>
      <trkpt lat="44.79742" lon="-0.46655">
        <ele>13</ele>
        <time>2015-08-05T09:15:43Z</time>
      </trkpt>
      <trkpt lat="44.7975" lon="-0.46664">
        <ele>15</ele>
        <time>2015-08-05T09:15:48Z</time>
      </trkpt>
      <trkpt lat="44.79758" lon="-0.46674">
        <ele>16</ele>
        <time>2015-08-05T09:15:54Z</time>
      </trkpt>
      <trkpt lat="44.79766" lon="-0.46685">
        <ele>18</ele>
        <time>2015-08-05T09:15:59Z</time>
      </trkpt>
      <trkpt lat="44.79774" lon="-0.46695">
        <ele>19</ele>
        <time>2015-08-05T09:16:03Z</time>
      </trkpt>
      <trkpt lat="44.79783" lon="-0.46711">
        <ele>21</ele>
        <time>2015-08-05T09:16:10Z</time>
      </trkpt>
      <trkpt lat="44.79787" lon="-0.46718">
        <ele>21</ele>
        <time>2015-08-05T09:16:13Z</time>
      </trkpt>
      <trkpt lat="44.79796" lon="-0.46727">
        <ele>21</ele>
        <time>2015-08-05T09:16:18Z</time>
      </trkpt>
      <trkpt lat="44.79804" lon="-0.46737">
        <ele>24</ele>
        <time>2015-08-05T09:16:23Z</time>
      </trkpt>
      <trkpt lat="44.79812" lon="-0.46748">
        <ele>27</ele>
        <time>2015-08-05T09:16:28Z</time>
      </trkpt>
      <trkpt lat="44.7982" lon="-0.46759">
        <ele>26</ele>
        <time>2015-08-05T09:16:33Z</time>
      </trkpt>
      <trkpt lat="44.79829" lon="-0.46774">
        <ele>31</ele>
        <time>2015-08-05T09:16:39Z</time>
      </trkpt>
      <trkpt lat="44.79836" lon="-0.46792">
        <ele>31</ele>
        <time>2015-08-05T09:16:45Z</time>
      </trkpt>
      <trkpt lat="44.7984" lon="-0.46808">
        <ele>32</ele>
        <time>2015-08-05T09:16:50Z</time>
      </trkpt>
      <trkpt lat="44.79842" lon="-0.46818">
        <ele>32</ele>
        <time>2015-08-05T09:16:54Z</time>
      </trkpt>
      <trkpt lat="44.79844" lon="-0.46834">
        <ele>32</ele>
        <time>2015-08-05T09:16:58Z</time>
      </trkpt>
      <trkpt lat="44.79849" lon="-0.4685">
        <ele>34</ele>
        <time>2015-08-05T09:17:03Z</time>
      </trkpt>
      <trkpt lat="44.79853" lon="-0.46866">
        <ele>34</ele>
        <time>2015-08-05T09:17:08Z</time>
      </trkpt>
      <trkpt lat="44.79854" lon="-0.46884">
        <ele>33</ele>
        <time>2015-08-05T09:17:13Z</time>
      </trkpt>
      <trkpt lat="44.79858" lon="-0.469">
        <ele>35</ele>
        <time>2015-08-05T09:17:18Z</time>
      </trkpt>
      <trkpt lat="44.79862" lon="-0.46916">
        <ele>35</ele>
        <time>2015-08-05T09:17:23Z</time>
      </trkpt>
      <trkpt lat="44.79868" lon="-0.46933">
        <ele>37</ele>
        <time>2015-08-05T09:17:28Z</time>
      </trkpt>
      <trkpt lat="44.79875" lon="-0.46957">
        <ele>38</ele>
        <time>2015-08-05T09:17:36Z</time>
      </trkpt>
      <trkpt lat="44.79878" lon="-0.46965">
        <ele>38</ele>
        <time>2015-08-05T09:17:39Z</time>
      </trkpt>
      <trkpt lat="44.79883" lon="-0.46975">
        <ele>39</ele>
        <time>2015-08-05T09:17:43Z</time>
      </trkpt>
      <trkpt lat="44.7989" lon="-0.4699">
        <ele>41</ele>
        <time>2015-08-05T09:17:48Z</time>
      </trkpt>
      <trkpt lat="44.79896" lon="-0.47003">
        <ele>43</ele>
        <time>2015-08-05T09:17:53Z</time>
      </trkpt>
      <trkpt lat="44.79902" lon="-0.47018">
        <ele>44</ele>
        <time>2015-08-05T09:17:58Z</time>
      </trkpt>
      <trkpt lat="44.79907" lon="-0.47032">
        <ele>50</ele>
        <time>2015-08-05T09:18:03Z</time>
      </trkpt>
      <trkpt lat="44.79912" lon="-0.4705">
        <ele>48</ele>
        <time>2015-08-05T09:18:09Z</time>
      </trkpt>
      <trkpt lat="44.79915" lon="-0.47063">
        <ele>45</ele>
        <time>2015-08-05T09:18:13Z</time>
      </trkpt>
      <trkpt lat="44.79918" lon="-0.4708">
        <ele>46</ele>
        <time>2015-08-05T09:18:18Z</time>
      </trkpt>
      <trkpt lat="44.79924" lon="-0.47102">
        <ele>45</ele>
        <time>2015-08-05T09:18:24Z</time>
      </trkpt>
      <trkpt lat="44.79927" lon="-0.47117">
        <ele>47</ele>
        <time>2015-08-05T09:18:28Z</time>
      </trkpt>
      <trkpt lat="44.79933" lon="-0.47149">
        <ele>45</ele>
        <time>2015-08-05T09:18:36Z</time>
      </trkpt>
      <trkpt lat="44.79935" lon="-0.47163">
        <ele>46</ele>
        <time>2015-08-05T09:18:39Z</time>
      </trkpt>
      <trkpt lat="44.7994" lon="-0.47191">
        <ele>45</ele>
        <time>2015-08-05T09:18:45Z</time>
      </trkpt>
      <trkpt lat="44.79943" lon="-0.47205">
        <ele>46</ele>
        <time>2015-08-05T09:18:48Z</time>
      </trkpt>
      <trkpt lat="44.79948" lon="-0.47228">
        <ele>46</ele>
        <time>2015-08-05T09:18:54Z</time>
      </trkpt>
      <trkpt lat="44.79964" lon="-0.47263">
        <ele>43</ele>
        <time>2015-08-05T09:19:03Z</time>
      </trkpt>
      <trkpt lat="44.79966" lon="-0.47267">
        <ele>44</ele>
        <time>2015-08-05T09:19:03Z</time>
      </trkpt>
      <trkpt lat="44.79974" lon="-0.4728">
        <ele>42</ele>
        <time>2015-08-05T09:19:08Z</time>
      </trkpt>
      <trkpt lat="44.79991" lon="-0.47299">
        <ele>42</ele>
        <time>2015-08-05T09:19:16Z</time>
      </trkpt>
      <trkpt lat="44.79991" lon="-0.47306">
        <ele>42</ele>
        <time>2015-08-05T09:19:18Z</time>
      </trkpt>
      <trkpt lat="44.7999" lon="-0.47325">
        <ele>44</ele>
        <time>2015-08-05T09:19:23Z</time>
      </trkpt>
      <trkpt lat="44.79999" lon="-0.47339">
        <ele>47</ele>
        <time>2015-08-05T09:19:28Z</time>
      </trkpt>
      <trkpt lat="44.80011" lon="-0.47344">
        <ele>48</ele>
        <time>2015-08-05T09:19:33Z</time>
      </trkpt>
      <trkpt lat="44.80026" lon="-0.47354">
        <ele>51</ele>
        <time>2015-08-05T09:19:38Z</time>
      </trkpt>
      <trkpt lat="44.80043" lon="-0.47393">
        <ele>54</ele>
        <time>2015-08-05T09:19:47Z</time>
      </trkpt>
      <trkpt lat="44.80044" lon="-0.47395">
        <ele>54</ele>
        <time>2015-08-05T09:19:49Z</time>
      </trkpt>
      <trkpt lat="44.80047" lon="-0.4741">
        <ele>55</ele>
        <time>2015-08-05T09:19:54Z</time>
      </trkpt>
      <trkpt lat="44.80051" lon="-0.47423">
        <ele>56</ele>
        <time>2015-08-05T09:19:58Z</time>
      </trkpt>
      <trkpt lat="44.80058" lon="-0.47435">
        <ele>59</ele>
        <time>2015-08-05T09:20:03Z</time>
      </trkpt>
      <trkpt lat="44.80075" lon="-0.47448">
        <ele>57</ele>
        <time>2015-08-05T09:20:11Z</time>
      </trkpt>
      <trkpt lat="44.80081" lon="-0.47449">
        <ele>55</ele>
        <time>2015-08-05T09:20:13Z</time>
      </trkpt>
      <trkpt lat="44.80093" lon="-0.47455">
        <ele>55</ele>
        <time>2015-08-05T09:20:19Z</time>
      </trkpt>
      <trkpt lat="44.80108" lon="-0.47455">
        <ele>58</ele>
        <time>2015-08-05T09:20:24Z</time>
      </trkpt>
      <trkpt lat="44.80126" lon="-0.47453">
        <ele>61</ele>
        <time>2015-08-05T09:20:30Z</time>
      </trkpt>
      <trkpt lat="44.80142" lon="-0.47455">
        <ele>62</ele>
        <time>2015-08-05T09:20:35Z</time>
      </trkpt>
      <trkpt lat="44.8015" lon="-0.47455">
        <ele>62</ele>
        <time>2015-08-05T09:20:39Z</time>
      </trkpt>
      <trkpt lat="44.80162" lon="-0.47457">
        <ele>60</ele>
        <time>2015-08-05T09:20:44Z</time>
      </trkpt>
      <trkpt lat="44.80172" lon="-0.47457">
        <ele>59</ele>
        <time>2015-08-05T09:20:50Z</time>
      </trkpt>
      <trkpt lat="44.80178" lon="-0.47456">
        <ele>59</ele>
        <time>2015-08-05T09:20:53Z</time>
      </trkpt>
      <trkpt lat="44.80191" lon="-0.4746">
        <ele>60</ele>
        <time>2015-08-05T09:20:59Z</time>
      </trkpt>
      <trkpt lat="44.80199" lon="-0.47479">
        <ele>59</ele>
        <time>2015-08-05T09:21:08Z</time>
      </trkpt>
      <trkpt lat="44.802" lon="-0.47482">
        <ele>60</ele>
        <time>2015-08-05T09:21:10Z</time>
      </trkpt>
      <trkpt lat="44.80203" lon="-0.47492">
        <ele>61</ele>
        <time>2015-08-05T09:21:15Z</time>
      </trkpt>
      <trkpt lat="44.80206" lon="-0.47506">
        <ele>63</ele>
        <time>2015-08-05T09:21:20Z</time>
      </trkpt>
      <trkpt lat="44.80208" lon="-0.47514">
        <ele>63</ele>
        <time>2015-08-05T09:21:23Z</time>
      </trkpt>
      <trkpt lat="44.80211" lon="-0.47533">
        <ele>65</ele>
        <time>2015-08-05T09:21:31Z</time>
      </trkpt>
      <trkpt lat="44.80211" lon="-0.47544">
        <ele>64</ele>
        <time>2015-08-05T09:21:36Z</time>
      </trkpt>
      <trkpt lat="44.8021" lon="-0.47552">
        <ele>64</ele>
        <time>2015-08-05T09:21:40Z</time>
      </trkpt>
      <trkpt lat="44.80212" lon="-0.47563">
        <ele>66</ele>
        <time>2015-08-05T09:21:46Z</time>
      </trkpt>
      <trkpt lat="44.80213" lon="-0.47572">
        <ele>67</ele>
        <time>2015-08-05T09:21:48Z</time>
      </trkpt>
      <trkpt lat="44.80214" lon="-0.47597">
        <ele>68</ele>
        <time>2015-08-05T09:21:55Z</time>
      </trkpt>
      <trkpt lat="44.80215" lon="-0.47608">
        <ele>67</ele>
        <time>2015-08-05T09:21:59Z</time>
      </trkpt>
      <trkpt lat="44.80215" lon="-0.4763">
        <ele>66</ele>
        <time>2015-08-05T09:22:04Z</time>
      </trkpt>
      <trkpt lat="44.80217" lon="-0.47654">
        <ele>67</ele>
        <time>2015-08-05T09:22:08Z</time>
      </trkpt>
      <trkpt lat="44.80219" lon="-0.47679">
        <ele>67</ele>
        <time>2015-08-05T09:22:13Z</time>
      </trkpt>
      <trkpt lat="44.80225" lon="-0.47705">
        <ele>65</ele>
        <time>2015-08-05T09:22:18Z</time>
      </trkpt>
      <trkpt lat="44.80231" lon="-0.47732">
        <ele>65</ele>
        <time>2015-08-05T09:22:23Z</time>
      </trkpt>
      <trkpt lat="44.80241" lon="-0.47764">
        <ele>66</ele>
        <time>2015-08-05T09:22:29Z</time>
      </trkpt>
      <trkpt lat="44.80242" lon="-0.47795">
        <ele>67</ele>
        <time>2015-08-05T09:22:36Z</time>
      </trkpt>
      <trkpt lat="44.8023" lon="-0.47798">
        <ele>66</ele>
        <time>2015-08-05T09:22:38Z</time>
      </trkpt>
      <trkpt lat="44.80212" lon="-0.47805">
        <ele>67</ele>
        <time>2015-08-05T09:22:43Z</time>
      </trkpt>
      <trkpt lat="44.80195" lon="-0.47816">
        <ele>67</ele>
        <time>2015-08-05T09:22:48Z</time>
      </trkpt>
      <trkpt lat="44.80174" lon="-0.4783">
        <ele>67</ele>
        <time>2015-08-05T09:22:54Z</time>
      </trkpt>
      <trkpt lat="44.80155" lon="-0.4784">
        <ele>68</ele>
        <time>2015-08-05T09:22:59Z</time>
      </trkpt>
      <trkpt lat="44.80139" lon="-0.47848">
        <ele>67</ele>
        <time>2015-08-05T09:23:03Z</time>
      </trkpt>
      <trkpt lat="44.80118" lon="-0.47855">
        <ele>68</ele>
        <time>2015-08-05T09:23:08Z</time>
      </trkpt>
      <trkpt lat="44.80085" lon="-0.47857">
        <ele>69</ele>
        <time>2015-08-05T09:23:15Z</time>
      </trkpt>
      <trkpt lat="44.80065" lon="-0.47861">
        <ele>69</ele>
        <time>2015-08-05T09:23:19Z</time>
      </trkpt>
      <trkpt lat="44.80047" lon="-0.47869">
        <ele>69</ele>
        <time>2015-08-05T09:23:23Z</time>
      </trkpt>
      <trkpt lat="44.80028" lon="-0.4788">
        <ele>72</ele>
        <time>2015-08-05T09:23:28Z</time>
      </trkpt>
      <trkpt lat="44.80003" lon="-0.47882">
        <ele>73</ele>
        <time>2015-08-05T09:23:34Z</time>
      </trkpt>
      <trkpt lat="44.79985" lon="-0.47881">
        <ele>74</ele>
        <time>2015-08-05T09:23:38Z</time>
      </trkpt>
      <trkpt lat="44.79951" lon="-0.47883">
        <ele>70</ele>
        <time>2015-08-05T09:23:45Z</time>
      </trkpt>
      <trkpt lat="44.79917" lon="-0.4788">
        <ele>70</ele>
        <time>2015-08-05T09:23:52Z</time>
      </trkpt>
      <trkpt lat="44.79912" lon="-0.47881">
        <ele>69</ele>
        <time>2015-08-05T09:23:53Z</time>
      </trkpt>
      <trkpt lat="44.79884" lon="-0.47883">
        <ele>70</ele>
        <time>2015-08-05T09:23:59Z</time>
      </trkpt>
      <trkpt lat="44.79855" lon="-0.47881">
        <ele>67</ele>
        <time>2015-08-05T09:24:04Z</time>
      </trkpt>
      <trkpt lat="44.79833" lon="-0.47883">
        <ele>69</ele>
        <time>2015-08-05T09:24:08Z</time>
      </trkpt>
      <trkpt lat="44.79806" lon="-0.47879">
        <ele>70</ele>
        <time>2015-08-05T09:24:13Z</time>
      </trkpt>
      <trkpt lat="44.79771" lon="-0.47872">
        <ele>70</ele>
        <time>2015-08-05T09:24:21Z</time>
      </trkpt>
      <trkpt lat="44.7976" lon="-0.47871">
        <ele>71</ele>
        <time>2015-08-05T09:24:23Z</time>
      </trkpt>
      <trkpt lat="44.7974" lon="-0.47863">
        <ele>71</ele>
        <time>2015-08-05T09:24:28Z</time>
      </trkpt>
      <trkpt lat="44.79718" lon="-0.47852">
        <ele>72</ele>
        <time>2015-08-05T09:24:33Z</time>
      </trkpt>
      <trkpt lat="44.79686" lon="-0.47827">
        <ele>72</ele>
        <time>2015-08-05T09:24:41Z</time>
      </trkpt>
      <trkpt lat="44.79678" lon="-0.4782">
        <ele>72</ele>
        <time>2015-08-05T09:24:43Z</time>
      </trkpt>
      <trkpt lat="44.79658" lon="-0.47807">
        <ele>72</ele>
        <time>2015-08-05T09:24:48Z</time>
      </trkpt>
      <trkpt lat="44.79639" lon="-0.47815">
        <ele>72</ele>
        <time>2015-08-05T09:24:53Z</time>
      </trkpt>
      <trkpt lat="44.79619" lon="-0.4786">
        <ele>70</ele>
        <time>2015-08-05T09:25:00Z</time>
      </trkpt>
      <trkpt lat="44.79608" lon="-0.47889">
        <ele>71</ele>
        <time>2015-08-05T09:25:04Z</time>
      </trkpt>
      <trkpt lat="44.79602" lon="-0.47929">
        <ele>72</ele>
        <time>2015-08-05T09:25:08Z</time>
      </trkpt>
      <trkpt lat="44.79598" lon="-0.47985">
        <ele>70</ele>
        <time>2015-08-05T09:25:13Z</time>
      </trkpt>
      <trkpt lat="44.79596" lon="-0.48084">
        <ele>69</ele>
        <time>2015-08-05T09:25:20Z</time>
      </trkpt>
      <trkpt lat="44.79592" lon="-0.48153">
        <ele>69</ele>
        <time>2015-08-05T09:25:25Z</time>
      </trkpt>
      <trkpt lat="44.79581" lon="-0.48237">
        <ele>66</ele>
        <time>2015-08-05T09:25:32Z</time>
      </trkpt>
      <trkpt lat="44.79579" lon="-0.48269">
        <ele>67</ele>
        <time>2015-08-05T09:25:35Z</time>
      </trkpt>
      <trkpt lat="44.79583" lon="-0.48326">
        <ele>64</ele>
        <time>2015-08-05T09:25:41Z</time>
      </trkpt>
      <trkpt lat="44.79585" lon="-0.48347">
        <ele>65</ele>
        <time>2015-08-05T09:25:44Z</time>
      </trkpt>
      <trkpt lat="44.79591" lon="-0.48362">
        <ele>62</ele>
        <time>2015-08-05T09:25:48Z</time>
      </trkpt>
      <trkpt lat="44.79592" lon="-0.48364">
        <ele>61</ele>
        <time>2015-08-05T09:25:53Z</time>
      </trkpt>
      <trkpt lat="44.7961" lon="-0.48399">
        <ele>60</ele>
        <time>2015-08-05T09:26:02Z</time>
      </trkpt>
      <trkpt lat="44.79614" lon="-0.48404">
        <ele>60</ele>
        <time>2015-08-05T09:26:04Z</time>
      </trkpt>
      <trkpt lat="44.79621" lon="-0.48415">
        <ele>59</ele>
        <time>2015-08-05T09:26:11Z</time>
      </trkpt>
      <trkpt lat="44.79621" lon="-0.48415">
        <ele>58</ele>
        <time>2015-08-05T09:26:13Z</time>
      </trkpt>
      <trkpt lat="44.79621" lon="-0.48416">
        <ele>59</ele>
        <time>2015-08-05T09:26:18Z</time>
      </trkpt>
      <trkpt lat="44.79622" lon="-0.48417">
        <ele>58</ele>
        <time>2015-08-05T09:26:23Z</time>
      </trkpt>
      <trkpt lat="44.79622" lon="-0.48417">
        <ele>58</ele>
        <time>2015-08-05T09:26:28Z</time>
      </trkpt>
      <trkpt lat="44.79622" lon="-0.48417">
        <ele>58</ele>
        <time>2015-08-05T09:26:33Z</time>
      </trkpt>
      <trkpt lat="44.79622" lon="-0.48417">
        <ele>58</ele>
        <time>2015-08-05T09:26:38Z</time>
      </trkpt>
      <trkpt lat="44.79621" lon="-0.48417">
        <ele>58</ele>
        <time>2015-08-05T09:26:44Z</time>
      </trkpt>
      <trkpt lat="44.79622" lon="-0.48417">
        <ele>58</ele>
        <time>2015-08-05T09:26:48Z</time>
      </trkpt>
      <trkpt lat="44.7963" lon="-0.48429">
        <ele>57</ele>
        <time>2015-08-05T09:26:53Z</time>
      </trkpt>
      <trkpt lat="44.79643" lon="-0.48449">
        <ele>57</ele>
        <time>2015-08-05T09:26:58Z</time>
      </trkpt>
      <trkpt lat="44.79659" lon="-0.48476">
        <ele>55</ele>
        <time>2015-08-05T09:27:03Z</time>
      </trkpt>
      <trkpt lat="44.79674" lon="-0.48497">
        <ele>55</ele>
        <time>2015-08-05T09:27:08Z</time>
      </trkpt>
      <trkpt lat="44.79704" lon="-0.48536">
        <ele>55</ele>
        <time>2015-08-05T09:27:17Z</time>
      </trkpt>
      <trkpt lat="44.79708" lon="-0.48552">
        <ele>55</ele>
        <time>2015-08-05T09:27:19Z</time>
      </trkpt>
      <trkpt lat="44.79739" lon="-0.48603">
        <ele>51</ele>
        <time>2015-08-05T09:27:26Z</time>
      </trkpt>
      <trkpt lat="44.79753" lon="-0.48629">
        <ele>52</ele>
        <time>2015-08-05T09:27:29Z</time>
      </trkpt>
      <trkpt lat="44.79782" lon="-0.48669">
        <ele>53</ele>
        <time>2015-08-05T09:27:35Z</time>
      </trkpt>
      <trkpt lat="44.79797" lon="-0.48688">
        <ele>54</ele>
        <time>2015-08-05T09:27:38Z</time>
      </trkpt>
      <trkpt lat="44.79819" lon="-0.48717">
        <ele>54</ele>
        <time>2015-08-05T09:27:43Z</time>
      </trkpt>
      <trkpt lat="44.79862" lon="-0.48761">
        <ele>51</ele>
        <time>2015-08-05T09:27:50Z</time>
      </trkpt>
      <trkpt lat="44.79876" lon="-0.48806">
        <ele>48</ele>
        <time>2015-08-05T09:27:55Z</time>
      </trkpt>
      <trkpt lat="44.79901" lon="-0.48844">
        <ele>49</ele>
        <time>2015-08-05T09:28:00Z</time>
      </trkpt>
      <trkpt lat="44.79911" lon="-0.48864">
        <ele>49</ele>
        <time>2015-08-05T09:28:03Z</time>
      </trkpt>
      <trkpt lat="44.79926" lon="-0.489">
        <ele>46</ele>
        <time>2015-08-05T09:28:08Z</time>
      </trkpt>
      <trkpt lat="44.79934" lon="-0.48936">
        <ele>44</ele>
        <time>2015-08-05T09:28:16Z</time>
      </trkpt>
      <trkpt lat="44.79935" lon="-0.48948">
        <ele>43</ele>
        <time>2015-08-05T09:28:21Z</time>
      </trkpt>
      <trkpt lat="44.79937" lon="-0.48957">
        <ele>42</ele>
        <time>2015-08-05T09:28:23Z</time>
      </trkpt>
      <trkpt lat="44.79943" lon="-0.48974">
        <ele>43</ele>
        <time>2015-08-05T09:28:28Z</time>
      </trkpt>
      <trkpt lat="44.79951" lon="-0.49013">
        <ele>41</ele>
        <time>2015-08-05T09:28:36Z</time>
      </trkpt>
      <trkpt lat="44.79949" lon="-0.49019">
        <ele>43</ele>
        <time>2015-08-05T09:28:38Z</time>
      </trkpt>
      <trkpt lat="44.79938" lon="-0.49023">
        <ele>43</ele>
        <time>2015-08-05T09:28:43Z</time>
      </trkpt>
      <trkpt lat="44.79925" lon="-0.49025">
        <ele>44</ele>
        <time>2015-08-05T09:28:48Z</time>
      </trkpt>
      <trkpt lat="44.79913" lon="-0.49031">
        <ele>43</ele>
        <time>2015-08-05T09:28:53Z</time>
      </trkpt>
      <trkpt lat="44.799" lon="-0.49039">
        <ele>43</ele>
        <time>2015-08-05T09:28:58Z</time>
      </trkpt>
      <trkpt lat="44.79885" lon="-0.49046">
        <ele>44</ele>
        <time>2015-08-05T09:29:04Z</time>
      </trkpt>
      <trkpt lat="44.7987" lon="-0.49049">
        <ele>46</ele>
        <time>2015-08-05T09:29:10Z</time>
      </trkpt>
      <trkpt lat="44.79863" lon="-0.49051">
        <ele>46</ele>
        <time>2015-08-05T09:29:13Z</time>
      </trkpt>
      <trkpt lat="44.79848" lon="-0.49059">
        <ele>46</ele>
        <time>2015-08-05T09:29:20Z</time>
      </trkpt>
      <trkpt lat="44.79839" lon="-0.49061">
        <ele>45</ele>
        <time>2015-08-05T09:29:23Z</time>
      </trkpt>
      <trkpt lat="44.7982" lon="-0.49065">
        <ele>46</ele>
        <time>2015-08-05T09:29:32Z</time>
      </trkpt>
      <trkpt lat="44.79818" lon="-0.49065">
        <ele>48</ele>
        <time>2015-08-05T09:29:34Z</time>
      </trkpt>
      <trkpt lat="44.79812" lon="-0.49066">
        <ele>52</ele>
        <time>2015-08-05T09:29:39Z</time>
      </trkpt>
      <trkpt lat="44.79803" lon="-0.4907">
        <ele>56</ele>
        <time>2015-08-05T09:29:44Z</time>
      </trkpt>
      <trkpt lat="44.79795" lon="-0.49073">
        <ele>56</ele>
        <time>2015-08-05T09:29:48Z</time>
      </trkpt>
      <trkpt lat="44.7978" lon="-0.49076">
        <ele>58</ele>
        <time>2015-08-05T09:29:55Z</time>
      </trkpt>
      <trkpt lat="44.79773" lon="-0.49075">
        <ele>60</ele>
        <time>2015-08-05T09:29:58Z</time>
      </trkpt>
      <trkpt lat="44.79759" lon="-0.49071">
        <ele>61</ele>
        <time>2015-08-05T09:30:06Z</time>
      </trkpt>
      <trkpt lat="44.79744" lon="-0.49077">
        <ele>59</ele>
        <time>2015-08-05T09:30:12Z</time>
      </trkpt>
      <trkpt lat="44.79741" lon="-0.49079">
        <ele>60</ele>
        <time>2015-08-05T09:30:13Z</time>
      </trkpt>
      <trkpt lat="44.79729" lon="-0.49089">
        <ele>60</ele>
        <time>2015-08-05T09:30:18Z</time>
      </trkpt>
      <trkpt lat="44.79716" lon="-0.49104">
        <ele>59</ele>
        <time>2015-08-05T09:30:23Z</time>
      </trkpt>
      <trkpt lat="44.79694" lon="-0.49136">
        <ele>57</ele>
        <time>2015-08-05T09:30:28Z</time>
      </trkpt>
      <trkpt lat="44.79695" lon="-0.49167">
        <ele>56</ele>
        <time>2015-08-05T09:30:33Z</time>
      </trkpt>
      <trkpt lat="44.79704" lon="-0.49195">
        <ele>59</ele>
        <time>2015-08-05T09:30:38Z</time>
      </trkpt>
      <trkpt lat="44.79722" lon="-0.49225">
        <ele>57</ele>
        <time>2015-08-05T09:30:43Z</time>
      </trkpt>
      <trkpt lat="44.79736" lon="-0.4925">
        <ele>54</ele>
        <time>2015-08-05T09:30:48Z</time>
      </trkpt>
      <trkpt lat="44.79756" lon="-0.49295">
        <ele>51</ele>
        <time>2015-08-05T09:30:55Z</time>
      </trkpt>
      <trkpt lat="44.79766" lon="-0.49313">
        <ele>50</ele>
        <time>2015-08-05T09:30:59Z</time>
      </trkpt>
      <trkpt lat="44.79803" lon="-0.49359">
        <ele>44</ele>
        <time>2015-08-05T09:31:07Z</time>
      </trkpt>
      <trkpt lat="44.79806" lon="-0.49364">
        <ele>43</ele>
        <time>2015-08-05T09:31:08Z</time>
      </trkpt>
      <trkpt lat="44.79823" lon="-0.4939">
        <ele>44</ele>
        <time>2015-08-05T09:31:15Z</time>
      </trkpt>
      <trkpt lat="44.79838" lon="-0.49413">
        <ele>42</ele>
        <time>2015-08-05T09:31:18Z</time>
      </trkpt>
      <trkpt lat="44.7986" lon="-0.49441">
        <ele>42</ele>
        <time>2015-08-05T09:31:23Z</time>
      </trkpt>
      <trkpt lat="44.79878" lon="-0.49489">
        <ele>42</ele>
        <time>2015-08-05T09:31:29Z</time>
      </trkpt>
      <trkpt lat="44.79887" lon="-0.49515">
        <ele>42</ele>
        <time>2015-08-05T09:31:33Z</time>
      </trkpt>
      <trkpt lat="44.7988" lon="-0.4955">
        <ele>46</ele>
        <time>2015-08-05T09:31:40Z</time>
      </trkpt>
      <trkpt lat="44.79886" lon="-0.49585">
        <ele>46</ele>
        <time>2015-08-05T09:31:47Z</time>
      </trkpt>
      <trkpt lat="44.79888" lon="-0.49597">
        <ele>46</ele>
        <time>2015-08-05T09:31:49Z</time>
      </trkpt>
      <trkpt lat="44.79893" lon="-0.49625">
        <ele>46</ele>
        <time>2015-08-05T09:31:54Z</time>
      </trkpt>
      <trkpt lat="44.79897" lon="-0.49654">
        <ele>45</ele>
        <time>2015-08-05T09:31:58Z</time>
      </trkpt>
      <trkpt lat="44.79894" lon="-0.49694">
        <ele>47</ele>
        <time>2015-08-05T09:32:05Z</time>
      </trkpt>
      <trkpt lat="44.79887" lon="-0.49709">
        <ele>48</ele>
        <time>2015-08-05T09:32:08Z</time>
      </trkpt>
      <trkpt lat="44.79872" lon="-0.49743">
        <ele>49</ele>
        <time>2015-08-05T09:32:15Z</time>
      </trkpt>
      <trkpt lat="44.79869" lon="-0.49764">
        <ele>51</ele>
        <time>2015-08-05T09:32:19Z</time>
      </trkpt>
      <trkpt lat="44.79868" lon="-0.49787">
        <ele>52</ele>
        <time>2015-08-05T09:32:24Z</time>
      </trkpt>
      <trkpt lat="44.79867" lon="-0.49803">
        <ele>53</ele>
        <time>2015-08-05T09:32:28Z</time>
      </trkpt>
      <trkpt lat="44.7986" lon="-0.4984">
        <ele>51</ele>
        <time>2015-08-05T09:32:37Z</time>
      </trkpt>
      <trkpt lat="44.79859" lon="-0.49854">
        <ele>50</ele>
        <time>2015-08-05T09:32:38Z</time>
      </trkpt>
      <trkpt lat="44.79847" lon="-0.49911">
        <ele>47</ele>
        <time>2015-08-05T09:32:43Z</time>
      </trkpt>
      <trkpt lat="44.7982" lon="-0.50026">
        <ele>44</ele>
        <time>2015-08-05T09:32:52Z</time>
      </trkpt>
      <trkpt lat="44.79815" lon="-0.5003">
        <ele>43</ele>
        <time>2015-08-05T09:32:53Z</time>
      </trkpt>
      <trkpt lat="44.79803" lon="-0.50036">
        <ele>41</ele>
        <time>2015-08-05T09:32:58Z</time>
      </trkpt>
      <trkpt lat="44.79776" lon="-0.50032">
        <ele>38</ele>
        <time>2015-08-05T09:33:06Z</time>
      </trkpt>
      <trkpt lat="44.79772" lon="-0.50034">
        <ele>39</ele>
        <time>2015-08-05T09:33:09Z</time>
      </trkpt>
      <trkpt lat="44.79762" lon="-0.50035">
        <ele>39</ele>
        <time>2015-08-05T09:33:13Z</time>
      </trkpt>
      <trkpt lat="44.79753" lon="-0.50036">
        <ele>36</ele>
        <time>2015-08-05T09:33:18Z</time>
      </trkpt>
      <trkpt lat="44.79732" lon="-0.50047">
        <ele>33</ele>
        <time>2015-08-05T09:33:23Z</time>
      </trkpt>
      <trkpt lat="44.79716" lon="-0.50053">
        <ele>28</ele>
        <time>2015-08-05T09:33:28Z</time>
      </trkpt>
      <trkpt lat="44.79684" lon="-0.50061">
        <ele>24</ele>
        <time>2015-08-05T09:33:33Z</time>
      </trkpt>
      <trkpt lat="44.79653" lon="-0.50106">
        <ele>17</ele>
        <time>2015-08-05T09:33:41Z</time>
      </trkpt>
      <trkpt lat="44.79659" lon="-0.50114">
        <ele>14</ele>
        <time>2015-08-05T09:33:44Z</time>
      </trkpt>
      <trkpt lat="44.79674" lon="-0.5012">
        <ele>12</ele>
        <time>2015-08-05T09:33:48Z</time>
      </trkpt>
      <trkpt lat="44.79701" lon="-0.50131">
        <ele>10</ele>
        <time>2015-08-05T09:33:52Z</time>
      </trkpt>
      <trkpt lat="44.79737" lon="-0.50146">
        <ele>7</ele>
        <time>2015-08-05T09:33:58Z</time>
      </trkpt>
      <trkpt lat="44.79773" lon="-0.50162">
        <ele>6</ele>
        <time>2015-08-05T09:34:04Z</time>
      </trkpt>
      <trkpt lat="44.79811" lon="-0.50178">
        <ele>2</ele>
        <time>2015-08-05T09:34:11Z</time>
      </trkpt>
      <trkpt lat="44.79816" lon="-0.50179">
        <ele>2</ele>
        <time>2015-08-05T09:34:13Z</time>
      </trkpt>
      <trkpt lat="44.79843" lon="-0.50192">
        <ele>2</ele>
        <time>2015-08-05T09:34:17Z</time>
      </trkpt>
      <trkpt lat="44.7987" lon="-0.50206">
        <ele>2</ele>
        <time>2015-08-05T09:34:22Z</time>
      </trkpt>
      <trkpt lat="44.79906" lon="-0.50226">
        <ele>3</ele>
        <time>2015-08-05T09:34:28Z</time>
      </trkpt>
      <trkpt lat="44.79932" lon="-0.50238">
        <ele>4</ele>
        <time>2015-08-05T09:34:32Z</time>
      </trkpt>
      <trkpt lat="44.79974" lon="-0.50257">
        <ele>1</ele>
        <time>2015-08-05T09:34:39Z</time>
      </trkpt>
      <trkpt lat="44.80007" lon="-0.50266">
        <ele>5</ele>
        <time>2015-08-05T09:34:45Z</time>
      </trkpt>
      <trkpt lat="44.80024" lon="-0.50272">
        <ele>-1</ele>
        <time>2015-08-05T09:34:47Z</time>
      </trkpt>
      <trkpt lat="44.80061" lon="-0.50282">
        <ele>-1</ele>
        <time>2015-08-05T09:34:53Z</time>
      </trkpt>
      <trkpt lat="44.80107" lon="-0.50299">
        <ele>5</ele>
        <time>2015-08-05T09:35:01Z</time>
      </trkpt>
      <trkpt lat="44.80112" lon="-0.50301">
        <ele>1</ele>
        <time>2015-08-05T09:35:02Z</time>
      </trkpt>
      <trkpt lat="44.80137" lon="-0.50311">
        <ele>2</ele>
        <time>2015-08-05T09:35:07Z</time>
      </trkpt>
      <trkpt lat="44.80144" lon="-0.50359">
        <ele>6</ele>
        <time>2015-08-05T09:35:17Z</time>
      </trkpt>
      <trkpt lat="44.80138" lon="-0.50398">
        <ele>6</ele>
        <time>2015-08-05T09:35:21Z</time>
      </trkpt>
      <trkpt lat="44.80137" lon="-0.50405">
        <ele>5</ele>
        <time>2015-08-05T09:35:22Z</time>
      </trkpt>
      <trkpt lat="44.80131" lon="-0.5044">
        <ele>6</ele>
        <time>2015-08-05T09:35:28Z</time>
      </trkpt>
      <trkpt lat="44.80125" lon="-0.50486">
        <ele>5</ele>
        <time>2015-08-05T09:35:33Z</time>
      </trkpt>
      <trkpt lat="44.80119" lon="-0.50518">
        <ele>7</ele>
        <time>2015-08-05T09:35:38Z</time>
      </trkpt>
      <trkpt lat="44.80111" lon="-0.50555">
        <ele>6</ele>
        <time>2015-08-05T09:35:42Z</time>
      </trkpt>
      <trkpt lat="44.80095" lon="-0.50615">
        <ele>4</ele>
        <time>2015-08-05T09:35:50Z</time>
      </trkpt>
      <trkpt lat="44.80091" lon="-0.50629">
        <ele>4</ele>
        <time>2015-08-05T09:35:52Z</time>
      </trkpt>
      <trkpt lat="44.80082" lon="-0.50671">
        <ele>6</ele>
        <time>2015-08-05T09:35:58Z</time>
      </trkpt>
      <trkpt lat="44.80076" lon="-0.50707">
        <ele>8</ele>
        <time>2015-08-05T09:36:04Z</time>
      </trkpt>
      <trkpt lat="44.80071" lon="-0.50722">
        <ele>6</ele>
        <time>2015-08-05T09:36:07Z</time>
      </trkpt>
      <trkpt lat="44.8007" lon="-0.5073">
        <ele>5</ele>
        <time>2015-08-05T09:36:12Z</time>
      </trkpt>
      <trkpt lat="44.8007" lon="-0.5073">
        <ele>5</ele>
        <time>2015-08-05T09:36:18Z</time>
      </trkpt>
      <trkpt lat="44.8007" lon="-0.5073">
        <ele>4</ele>
        <time>2015-08-05T09:36:22Z</time>
      </trkpt>
    </trkseg>
  </trk>
</gpx>